PWSweather.com
Personal Weather Stations
Station Observations
HVALPSUND
Hvalpsund, FarsoeDK 9640

HvalpsundFarsoeDK 9640

Lat: 56.705311, Lon: 9.203638

Elevation: 5

Station Type: Vantage Pro2

http://hvalpsundvejr.dk

High Low Average
Temperature 33.9°F1.1°C 31.5°F-0.3°C 33.0°F0.6°C
Dew Point 32.0°F0.0°C 28.6°F-1.9°C 31.1°F-0.5°C
Winds 16.9 mph 27.2 kmh 1.1 mph 1.8 kmh 11.0 mph NNW17.7 kmh NNW
Wind Gusts 19.0 mph30.6 kmh 3.0 mph4.8 kmh 13.0 mph20.9 kmh
Humidity 95% 88% 93%
Pressure 29.72 in1006.4 mb 29.30 in992.2 mb -
Precipitation 0.00 in0.0 mm - -
Hour Temp Dew Point Humidity Winds Wind Gusts Pressure Precip Precip Rate Daily Precip Total
12:00 AM 33.2°F0.7°C 31.9°F-0.1°C 95% 3.5 mph NNW5.6 kmh NNW 4.0 mph6.4 kmh 29.31 in992.6 mb 0.00 in0.0 mm 0.00 in0.0 mm 0.00 in0.0 mm
12:01 AM 33.1°F0.6°C 31.8°F-0.1°C 95% 3.8 mph NNW6.1 kmh NNW 4.0 mph6.4 kmh 29.31 in992.6 mb 0.00 in0.0 mm 0.00 in0.0 mm 0.00 in0.0 mm
12:02 AM 33.1°F0.6°C 31.8°F-0.1°C 95% 3.3 mph NNW5.3 kmh NNW 4.0 mph6.4 kmh 29.31 in992.6 mb 0.00 in0.0 mm 0.00 in0.0 mm 0.00 in0.0 mm
12:03 AM 33.1°F0.6°C 31.8°F-0.1°C 95% 3.8 mph NNW6.1 kmh NNW 4.0 mph6.4 kmh 29.31 in992.6 mb 0.00 in0.0 mm 0.00 in0.0 mm 0.00 in0.0 mm
12:04 AM 33.1°F0.6°C 31.8°F-0.1°C 95% 3.9 mph NNW6.3 kmh NNW 5.0 mph8.0 kmh 29.31 in992.6 mb 0.00 in0.0 mm 0.00 in0.0 mm 0.00 in0.0 mm
12:05 AM 33.1°F0.6°C 31.8°F-0.1°C 95% 4.3 mph NNW6.9 kmh NNW 5.0 mph8.0 kmh 29.31 in992.6 mb 0.00 in0.0 mm 0.00 in0.0 mm 0.00 in0.0 mm
12:06 AM 33.1°F0.6°C 31.8°F-0.1°C 95% 4.0 mph NNW6.4 kmh NNW 5.0 mph8.0 kmh 29.31 in992.6 mb 0.00 in0.0 mm 0.00 in0.0 mm 0.00 in0.0 mm
12:07 AM 33.0°F0.6°C 31.7°F-0.2°C 95% 4.1 mph NNW6.6 kmh NNW 5.0 mph8.0 kmh 29.31 in992.6 mb 0.00 in0.0 mm 0.00 in0.0 mm 0.00 in0.0 mm
12:08 AM 33.1°F0.6°C 31.8°F-0.1°C 95% 3.6 mph NNW5.8 kmh NNW 5.0 mph8.0 kmh 29.31 in992.6 mb 0.00 in0.0 mm 0.00 in0.0 mm 0.00 in0.0 mm
12:09 AM 33.0°F0.6°C 31.7°F-0.2°C 95% 3.4 mph NNW5.5 kmh NNW 4.0 mph6.4 kmh 29.31 in992.6 mb 0.00 in0.0 mm 0.00 in0.0 mm 0.00 in0.0 mm
12:10 AM 33.1°F0.6°C 31.8°F-0.1°C 95% 3.7 mph NNW6.0 kmh NNW 4.0 mph6.4 kmh 29.31 in992.6 mb 0.00 in0.0 mm 0.00 in0.0 mm 0.00 in0.0 mm
12:11 AM 33.0°F0.6°C 31.7°F-0.2°C 95% 3.6 mph NNW5.8 kmh NNW 4.0 mph6.4 kmh 29.31 in992.6 mb 0.00 in0.0 mm 0.00 in0.0 mm 0.00 in0.0 mm
12:12 AM 33.1°F0.6°C 31.8°F-0.1°C 95% 3.5 mph NNW5.6 kmh NNW 4.0 mph6.4 kmh 29.31 in992.6 mb 0.00 in0.0 mm 0.00 in0.0 mm 0.00 in0.0 mm
12:13 AM 33.1°F0.6°C 31.8°F-0.1°C 95% 4.3 mph NNW6.9 kmh NNW 5.0 mph8.0 kmh 29.31 in992.6 mb 0.00 in0.0 mm 0.00 in0.0 mm 0.00 in0.0 mm
12:14 AM 33.0°F0.6°C 31.7°F-0.2°C 95% 3.8 mph NNW6.1 kmh NNW 5.0 mph8.0 kmh 29.31 in992.6 mb 0.00 in0.0 mm 0.00 in0.0 mm 0.00 in0.0 mm
12:15 AM 33.0°F0.6°C 31.7°F-0.2°C 95% 3.3 mph NNW5.3 kmh NNW 4.0 mph6.4 kmh 29.31 in992.6 mb 0.00 in0.0 mm 0.00 in0.0 mm 0.00 in0.0 mm
12:16 AM 33.0°F0.6°C 31.7°F-0.2°C 95% 2.9 mph NNW4.7 kmh NNW 4.0 mph6.4 kmh 29.31 in992.6 mb 0.00 in0.0 mm 0.00 in0.0 mm 0.00 in0.0 mm
12:17 AM 33.0°F0.6°C 31.7°F-0.2°C 95% 2.9 mph NNW4.7 kmh NNW 4.0 mph6.4 kmh 29.31 in992.6 mb 0.00 in0.0 mm 0.00 in0.0 mm 0.00 in0.0 mm
12:18 AM 33.0°F0.6°C 31.7°F-0.2°C 95% 3.4 mph NNW5.5 kmh NNW 4.0 mph6.4 kmh 29.31 in992.6 mb 0.00 in0.0 mm 0.00 in0.0 mm 0.00 in0.0 mm
12:19 AM 33.0°F0.6°C 31.7°F-0.2°C 95% 4.5 mph NNW7.2 kmh NNW 5.0 mph8.0 kmh 29.31 in992.6 mb 0.00 in0.0 mm 0.00 in0.0 mm 0.00 in0.0 mm
12:20 AM 33.0°F0.6°C 31.7°F-0.2°C 95% 4.5 mph NNW7.2 kmh NNW 5.0 mph8.0 kmh 29.31 in992.6 mb 0.00 in0.0 mm 0.00 in0.0 mm 0.00 in0.0 mm
12:21 AM 33.0°F0.6°C 31.7°F-0.2°C 95% 4.7 mph NNW7.6 kmh NNW 5.0 mph8.0 kmh 29.31 in992.6 mb 0.00 in0.0 mm 0.00 in0.0 mm 0.00 in0.0 mm
12:22 AM 33.0°F0.6°C 31.7°F-0.2°C 95% 4.6 mph NNW7.4 kmh NNW 5.0 mph8.0 kmh 29.31 in992.6 mb 0.00 in0.0 mm 0.00 in0.0 mm 0.00 in0.0 mm
12:23 AM 33.0°F0.6°C 31.7°F-0.2°C 95% 4.5 mph NNW7.2 kmh NNW 5.0 mph8.0 kmh 29.31 in992.6 mb 0.00 in0.0 mm 0.00 in0.0 mm 0.00 in0.0 mm
12:24 AM 33.0°F0.6°C 31.7°F-0.2°C 95% 4.4 mph NNW7.1 kmh NNW 5.0 mph8.0 kmh 29.31 in992.6 mb 0.00 in0.0 mm 0.00 in0.0 mm 0.00 in0.0 mm
12:25 AM 33.0°F0.6°C 31.7°F-0.2°C 95% 4.2 mph NNW6.8 kmh NNW 5.0 mph8.0 kmh 29.31 in992.6 mb 0.00 in0.0 mm 0.00 in0.0 mm 0.00 in0.0 mm
12:26 AM 33.0°F0.6°C 31.7°F-0.2°C 95% 3.9 mph NNW6.3 kmh NNW 5.0 mph8.0 kmh 29.31 in992.6 mb 0.00 in0.0 mm 0.00 in0.0 mm 0.00 in0.0 mm
12:27 AM 33.1°F0.6°C 31.8°F-0.1°C 95% 4.1 mph NNW6.6 kmh NNW 5.0 mph8.0 kmh 29.31 in992.6 mb 0.00 in0.0 mm 0.00 in0.0 mm 0.00 in0.0 mm
12:28 AM 33.0°F0.6°C 31.7°F-0.2°C 95% 4.4 mph NNW7.1 kmh NNW 5.0 mph8.0 kmh 29.31 in992.6 mb 0.00 in0.0 mm 0.00 in0.0 mm 0.00 in0.0 mm
12:29 AM 33.0°F0.6°C 31.7°F-0.2°C 95% 4.7 mph NNW7.6 kmh NNW 5.0 mph8.0 kmh 29.31 in992.6 mb 0.00 in0.0 mm 0.00 in0.0 mm 0.00 in0.0 mm
12:30 AM 33.0°F0.6°C 31.7°F-0.2°C 95% 4.7 mph NNW7.6 kmh NNW 5.0 mph8.0 kmh 29.31 in992.6 mb 0.00 in0.0 mm 0.00 in0.0 mm 0.00 in0.0 mm
12:31 AM 33.0°F0.6°C 31.7°F-0.2°C 95% 4.7 mph NNW7.6 kmh NNW 5.0 mph8.0 kmh 29.31 in992.6 mb 0.00 in0.0 mm 0.00 in0.0 mm 0.00 in0.0 mm
12:32 AM 33.0°F0.6°C 31.7°F-0.2°C 95% 4.8 mph NNW7.7 kmh NNW 5.0 mph8.0 kmh 29.31 in992.6 mb 0.00 in0.0 mm 0.00 in0.0 mm 0.00 in0.0 mm
12:33 AM 33.0°F0.6°C 31.7°F-0.2°C 95% 4.7 mph NNW7.6 kmh NNW 5.0 mph8.0 kmh 29.31 in992.6 mb 0.00 in0.0 mm 0.00 in0.0 mm 0.00 in0.0 mm
12:34 AM 33.0°F0.6°C 31.7°F-0.2°C 95% 4.7 mph NNW7.6 kmh NNW 5.0 mph8.0 kmh 29.31 in992.6 mb 0.00 in0.0 mm 0.00 in0.0 mm 0.00 in0.0 mm
12:35 AM 33.0°F0.6°C 31.7°F-0.2°C 95% 4.3 mph NNW6.9 kmh NNW 5.0 mph8.0 kmh 29.31 in992.6 mb 0.00 in0.0 mm 0.00 in0.0 mm 0.00 in0.0 mm
12:36 AM 33.0°F0.6°C 31.7°F-0.2°C 95% 4.0 mph NNW6.4 kmh NNW 5.0 mph8.0 kmh 29.31 in992.6 mb 0.00 in0.0 mm 0.00 in0.0 mm 0.00 in0.0 mm
12:37 AM 33.0°F0.6°C 31.7°F-0.2°C 95% 3.8 mph NNW6.1 kmh NNW 5.0 mph8.0 kmh 29.31 in992.6 mb 0.00 in0.0 mm 0.00 in0.0 mm 0.00 in0.0 mm
12:38 AM 33.0°F0.6°C 31.7°F-0.2°C 95% 3.7 mph NNW6.0 kmh NNW 5.0 mph8.0 kmh 29.31 in992.6 mb 0.00 in0.0 mm 0.00 in0.0 mm 0.00 in0.0 mm
12:39 AM 33.0°F0.6°C 31.7°F-0.2°C 95% 3.9 mph NNW6.3 kmh NNW 5.0 mph8.0 kmh 29.31 in992.6 mb 0.00 in0.0 mm 0.00 in0.0 mm 0.00 in0.0 mm
12:40 AM 33.0°F0.6°C 31.7°F-0.2°C 95% 3.5 mph NNW5.6 kmh NNW 5.0 mph8.0 kmh 29.31 in992.6 mb 0.00 in0.0 mm 0.00 in0.0 mm 0.00 in0.0 mm
12:41 AM 33.0°F0.6°C 31.7°F-0.2°C 95% 3.8 mph NNW6.1 kmh NNW 5.0 mph8.0 kmh 29.30 in992.2 mb 0.00 in0.0 mm 0.00 in0.0 mm 0.00 in0.0 mm
12:42 AM 33.0°F0.6°C 31.7°F-0.2°C 95% 4.6 mph NNW7.4 kmh NNW 5.0 mph8.0 kmh 29.30 in992.2 mb 0.00 in0.0 mm 0.00 in0.0 mm 0.00 in0.0 mm
12:43 AM 32.9°F0.5°C 31.6°F-0.2°C 95% 4.6 mph NNW7.4 kmh NNW 5.0 mph8.0 kmh 29.31 in992.6 mb 0.00 in0.0 mm 0.00 in0.0 mm 0.00 in0.0 mm
12:44 AM 33.0°F0.6°C 31.7°F-0.2°C 95% 4.5 mph NNW7.2 kmh NNW 5.0 mph8.0 kmh 29.31 in992.6 mb 0.00 in0.0 mm 0.00 in0.0 mm 0.00 in0.0 mm
12:45 AM 32.9°F0.5°C 31.6°F-0.2°C 95% 4.5 mph NNW7.2 kmh NNW 6.0 mph9.7 kmh 29.30 in992.2 mb 0.00 in0.0 mm 0.00 in0.0 mm 0.00 in0.0 mm
12:46 AM 33.0°F0.6°C 31.7°F-0.2°C 95% 5.0 mph NNW8.0 kmh NNW 6.0 mph9.7 kmh 29.30 in992.2 mb 0.00 in0.0 mm 0.00 in0.0 mm 0.00 in0.0 mm
12:47 AM 32.9°F0.5°C 31.6°F-0.2°C 95% 5.5 mph NNW8.9 kmh NNW 8.0 mph12.9 kmh 29.30 in992.2 mb 0.00 in0.0 mm 0.00 in0.0 mm 0.00 in0.0 mm
12:48 AM 33.0°F0.6°C 31.7°F-0.2°C 95% 5.9 mph NNW9.5 kmh NNW 8.0 mph12.9 kmh 29.30 in992.2 mb 0.00 in0.0 mm 0.00 in0.0 mm 0.00 in0.0 mm
12:49 AM 32.9°F0.5°C 31.6°F-0.2°C 95% 5.6 mph NNW9.0 kmh NNW 8.0 mph12.9 kmh 29.31 in992.6 mb 0.00 in0.0 mm 0.00 in0.0 mm 0.00 in0.0 mm
12:50 AM 33.0°F0.6°C 31.7°F-0.2°C 95% 5.6 mph NNW9.0 kmh NNW 8.0 mph12.9 kmh 29.30 in992.2 mb 0.00 in0.0 mm 0.00 in0.0 mm 0.00 in0.0 mm
12:51 AM 33.0°F0.6°C 31.7°F-0.2°C 95% 5.7 mph NNW9.2 kmh NNW 8.0 mph12.9 kmh 29.31 in992.6 mb 0.00 in0.0 mm 0.00 in0.0 mm 0.00 in0.0 mm
12:52 AM 33.0°F0.6°C 31.7°F-0.2°C 95% 5.5 mph NNW8.9 kmh NNW 8.0 mph12.9 kmh 29.30 in992.2 mb 0.00 in0.0 mm 0.00 in0.0 mm 0.00 in0.0 mm
12:53 AM 32.9°F0.5°C 31.6°F-0.2°C 95% 5.5 mph NNW8.9 kmh NNW 6.0 mph9.7 kmh 29.30 in992.2 mb 0.00 in0.0 mm 0.00 in0.0 mm 0.00 in0.0 mm
12:54 AM 33.0°F0.6°C 31.7°F-0.2°C 95% 5.3 mph NNW8.5 kmh NNW 6.0 mph9.7 kmh 29.31 in992.6 mb 0.00 in0.0 mm 0.00 in0.0 mm 0.00 in0.0 mm
12:55 AM 33.0°F0.6°C 31.7°F-0.2°C 95% 5.2 mph NNW8.4 kmh NNW 6.0 mph9.7 kmh 29.31 in992.6 mb 0.00 in0.0 mm 0.00 in0.0 mm 0.00 in0.0 mm
12:56 AM 33.0°F0.6°C 31.7°F-0.2°C 95% 5.4 mph NNW8.7 kmh NNW 6.0 mph9.7 kmh 29.31 in992.6 mb 0.00 in0.0 mm 0.00 in0.0 mm 0.00 in0.0 mm
12:57 AM 33.0°F0.6°C 31.7°F-0.2°C 95% 5.3 mph NNW8.5 kmh NNW 6.0 mph9.7 kmh 29.30 in992.2 mb 0.00 in0.0 mm 0.00 in0.0 mm 0.00 in0.0 mm
12:58 AM 33.0°F0.6°C 31.7°F-0.2°C 95% 5.5 mph NNW8.9 kmh NNW 6.0 mph9.7 kmh 29.31 in992.6 mb 0.00 in0.0 mm 0.00 in0.0 mm 0.00 in0.0 mm
12:59 AM 33.0°F0.6°C 31.7°F-0.2°C 95% 6.2 mph NNW10.0 kmh NNW 8.0 mph12.9 kmh 29.30 in992.2 mb 0.00 in0.0 mm 0.00 in0.0 mm 0.00 in0.0 mm
01:00 AM 32.9°F0.5°C 31.6°F-0.2°C 95% 6.4 mph NNW10.3 kmh NNW 8.0 mph12.9 kmh 29.31 in992.6 mb 0.00 in0.0 mm 0.00 in0.0 mm 0.00 in0.0 mm
01:01 AM 32.9°F0.5°C 31.6°F-0.2°C 95% 6.1 mph NNW9.8 kmh NNW 8.0 mph12.9 kmh 29.30 in992.2 mb 0.00 in0.0 mm 0.00 in0.0 mm 0.00 in0.0 mm
01:02 AM 33.0°F0.6°C 31.7°F-0.2°C 95% 6.1 mph NNW9.8 kmh NNW 8.0 mph12.9 kmh 29.30 in992.2 mb 0.00 in0.0 mm 0.00 in0.0 mm 0.00 in0.0 mm
01:03 AM 32.9°F0.5°C 31.6°F-0.2°C 95% 6.4 mph NNW10.3 kmh NNW 8.0 mph12.9 kmh 29.30 in992.2 mb 0.00 in0.0 mm 0.00 in0.0 mm 0.00 in0.0 mm
01:04 AM 33.0°F0.6°C 31.7°F-0.2°C 95% 5.8 mph NNW9.3 kmh NNW 8.0 mph12.9 kmh 29.30 in992.2 mb 0.00 in0.0 mm 0.00 in0.0 mm 0.00 in0.0 mm
01:05 AM 32.9°F0.5°C 31.6°F-0.2°C 95% 6.3 mph NNW10.1 kmh NNW 8.0 mph12.9 kmh 29.31 in992.6 mb 0.00 in0.0 mm 0.00 in0.0 mm 0.00 in0.0 mm
01:06 AM 33.0°F0.6°C 31.7°F-0.2°C 95% 6.8 mph NNW10.9 kmh NNW 8.0 mph12.9 kmh 29.30 in992.2 mb 0.00 in0.0 mm 0.00 in0.0 mm 0.00 in0.0 mm
01:07 AM 32.9°F0.5°C 31.6°F-0.2°C 95% 6.7 mph NNW10.8 kmh NNW 8.0 mph12.9 kmh 29.30 in992.2 mb 0.00 in0.0 mm 0.00 in0.0 mm 0.00 in0.0 mm
01:08 AM 32.9°F0.5°C 31.6°F-0.2°C 95% 6.8 mph NNW10.9 kmh NNW 8.0 mph12.9 kmh 29.30 in992.2 mb 0.00 in0.0 mm 0.00 in0.0 mm 0.00 in0.0 mm
01:09 AM 32.9°F0.5°C 31.6°F-0.2°C 95% 7.0 mph NNW11.3 kmh NNW 8.0 mph12.9 kmh 29.30 in992.2 mb 0.00 in0.0 mm 0.00 in0.0 mm 0.00 in0.0 mm
01:10 AM 32.9°F0.5°C 31.6°F-0.2°C 95% 6.8 mph NNW10.9 kmh NNW 8.0 mph12.9 kmh 29.30 in992.2 mb 0.00 in0.0 mm 0.00 in0.0 mm 0.00 in0.0 mm
01:11 AM 32.9°F0.5°C 31.6°F-0.2°C 95% 7.1 mph NNW11.4 kmh NNW 8.0 mph12.9 kmh 29.31 in992.6 mb 0.00 in0.0 mm 0.00 in0.0 mm 0.00 in0.0 mm
01:12 AM 32.9°F0.5°C 31.6°F-0.2°C 95% 7.3 mph NNW11.7 kmh NNW 8.0 mph12.9 kmh 29.30 in992.2 mb 0.00 in0.0 mm 0.00 in0.0 mm 0.00 in0.0 mm
01:13 AM 32.9°F0.5°C 31.6°F-0.2°C 95% 7.7 mph NNW12.4 kmh NNW 9.0 mph14.5 kmh 29.30 in992.2 mb 0.00 in0.0 mm 0.00 in0.0 mm 0.00 in0.0 mm
01:14 AM 32.8°F0.4°C 31.5°F-0.3°C 95% 8.4 mph NNW13.5 kmh NNW 9.0 mph14.5 kmh 29.30 in992.2 mb 0.00 in0.0 mm 0.00 in0.0 mm 0.00 in0.0 mm
01:15 AM 32.9°F0.5°C 31.6°F-0.2°C 95% 8.1 mph NNW13.0 kmh NNW 9.0 mph14.5 kmh 29.30 in992.2 mb 0.00 in0.0 mm 0.00 in0.0 mm 0.00 in0.0 mm
01:16 AM 32.9°F0.5°C 31.6°F-0.2°C 95% 8.1 mph NNW13.0 kmh NNW 9.0 mph14.5 kmh 29.30 in992.2 mb 0.00 in0.0 mm 0.00 in0.0 mm 0.00 in0.0 mm
01:17 AM 32.8°F0.4°C 31.5°F-0.3°C 95% 8.0 mph NNW12.9 kmh NNW 9.0 mph14.5 kmh 29.30 in992.2 mb 0.00 in0.0 mm 0.00 in0.0 mm 0.00 in0.0 mm
01:18 AM 32.9°F0.5°C 31.6°F-0.2°C 95% 8.3 mph NNW13.4 kmh NNW 10.0 mph16.1 kmh 29.30 in992.2 mb 0.00 in0.0 mm 0.00 in0.0 mm 0.00 in0.0 mm
01:19 AM 32.9°F0.5°C 31.6°F-0.2°C 95% 9.3 mph NNW15.0 kmh NNW 11.0 mph17.7 kmh 29.31 in992.6 mb 0.00 in0.0 mm 0.00 in0.0 mm 0.00 in0.0 mm
01:20 AM 33.0°F0.6°C 31.7°F-0.2°C 95% 9.8 mph NNW15.8 kmh NNW 11.0 mph17.7 kmh 29.30 in992.2 mb 0.00 in0.0 mm 0.00 in0.0 mm 0.00 in0.0 mm
01:21 AM 33.0°F0.6°C 31.7°F-0.2°C 95% 9.7 mph NNW15.6 kmh NNW 11.0 mph17.7 kmh 29.31 in992.6 mb 0.00 in0.0 mm 0.00 in0.0 mm 0.00 in0.0 mm
01:22 AM 33.0°F0.6°C 31.7°F-0.2°C 95% 9.5 mph NNW15.3 kmh NNW 11.0 mph17.7 kmh 29.30 in992.2 mb 0.00 in0.0 mm 0.00 in0.0 mm 0.00 in0.0 mm
01:23 AM 33.0°F0.6°C 31.7°F-0.2°C 95% 9.7 mph NNW15.6 kmh NNW 11.0 mph17.7 kmh 29.30 in992.2 mb 0.00 in0.0 mm 0.00 in0.0 mm 0.00 in0.0 mm
01:24 AM 33.0°F0.6°C 31.7°F-0.2°C 95% 10.0 mph NNW16.1 kmh NNW 11.0 mph17.7 kmh 29.30 in992.2 mb 0.00 in0.0 mm 0.00 in0.0 mm 0.00 in0.0 mm
01:25 AM 33.1°F0.6°C 31.8°F-0.1°C 95% 10.4 mph NNW16.7 kmh NNW 12.0 mph19.3 kmh 29.30 in992.2 mb 0.00 in0.0 mm 0.00 in0.0 mm 0.00 in0.0 mm
01:26 AM 33.1°F0.6°C 31.8°F-0.1°C 95% 10.4 mph NNW16.7 kmh NNW 12.0 mph19.3 kmh 29.30 in992.2 mb 0.00 in0.0 mm 0.00 in0.0 mm 0.00 in0.0 mm
01:27 AM 33.1°F0.6°C 31.8°F-0.1°C 95% 9.9 mph NNW15.9 kmh NNW 12.0 mph19.3 kmh 29.30 in992.2 mb 0.00 in0.0 mm 0.00 in0.0 mm 0.00 in0.0 mm
01:28 AM 33.1°F0.6°C 31.8°F-0.1°C 95% 9.7 mph NNW15.6 kmh NNW 11.0 mph17.7 kmh 29.31 in992.6 mb 0.00 in0.0 mm 0.00 in0.0 mm 0.00 in0.0 mm
01:29 AM 33.1°F0.6°C 31.8°F-0.1°C 95% 9.9 mph NNW15.9 kmh NNW 11.0 mph17.7 kmh 29.30 in992.2 mb 0.00 in0.0 mm 0.00 in0.0 mm 0.00 in0.0 mm
01:30 AM 33.0°F0.6°C 31.7°F-0.2°C 95% 9.9 mph NNW15.9 kmh NNW 11.0 mph17.7 kmh 29.31 in992.6 mb 0.00 in0.0 mm 0.00 in0.0 mm 0.00 in0.0 mm
01:31 AM 33.0°F0.6°C 31.7°F-0.2°C 95% 10.7 mph NNW17.2 kmh NNW 12.0 mph19.3 kmh 29.30 in992.2 mb 0.00 in0.0 mm 0.00 in0.0 mm 0.00 in0.0 mm
01:32 AM 33.0°F0.6°C 31.7°F-0.2°C 95% 10.2 mph NNW16.4 kmh NNW 12.0 mph19.3 kmh 29.31 in992.6 mb 0.00 in0.0 mm 0.00 in0.0 mm 0.00 in0.0 mm
01:33 AM 33.1°F0.6°C 31.8°F-0.1°C 95% 10.3 mph NNW16.6 kmh NNW 12.0 mph19.3 kmh 29.30 in992.2 mb 0.00 in0.0 mm 0.00 in0.0 mm 0.00 in0.0 mm
01:34 AM 33.1°F0.6°C 31.8°F-0.1°C 95% 10.0 mph NNW16.1 kmh NNW 11.0 mph17.7 kmh 29.31 in992.6 mb 0.00 in0.0 mm 0.00 in0.0 mm 0.00 in0.0 mm
01:35 AM 33.0°F0.6°C 31.7°F-0.2°C 95% 10.0 mph NNW16.1 kmh NNW 11.0 mph17.7 kmh 29.31 in992.6 mb 0.00 in0.0 mm 0.00 in0.0 mm 0.00 in0.0 mm
01:36 AM 33.0°F0.6°C 31.7°F-0.2°C 95% 9.6 mph NNW15.4 kmh NNW 11.0 mph17.7 kmh 29.31 in992.6 mb 0.00 in0.0 mm 0.00 in0.0 mm 0.00 in0.0 mm
01:37 AM 33.0°F0.6°C 31.7°F-0.2°C 95% 10.0 mph NNW16.1 kmh NNW 11.0 mph17.7 kmh 29.31 in992.6 mb 0.00 in0.0 mm 0.00 in0.0 mm 0.00 in0.0 mm
01:38 AM 33.0°F0.6°C 31.7°F-0.2°C 95% 10.0 mph NNW16.1 kmh NNW 11.0 mph17.7 kmh 29.31 in992.6 mb 0.00 in0.0 mm 0.00 in0.0 mm 0.00 in0.0 mm
01:39 AM 32.9°F0.5°C 31.6°F-0.2°C 95% 10.5 mph NNW16.9 kmh NNW 11.0 mph17.7 kmh 29.31 in992.6 mb 0.00 in0.0 mm 0.00 in0.0 mm 0.00 in0.0 mm
01:40 AM 32.9°F0.5°C 31.6°F-0.2°C 95% 10.3 mph NNW16.6 kmh NNW 12.0 mph19.3 kmh 29.31 in992.6 mb 0.00 in0.0 mm 0.00 in0.0 mm 0.00 in0.0 mm
01:41 AM 32.9°F0.5°C 31.6°F-0.2°C 95% 10.6 mph NNW17.1 kmh NNW 12.0 mph19.3 kmh 29.31 in992.6 mb 0.00 in0.0 mm 0.00 in0.0 mm 0.00 in0.0 mm
01:42 AM 33.0°F0.6°C 31.7°F-0.2°C 95% 10.0 mph NNW16.1 kmh NNW 12.0 mph19.3 kmh 29.31 in992.6 mb 0.00 in0.0 mm 0.00 in0.0 mm 0.00 in0.0 mm
01:43 AM 33.0°F0.6°C 31.7°F-0.2°C 95% 9.9 mph NNW15.9 kmh NNW 11.0 mph17.7 kmh 29.31 in992.6 mb 0.00 in0.0 mm 0.00 in0.0 mm 0.00 in0.0 mm
01:44 AM 33.0°F0.6°C 31.7°F-0.2°C 95% 10.4 mph NNW16.7 kmh NNW 11.0 mph17.7 kmh 29.31 in992.6 mb 0.00 in0.0 mm 0.00 in0.0 mm 0.00 in0.0 mm
01:45 AM 33.0°F0.6°C 31.7°F-0.2°C 95% 10.5 mph NNW16.9 kmh NNW 12.0 mph19.3 kmh 29.31 in992.6 mb 0.00 in0.0 mm 0.00 in0.0 mm 0.00 in0.0 mm
01:46 AM 33.0°F0.6°C 31.7°F-0.2°C 95% 10.3 mph NNW16.6 kmh NNW 12.0 mph19.3 kmh 29.31 in992.6 mb 0.00 in0.0 mm 0.00 in0.0 mm 0.00 in0.0 mm
01:47 AM 33.0°F0.6°C 31.7°F-0.2°C 95% 10.7 mph NNW17.2 kmh NNW 12.0 mph19.3 kmh 29.31 in992.6 mb 0.00 in0.0 mm 0.00 in0.0 mm 0.00 in0.0 mm
01:48 AM 33.0°F0.6°C 31.7°F-0.2°C 95% 10.3 mph NNW16.6 kmh NNW 12.0 mph19.3 kmh 29.31 in992.6 mb 0.00 in0.0 mm 0.00 in0.0 mm 0.00 in0.0 mm
01:49 AM 33.0°F0.6°C 31.7°F-0.2°C 95% 10.1 mph NNW16.3 kmh NNW 11.0 mph17.7 kmh 29.31 in992.6 mb 0.00 in0.0 mm 0.00 in0.0 mm 0.00 in0.0 mm
01:50 AM 33.0°F0.6°C 31.7°F-0.2°C 95% 10.2 mph NNW16.4 kmh NNW 12.0 mph19.3 kmh 29.31 in992.6 mb 0.00 in0.0 mm 0.00 in0.0 mm 0.00 in0.0 mm
01:51 AM 33.0°F0.6°C 31.7°F-0.2°C 95% 10.6 mph NNW17.1 kmh NNW 12.0 mph19.3 kmh 29.31 in992.6 mb 0.00 in0.0 mm 0.00 in0.0 mm 0.00 in0.0 mm
01:52 AM 33.0°F0.6°C 31.7°F-0.2°C 95% 10.4 mph NNW16.7 kmh NNW 12.0 mph19.3 kmh 29.31 in992.6 mb 0.00 in0.0 mm 0.00 in0.0 mm 0.00 in0.0 mm
01:53 AM 33.0°F0.6°C 31.7°F-0.2°C 95% 10.5 mph NNW16.9 kmh NNW 12.0 mph19.3 kmh 29.31 in992.6 mb 0.00 in0.0 mm 0.00 in0.0 mm 0.00 in0.0 mm
01:54 AM 33.0°F0.6°C 31.7°F-0.2°C 95% 10.7 mph NNW17.2 kmh NNW 12.0 mph19.3 kmh 29.31 in992.6 mb 0.00 in0.0 mm 0.00 in0.0 mm 0.00 in0.0 mm
01:55 AM 33.1°F0.6°C 31.8°F-0.1°C 95% 10.7 mph NNW17.2 kmh NNW 12.0 mph19.3 kmh 29.31 in992.6 mb 0.00 in0.0 mm 0.00 in0.0 mm 0.00 in0.0 mm
01:56 AM 33.0°F0.6°C 31.7°F-0.2°C 95% 10.5 mph NNW16.9 kmh NNW 12.0 mph19.3 kmh 29.31 in992.6 mb 0.00 in0.0 mm 0.00 in0.0 mm 0.00 in0.0 mm
01:57 AM 33.0°F0.6°C 31.7°F-0.2°C 95% 10.8 mph NNW17.4 kmh NNW 12.0 mph19.3 kmh 29.31 in992.6 mb 0.00 in0.0 mm 0.00 in0.0 mm 0.00 in0.0 mm
01:58 AM 33.1°F0.6°C 31.8°F-0.1°C 95% 10.8 mph NNW17.4 kmh NNW 12.0 mph19.3 kmh 29.30 in992.2 mb 0.00 in0.0 mm 0.00 in0.0 mm 0.00 in0.0 mm
01:59 AM 33.1°F0.6°C 31.8°F-0.1°C 95% 10.4 mph NNW16.7 kmh NNW 12.0 mph19.3 kmh 29.30 in992.2 mb 0.00 in0.0 mm 0.00 in0.0 mm 0.00 in0.0 mm
02:00 AM 33.1°F0.6°C 31.8°F-0.1°C 95% 10.1 mph NNW16.3 kmh NNW 12.0 mph19.3 kmh 29.30 in992.2 mb 0.00 in0.0 mm 0.00 in0.0 mm 0.00 in0.0 mm
02:01 AM 33.1°F0.6°C 31.8°F-0.1°C 95% 9.5 mph NNW15.3 kmh NNW 12.0 mph19.3 kmh 29.30 in992.2 mb 0.00 in0.0 mm 0.00 in0.0 mm 0.00 in0.0 mm
02:02 AM 33.0°F0.6°C 31.7°F-0.2°C 95% 9.5 mph NNW15.3 kmh NNW 11.0 mph17.7 kmh 29.31 in992.6 mb 0.00 in0.0 mm 0.00 in0.0 mm 0.00 in0.0 mm
02:03 AM 33.0°F0.6°C 31.7°F-0.2°C 95% 10.2 mph NNW16.4 kmh NNW 11.0 mph17.7 kmh 29.30 in992.2 mb 0.00 in0.0 mm 0.00 in0.0 mm 0.00 in0.0 mm
02:04 AM 33.0°F0.6°C 31.7°F-0.2°C 95% 10.1 mph NNW16.3 kmh NNW 11.0 mph17.7 kmh 29.30 in992.2 mb 0.00 in0.0 mm 0.00 in0.0 mm 0.00 in0.0 mm
02:05 AM 33.0°F0.6°C 31.7°F-0.2°C 95% 9.9 mph NNW15.9 kmh NNW 11.0 mph17.7 kmh 29.31 in992.6 mb 0.00 in0.0 mm 0.00 in0.0 mm 0.00 in0.0 mm
02:06 AM 33.0°F0.6°C 31.7°F-0.2°C 95% 9.9 mph NNW15.9 kmh NNW 11.0 mph17.7 kmh 29.30 in992.2 mb 0.00 in0.0 mm 0.00 in0.0 mm 0.00 in0.0 mm
02:07 AM 33.0°F0.6°C 31.7°F-0.2°C 95% 9.6 mph NNW15.4 kmh NNW 11.0 mph17.7 kmh 29.31 in992.6 mb 0.00 in0.0 mm 0.00 in0.0 mm 0.00 in0.0 mm
02:08 AM 33.0°F0.6°C 31.7°F-0.2°C 95% 9.4 mph NNW15.1 kmh NNW 11.0 mph17.7 kmh 29.30 in992.2 mb 0.00 in0.0 mm 0.00 in0.0 mm 0.00 in0.0 mm
02:09 AM 33.0°F0.6°C 31.7°F-0.2°C 95% 9.1 mph NNW14.6 kmh NNW 11.0 mph17.7 kmh 29.30 in992.2 mb 0.00 in0.0 mm 0.00 in0.0 mm 0.00 in0.0 mm
02:10 AM 33.0°F0.6°C 31.7°F-0.2°C 95% 8.5 mph NNW13.7 kmh NNW 11.0 mph17.7 kmh 29.31 in992.6 mb 0.00 in0.0 mm 0.00 in0.0 mm 0.00 in0.0 mm
02:11 AM 33.0°F0.6°C 31.7°F-0.2°C 95% 8.5 mph NNW13.7 kmh NNW 10.0 mph16.1 kmh 29.31 in992.6 mb 0.00 in0.0 mm 0.00 in0.0 mm 0.00 in0.0 mm
02:12 AM 33.0°F0.6°C 31.7°F-0.2°C 95% 7.7 mph NNW12.4 kmh NNW 10.0 mph16.1 kmh 29.31 in992.6 mb 0.00 in0.0 mm 0.00 in0.0 mm 0.00 in0.0 mm
02:13 AM 32.9°F0.5°C 31.6°F-0.2°C 95% 7.7 mph NNW12.4 kmh NNW 9.0 mph14.5 kmh 29.30 in992.2 mb 0.00 in0.0 mm 0.00 in0.0 mm 0.00 in0.0 mm
02:14 AM 32.9°F0.5°C 31.6°F-0.2°C 95% 8.0 mph NNW12.9 kmh NNW 10.0 mph16.1 kmh 29.31 in992.6 mb 0.00 in0.0 mm 0.00 in0.0 mm 0.00 in0.0 mm
02:15 AM 32.9°F0.5°C 31.6°F-0.2°C 95% 8.3 mph NNW13.4 kmh NNW 10.0 mph16.1 kmh 29.31 in992.6 mb 0.00 in0.0 mm 0.00 in0.0 mm 0.00 in0.0 mm
02:16 AM 32.9°F0.5°C 31.6°F-0.2°C 95% 8.3 mph NNW13.4 kmh NNW 9.0 mph14.5 kmh 29.31 in992.6 mb 0.00 in0.0 mm 0.00 in0.0 mm 0.00 in0.0 mm
02:17 AM 32.9°F0.5°C 31.6°F-0.2°C 95% 8.5 mph NNW13.7 kmh NNW 9.0 mph14.5 kmh 29.31 in992.6 mb 0.00 in0.0 mm 0.00 in0.0 mm 0.00 in0.0 mm
02:18 AM 32.8°F0.4°C 31.5°F-0.3°C 95% 8.1 mph NNW13.0 kmh NNW 9.0 mph14.5 kmh 29.30 in992.2 mb 0.00 in0.0 mm 0.00 in0.0 mm 0.00 in0.0 mm
02:19 AM 32.8°F0.4°C 31.5°F-0.3°C 95% 8.5 mph NNW13.7 kmh NNW 9.0 mph14.5 kmh 29.31 in992.6 mb 0.00 in0.0 mm 0.00 in0.0 mm 0.00 in0.0 mm
02:20 AM 32.8°F0.4°C 31.5°F-0.3°C 95% 8.8 mph NNW14.2 kmh NNW 10.0 mph16.1 kmh 29.31 in992.6 mb 0.00 in0.0 mm 0.00 in0.0 mm 0.00 in0.0 mm
02:21 AM 32.8°F0.4°C 31.5°F-0.3°C 95% 8.6 mph NNW13.8 kmh NNW 10.0 mph16.1 kmh 29.30 in992.2 mb 0.00 in0.0 mm 0.00 in0.0 mm 0.00 in0.0 mm
02:22 AM 32.8°F0.4°C 31.5°F-0.3°C 95% 8.9 mph NNW14.3 kmh NNW 10.0 mph16.1 kmh 29.30 in992.2 mb 0.00 in0.0 mm 0.00 in0.0 mm 0.00 in0.0 mm
02:23 AM 32.8°F0.4°C 31.5°F-0.3°C 95% 9.3 mph NNW15.0 kmh NNW 10.0 mph16.1 kmh 29.30 in992.2 mb 0.00 in0.0 mm 0.00 in0.0 mm 0.00 in0.0 mm
02:24 AM 32.8°F0.4°C 31.5°F-0.3°C 95% 9.7 mph NNW15.6 kmh NNW 11.0 mph17.7 kmh 29.31 in992.6 mb 0.00 in0.0 mm 0.00 in0.0 mm 0.00 in0.0 mm
02:25 AM 32.8°F0.4°C 31.5°F-0.3°C 95% 9.9 mph NNW15.9 kmh NNW 11.0 mph17.7 kmh 29.30 in992.2 mb 0.00 in0.0 mm 0.00 in0.0 mm 0.00 in0.0 mm
02:26 AM 32.8°F0.4°C 31.5°F-0.3°C 95% 10.2 mph NNW16.4 kmh NNW 11.0 mph17.7 kmh 29.30 in992.2 mb 0.00 in0.0 mm 0.00 in0.0 mm 0.00 in0.0 mm
02:27 AM 32.8°F0.4°C 31.5°F-0.3°C 95% 9.7 mph NNW15.6 kmh NNW 11.0 mph17.7 kmh 29.30 in992.2 mb 0.00 in0.0 mm 0.00 in0.0 mm 0.00 in0.0 mm
02:28 AM 32.8°F0.4°C 31.5°F-0.3°C 95% 9.6 mph NNW15.4 kmh NNW 11.0 mph17.7 kmh 29.30 in992.2 mb 0.00 in0.0 mm 0.00 in0.0 mm 0.00 in0.0 mm
02:29 AM 32.8°F0.4°C 31.5°F-0.3°C 95% 9.5 mph NNW15.3 kmh NNW 11.0 mph17.7 kmh 29.30 in992.2 mb 0.00 in0.0 mm 0.00 in0.0 mm 0.00 in0.0 mm
02:30 AM 32.8°F0.4°C 31.5°F-0.3°C 95% 9.3 mph NNW15.0 kmh NNW 11.0 mph17.7 kmh 29.30 in992.2 mb 0.00 in0.0 mm 0.00 in0.0 mm 0.00 in0.0 mm
02:31 AM 32.8°F0.4°C 31.5°F-0.3°C 95% 9.3 mph NNW15.0 kmh NNW 11.0 mph17.7 kmh 29.30 in992.2 mb 0.00 in0.0 mm 0.00 in0.0 mm 0.00 in0.0 mm
02:32 AM 32.8°F0.4°C 31.5°F-0.3°C 95% 9.3 mph NNW15.0 kmh NNW 10.0 mph16.1 kmh 29.30 in992.2 mb 0.00 in0.0 mm 0.00 in0.0 mm 0.00 in0.0 mm
02:33 AM 32.7°F0.4°C 31.4°F-0.3°C 95% 9.3 mph NNW15.0 kmh NNW 10.0 mph16.1 kmh 29.30 in992.2 mb 0.00 in0.0 mm 0.00 in0.0 mm 0.00 in0.0 mm
02:34 AM 32.8°F0.4°C 31.5°F-0.3°C 95% 9.3 mph NNW15.0 kmh NNW 10.0 mph16.1 kmh 29.30 in992.2 mb 0.00 in0.0 mm 0.00 in0.0 mm 0.00 in0.0 mm
02:35 AM 32.8°F0.4°C 31.5°F-0.3°C 95% 9.1 mph NNW14.6 kmh NNW 10.0 mph16.1 kmh 29.30 in992.2 mb 0.00 in0.0 mm 0.00 in0.0 mm 0.00 in0.0 mm
02:36 AM 32.8°F0.4°C 31.5°F-0.3°C 95% 9.0 mph NNW14.5 kmh NNW 10.0 mph16.1 kmh 29.30 in992.2 mb 0.00 in0.0 mm 0.00 in0.0 mm 0.00 in0.0 mm
02:37 AM 32.8°F0.4°C 31.5°F-0.3°C 95% 9.4 mph NNW15.1 kmh NNW 10.0 mph16.1 kmh 29.30 in992.2 mb 0.00 in0.0 mm 0.00 in0.0 mm 0.00 in0.0 mm
02:38 AM 32.8°F0.4°C 31.5°F-0.3°C 95% 8.9 mph NNW14.3 kmh NNW 10.0 mph16.1 kmh 29.30 in992.2 mb 0.00 in0.0 mm 0.00 in0.0 mm 0.00 in0.0 mm
02:39 AM 32.8°F0.4°C 31.5°F-0.3°C 95% 8.6 mph NNW13.8 kmh NNW 10.0 mph16.1 kmh 29.30 in992.2 mb 0.00 in0.0 mm 0.00 in0.0 mm 0.00 in0.0 mm
02:40 AM 32.8°F0.4°C 31.5°F-0.3°C 95% 8.5 mph NNW13.7 kmh NNW 10.0 mph16.1 kmh 29.30 in992.2 mb 0.00 in0.0 mm 0.00 in0.0 mm 0.00 in0.0 mm
02:41 AM 32.8°F0.4°C 31.5°F-0.3°C 95% 8.9 mph NNW14.3 kmh NNW 10.0 mph16.1 kmh 29.30 in992.2 mb 0.00 in0.0 mm 0.00 in0.0 mm 0.00 in0.0 mm
02:42 AM 32.8°F0.4°C 31.5°F-0.3°C 95% 8.7 mph NNW14.0 kmh NNW 10.0 mph16.1 kmh 29.30 in992.2 mb 0.00 in0.0 mm 0.00 in0.0 mm 0.00 in0.0 mm
02:43 AM 32.8°F0.4°C 31.5°F-0.3°C 95% 9.0 mph NNW14.5 kmh NNW 10.0 mph16.1 kmh 29.30 in992.2 mb 0.00 in0.0 mm 0.00 in0.0 mm 0.00 in0.0 mm
02:44 AM 32.8°F0.4°C 31.5°F-0.3°C 95% 9.4 mph NNW15.1 kmh NNW 10.0 mph16.1 kmh 29.30 in992.2 mb 0.00 in0.0 mm 0.00 in0.0 mm 0.00 in0.0 mm
02:45 AM 32.8°F0.4°C 31.5°F-0.3°C 95% 8.7 mph NNW14.0 kmh NNW 10.0 mph16.1 kmh 29.30 in992.2 mb 0.00 in0.0 mm 0.00 in0.0 mm 0.00 in0.0 mm
02:46 AM 32.8°F0.4°C 31.5°F-0.3°C 95% 8.5 mph NNW13.7 kmh NNW 9.0 mph14.5 kmh 29.30 in992.2 mb 0.00 in0.0 mm 0.00 in0.0 mm 0.00 in0.0 mm
02:47 AM 32.8°F0.4°C 31.5°F-0.3°C 95% 7.9 mph NNW12.7 kmh NNW 9.0 mph14.5 kmh 29.30 in992.2 mb 0.00 in0.0 mm 0.00 in0.0 mm 0.00 in0.0 mm
02:48 AM 32.8°F0.4°C 31.5°F-0.3°C 95% 8.0 mph NNW12.9 kmh NNW 9.0 mph14.5 kmh 29.30 in992.2 mb 0.00 in0.0 mm 0.00 in0.0 mm 0.00 in0.0 mm
02:49 AM 32.8°F0.4°C 31.5°F-0.3°C 95% 7.1 mph NNW11.4 kmh NNW 9.0 mph14.5 kmh 29.30 in992.2 mb 0.00 in0.0 mm 0.00 in0.0 mm 0.00 in0.0 mm
02:50 AM 32.8°F0.4°C 31.5°F-0.3°C 95% 8.0 mph NNW12.9 kmh NNW 9.0 mph14.5 kmh 29.30 in992.2 mb 0.00 in0.0 mm 0.00 in0.0 mm 0.00 in0.0 mm
02:51 AM 32.8°F0.4°C 31.5°F-0.3°C 95% 7.0 mph NNW11.3 kmh NNW 9.0 mph14.5 kmh 29.30 in992.2 mb 0.00 in0.0 mm 0.00 in0.0 mm 0.00 in0.0 mm
02:52 AM 32.8°F0.4°C 31.5°F-0.3°C 95% 8.4 mph NNW13.5 kmh NNW 9.0 mph14.5 kmh 29.30 in992.2 mb 0.00 in0.0 mm 0.00 in0.0 mm 0.00 in0.0 mm
02:53 AM 32.8°F0.4°C 31.5°F-0.3°C 95% 8.4 mph NNW13.5 kmh NNW 9.0 mph14.5 kmh 29.30 in992.2 mb 0.00 in0.0 mm 0.00 in0.0 mm 0.00 in0.0 mm
02:54 AM 32.8°F0.4°C 31.5°F-0.3°C 95% 8.9 mph NW14.3 kmh NW 10.0 mph16.1 kmh 29.30 in992.2 mb 0.00 in0.0 mm 0.00 in0.0 mm 0.00 in0.0 mm
02:55 AM 32.8°F0.4°C 31.5°F-0.3°C 95% 9.6 mph NNW15.4 kmh NNW 11.0 mph17.7 kmh 29.30 in992.2 mb 0.00 in0.0 mm 0.00 in0.0 mm 0.00 in0.0 mm
02:56 AM 32.8°F0.4°C 31.5°F-0.3°C 95% 10.2 mph NW16.4 kmh NW 12.0 mph19.3 kmh 29.30 in992.2 mb 0.00 in0.0 mm 0.00 in0.0 mm 0.00 in0.0 mm
02:57 AM 32.8°F0.4°C 31.5°F-0.3°C 95% 10.6 mph NW17.1 kmh NW 12.0 mph19.3 kmh 29.30 in992.2 mb 0.00 in0.0 mm 0.00 in0.0 mm 0.00 in0.0 mm
02:58 AM 32.9°F0.5°C 31.6°F-0.2°C 95% 10.7 mph NNW17.2 kmh NNW 12.0 mph19.3 kmh 29.30 in992.2 mb 0.00 in0.0 mm 0.00 in0.0 mm 0.00 in0.0 mm
02:59 AM 32.9°F0.5°C 31.6°F-0.2°C 95% 11.0 mph NNW17.7 kmh NNW 13.0 mph20.9 kmh 29.30 in992.2 mb 0.00 in0.0 mm 0.00 in0.0 mm 0.00 in0.0 mm
03:00 AM 33.0°F0.6°C 31.7°F-0.2°C 95% 11.4 mph NNW18.3 kmh NNW 13.0 mph20.9 kmh 29.30 in992.2 mb 0.00 in0.0 mm 0.00 in0.0 mm 0.00 in0.0 mm
03:01 AM 33.0°F0.6°C 31.7°F-0.2°C 95% 11.4 mph NNW18.3 kmh NNW 13.0 mph20.9 kmh 29.30 in992.2 mb 0.00 in0.0 mm 0.00 in0.0 mm 0.00 in0.0 mm
03:02 AM 33.1°F0.6°C 31.8°F-0.1°C 95% 11.4 mph NW18.3 kmh NW 13.0 mph20.9 kmh 29.30 in992.2 mb 0.00 in0.0 mm 0.00 in0.0 mm 0.00 in0.0 mm
03:03 AM 33.0°F0.6°C 31.7°F-0.2°C 95% 11.3 mph NW18.2 kmh NW 12.0 mph19.3 kmh 29.30 in992.2 mb 0.00 in0.0 mm 0.00 in0.0 mm 0.00 in0.0 mm
03:04 AM 33.1°F0.6°C 31.8°F-0.1°C 95% 11.5 mph NW18.5 kmh NW 12.0 mph19.3 kmh 29.30 in992.2 mb 0.00 in0.0 mm 0.00 in0.0 mm 0.00 in0.0 mm
03:05 AM 33.0°F0.6°C 31.7°F-0.2°C 95% 11.5 mph NW18.5 kmh NW 12.0 mph19.3 kmh 29.30 in992.2 mb 0.00 in0.0 mm 0.00 in0.0 mm 0.00 in0.0 mm
03:06 AM 33.1°F0.6°C 31.8°F-0.1°C 95% 11.6 mph NW18.7 kmh NW 13.0 mph20.9 kmh 29.30 in992.2 mb 0.00 in0.0 mm 0.00 in0.0 mm 0.00 in0.0 mm
03:07 AM 33.1°F0.6°C 31.8°F-0.1°C 95% 11.1 mph NW17.9 kmh NW 13.0 mph20.9 kmh 29.30 in992.2 mb 0.00 in0.0 mm 0.00 in0.0 mm 0.00 in0.0 mm
03:08 AM 33.1°F0.6°C 31.8°F-0.1°C 95% 11.3 mph NW18.2 kmh NW 13.0 mph20.9 kmh 29.30 in992.2 mb 0.00 in0.0 mm 0.00 in0.0 mm 0.00 in0.0 mm
03:09 AM 33.1°F0.6°C 31.8°F-0.1°C 95% 12.0 mph NW19.3 kmh NW 13.0 mph20.9 kmh 29.30 in992.2 mb 0.00 in0.0 mm 0.00 in0.0 mm 0.00 in0.0 mm
03:10 AM 33.1°F0.6°C 31.8°F-0.1°C 95% 11.5 mph NW18.5 kmh NW 13.0 mph20.9 kmh 29.30 in992.2 mb 0.00 in0.0 mm 0.00 in0.0 mm 0.00 in0.0 mm
03:11 AM 33.0°F0.6°C 31.7°F-0.2°C 95% 11.1 mph NW17.9 kmh NW 12.0 mph19.3 kmh 29.30 in992.2 mb 0.00 in0.0 mm 0.00 in0.0 mm 0.00 in0.0 mm
03:12 AM 33.1°F0.6°C 31.8°F-0.1°C 95% 11.4 mph NW18.3 kmh NW 13.0 mph20.9 kmh 29.30 in992.2 mb 0.00 in0.0 mm 0.00 in0.0 mm 0.00 in0.0 mm
03:13 AM 33.1°F0.6°C 31.8°F-0.1°C 95% 11.2 mph NW18.0 kmh NW 13.0 mph20.9 kmh 29.30 in992.2 mb 0.00 in0.0 mm 0.00 in0.0 mm 0.00 in0.0 mm
03:14 AM 33.0°F0.6°C 31.7°F-0.2°C 95% 11.4 mph NW18.3 kmh NW 13.0 mph20.9 kmh 29.30 in992.2 mb 0.00 in0.0 mm 0.00 in0.0 mm 0.00 in0.0 mm
03:15 AM 33.0°F0.6°C 31.7°F-0.2°C 95% 11.5 mph NW18.5 kmh NW 13.0 mph20.9 kmh 29.30 in992.2 mb 0.00 in0.0 mm 0.00 in0.0 mm 0.00 in0.0 mm
03:16 AM 33.0°F0.6°C 31.7°F-0.2°C 95% 12.8 mph NW20.6 kmh NW 14.0 mph22.5 kmh 29.30 in992.2 mb 0.00 in0.0 mm 0.00 in0.0 mm 0.00 in0.0 mm
03:17 AM 33.0°F0.6°C 31.7°F-0.2°C 95% 12.7 mph NW20.4 kmh NW 14.0 mph22.5 kmh 29.30 in992.2 mb 0.00 in0.0 mm 0.00 in0.0 mm 0.00 in0.0 mm
03:18 AM 33.0°F0.6°C 31.7°F-0.2°C 95% 13.6 mph NW21.9 kmh NW 15.0 mph24.1 kmh 29.30 in992.2 mb 0.00 in0.0 mm 0.00 in0.0 mm 0.00 in0.0 mm
03:19 AM 33.0°F0.6°C 31.7°F-0.2°C 95% 13.5 mph NW21.7 kmh NW 15.0 mph24.1 kmh 29.30 in992.2 mb 0.00 in0.0 mm 0.00 in0.0 mm 0.00 in0.0 mm
03:20 AM 33.0°F0.6°C 31.7°F-0.2°C 95% 13.3 mph NW21.4 kmh NW 14.0 mph22.5 kmh 29.30 in992.2 mb 0.00 in0.0 mm 0.00 in0.0 mm 0.00 in0.0 mm
03:21 AM 33.0°F0.6°C 31.7°F-0.2°C 95% 13.2 mph NW21.2 kmh NW 14.0 mph22.5 kmh 29.30 in992.2 mb 0.00 in0.0 mm 0.00 in0.0 mm 0.00 in0.0 mm
03:22 AM 33.0°F0.6°C 31.7°F-0.2°C 95% 13.4 mph NW21.6 kmh NW 14.0 mph22.5 kmh 29.31 in992.6 mb 0.00 in0.0 mm 0.00 in0.0 mm 0.00 in0.0 mm
03:23 AM 33.0°F0.6°C 31.7°F-0.2°C 95% 13.3 mph NW21.4 kmh NW 14.0 mph22.5 kmh 29.31 in992.6 mb 0.00 in0.0 mm 0.00 in0.0 mm 0.00 in0.0 mm
03:24 AM 33.0°F0.6°C 31.7°F-0.2°C 95% 12.8 mph NW20.6 kmh NW 14.0 mph22.5 kmh 29.31 in992.6 mb 0.00 in0.0 mm 0.00 in0.0 mm 0.00 in0.0 mm
03:25 AM 33.0°F0.6°C 31.7°F-0.2°C 95% 13.1 mph NW21.1 kmh NW 14.0 mph22.5 kmh 29.31 in992.6 mb 0.00 in0.0 mm 0.00 in0.0 mm 0.00 in0.0 mm
03:26 AM 33.0°F0.6°C 31.7°F-0.2°C 95% 12.5 mph NW20.1 kmh NW 14.0 mph22.5 kmh 29.31 in992.6 mb 0.00 in0.0 mm 0.00 in0.0 mm 0.00 in0.0 mm
03:27 AM 33.0°F0.6°C 31.7°F-0.2°C 95% 12.8 mph NW20.6 kmh NW 14.0 mph22.5 kmh 29.31 in992.6 mb 0.00 in0.0 mm 0.00 in0.0 mm 0.00 in0.0 mm
03:28 AM 32.9°F0.5°C 31.6°F-0.2°C 95% 12.5 mph NW20.1 kmh NW 14.0 mph22.5 kmh 29.31 in992.6 mb 0.00 in0.0 mm 0.00 in0.0 mm 0.00 in0.0 mm
03:29 AM 33.0°F0.6°C 31.7°F-0.2°C 95% 12.5 mph NW20.1 kmh NW 14.0 mph22.5 kmh 29.30 in992.2 mb 0.00 in0.0 mm 0.00 in0.0 mm 0.00 in0.0 mm
03:30 AM 33.0°F0.6°C 31.7°F-0.2°C 95% 12.6 mph NW20.3 kmh NW 14.0 mph22.5 kmh 29.30 in992.2 mb 0.00 in0.0 mm 0.00 in0.0 mm 0.00 in0.0 mm
03:31 AM 32.9°F0.5°C 31.6°F-0.2°C 95% 12.0 mph NW19.3 kmh NW 14.0 mph22.5 kmh 29.30 in992.2 mb 0.00 in0.0 mm 0.00 in0.0 mm 0.00 in0.0 mm
03:32 AM 33.0°F0.6°C 31.7°F-0.2°C 95% 12.5 mph NW20.1 kmh NW 13.0 mph20.9 kmh 29.30 in992.2 mb 0.00 in0.0 mm 0.00 in0.0 mm 0.00 in0.0 mm
03:33 AM 33.0°F0.6°C 31.7°F-0.2°C 95% 12.7 mph NW20.4 kmh NW 14.0 mph22.5 kmh 29.31 in992.6 mb 0.00 in0.0 mm 0.00 in0.0 mm 0.00 in0.0 mm
03:34 AM 33.0°F0.6°C 31.7°F-0.2°C 95% 12.9 mph NW20.8 kmh NW 14.0 mph22.5 kmh 29.30 in992.2 mb 0.00 in0.0 mm 0.00 in0.0 mm 0.00 in0.0 mm
03:35 AM 33.0°F0.6°C 31.7°F-0.2°C 95% 12.1 mph NW19.5 kmh NW 14.0 mph22.5 kmh 29.30 in992.2 mb 0.00 in0.0 mm 0.00 in0.0 mm 0.00 in0.0 mm
03:36 AM 33.0°F0.6°C 31.7°F-0.2°C 95% 12.0 mph NW19.3 kmh NW 13.0 mph20.9 kmh 29.30 in992.2 mb 0.00 in0.0 mm 0.00 in0.0 mm 0.00 in0.0 mm
03:37 AM 33.1°F0.6°C 31.8°F-0.1°C 95% 12.4 mph NW20.0 kmh NW 13.0 mph20.9 kmh 29.30 in992.2 mb 0.00 in0.0 mm 0.00 in0.0 mm 0.00 in0.0 mm
03:38 AM 33.0°F0.6°C 31.7°F-0.2°C 95% 12.2 mph NW19.6 kmh NW 13.0 mph20.9 kmh 29.30 in992.2 mb 0.00 in0.0 mm 0.00 in0.0 mm 0.00 in0.0 mm
03:39 AM 33.0°F0.6°C 31.7°F-0.2°C 95% 11.9 mph NW19.2 kmh NW 13.0 mph20.9 kmh 29.31 in992.6 mb 0.00 in0.0 mm 0.00 in0.0 mm 0.00 in0.0 mm
03:40 AM 33.0°F0.6°C 31.7°F-0.2°C 95% 12.0 mph NW19.3 kmh NW 13.0 mph20.9 kmh 29.30 in992.2 mb 0.00 in0.0 mm 0.00 in0.0 mm 0.00 in0.0 mm
03:41 AM 33.0°F0.6°C 31.7°F-0.2°C 95% 11.6 mph NW18.7 kmh NW 13.0 mph20.9 kmh 29.31 in992.6 mb 0.00 in0.0 mm 0.00 in0.0 mm 0.00 in0.0 mm
03:42 AM 33.0°F0.6°C 31.7°F-0.2°C 95% 11.9 mph NW19.2 kmh NW 13.0 mph20.9 kmh 29.30 in992.2 mb 0.00 in0.0 mm 0.00 in0.0 mm 0.00 in0.0 mm
03:43 AM 33.1°F0.6°C 31.8°F-0.1°C 95% 11.8 mph NW19.0 kmh NW 13.0 mph20.9 kmh 29.30 in992.2 mb 0.00 in0.0 mm 0.00 in0.0 mm 0.00 in0.0 mm
03:44 AM 33.0°F0.6°C 31.7°F-0.2°C 95% 12.0 mph NW19.3 kmh NW 13.0 mph20.9 kmh 29.30 in992.2 mb 0.00 in0.0 mm 0.00 in0.0 mm 0.00 in0.0 mm
03:45 AM 33.0°F0.6°C 31.7°F-0.2°C 95% 12.5 mph NW20.1 kmh NW 14.0 mph22.5 kmh 29.30 in992.2 mb 0.00 in0.0 mm 0.00 in0.0 mm 0.00 in0.0 mm
03:46 AM 33.0°F0.6°C 31.7°F-0.2°C 95% 12.5 mph NW20.1 kmh NW 14.0 mph22.5 kmh 29.30 in992.2 mb 0.00 in0.0 mm 0.00 in0.0 mm 0.00 in0.0 mm
03:47 AM 33.0°F0.6°C 31.7°F-0.2°C 95% 12.8 mph NW20.6 kmh NW 14.0 mph22.5 kmh 29.30 in992.2 mb 0.00 in0.0 mm 0.00 in0.0 mm 0.00 in0.0 mm
03:48 AM 33.1°F0.6°C 31.8°F-0.1°C 95% 12.8 mph NW20.6 kmh NW 14.0 mph22.5 kmh 29.30 in992.2 mb 0.00 in0.0 mm 0.00 in0.0 mm 0.00 in0.0 mm
03:49 AM 33.1°F0.6°C 31.8°F-0.1°C 95% 13.0 mph NW20.9 kmh NW 14.0 mph22.5 kmh 29.30 in992.2 mb 0.00 in0.0 mm 0.00 in0.0 mm 0.00 in0.0 mm
03:50 AM 33.1°F0.6°C 31.8°F-0.1°C 95% 12.5 mph NW20.1 kmh NW 14.0 mph22.5 kmh 29.30 in992.2 mb 0.00 in0.0 mm 0.00 in0.0 mm 0.00 in0.0 mm
03:51 AM 33.1°F0.6°C 31.8°F-0.1°C 95% 12.4 mph NW20.0 kmh NW 14.0 mph22.5 kmh 29.30 in992.2 mb 0.00 in0.0 mm 0.00 in0.0 mm 0.00 in0.0 mm
03:52 AM 33.0°F0.6°C 31.7°F-0.2°C 95% 12.5 mph NW20.1 kmh NW 14.0 mph22.5 kmh 29.31 in992.6 mb 0.00 in0.0 mm 0.00 in0.0 mm 0.00 in0.0 mm
03:53 AM 33.0°F0.6°C 31.7°F-0.2°C 95% 13.1 mph NW21.1 kmh NW 14.0 mph22.5 kmh 29.31 in992.6 mb 0.00 in0.0 mm 0.00 in0.0 mm 0.00 in0.0 mm
03:54 AM 33.1°F0.6°C 31.8°F-0.1°C 95% 12.7 mph NW20.4 kmh NW 14.0 mph22.5 kmh 29.31 in992.6 mb 0.00 in0.0 mm 0.00 in0.0 mm 0.00 in0.0 mm
03:55 AM 33.1°F0.6°C 31.8°F-0.1°C 95% 12.9 mph NW20.8 kmh NW 15.0 mph24.1 kmh 29.31 in992.6 mb 0.00 in0.0 mm 0.00 in0.0 mm 0.00 in0.0 mm
03:56 AM 33.1°F0.6°C 31.8°F-0.1°C 95% 12.5 mph NW20.1 kmh NW 15.0 mph24.1 kmh 29.30 in992.2 mb 0.00 in0.0 mm 0.00 in0.0 mm 0.00 in0.0 mm
03:57 AM 33.1°F0.6°C 31.8°F-0.1°C 95% 12.4 mph NNW20.0 kmh NNW 14.0 mph22.5 kmh 29.31 in992.6 mb 0.00 in0.0 mm 0.00 in0.0 mm 0.00 in0.0 mm
03:58 AM 33.1°F0.6°C 31.8°F-0.1°C 95% 12.6 mph NW20.3 kmh NW 13.0 mph20.9 kmh 29.31 in992.6 mb 0.00 in0.0 mm 0.00 in0.0 mm 0.00 in0.0 mm
03:59 AM 33.1°F0.6°C 31.8°F-0.1°C 95% 12.0 mph NW19.3 kmh NW 13.0 mph20.9 kmh 29.30 in992.2 mb 0.00 in0.0 mm 0.00 in0.0 mm 0.00 in0.0 mm
04:00 AM 33.1°F0.6°C 31.8°F-0.1°C 95% 11.9 mph NW19.2 kmh NW 13.0 mph20.9 kmh 29.31 in992.6 mb 0.00 in0.0 mm 0.00 in0.0 mm 0.00 in0.0 mm
04:01 AM 33.0°F0.6°C 31.7°F-0.2°C 95% 12.5 mph NW20.1 kmh NW 13.0 mph20.9 kmh 29.30 in992.2 mb 0.00 in0.0 mm 0.00 in0.0 mm 0.00 in0.0 mm
04:02 AM 33.0°F0.6°C 31.7°F-0.2°C 95% 11.8 mph NW19.0 kmh NW 13.0 mph20.9 kmh 29.30 in992.2 mb 0.00 in0.0 mm 0.00 in0.0 mm 0.00 in0.0 mm
04:03 AM 33.1°F0.6°C 31.8°F-0.1°C 95% 12.0 mph NW19.3 kmh NW 13.0 mph20.9 kmh 29.31 in992.6 mb 0.00 in0.0 mm 0.00 in0.0 mm 0.00 in0.0 mm
04:04 AM 33.1°F0.6°C 31.8°F-0.1°C 95% 12.1 mph NW19.5 kmh NW 13.0 mph20.9 kmh 29.31 in992.6 mb 0.00 in0.0 mm 0.00 in0.0 mm 0.00 in0.0 mm
04:05 AM 33.1°F0.6°C 31.8°F-0.1°C 95% 12.2 mph NW19.6 kmh NW 13.0 mph20.9 kmh 29.31 in992.6 mb 0.00 in0.0 mm 0.00 in0.0 mm 0.00 in0.0 mm
04:06 AM 33.1°F0.6°C 31.8°F-0.1°C 95% 12.1 mph NW19.5 kmh NW 14.0 mph22.5 kmh 29.31 in992.6 mb 0.00 in0.0 mm 0.00 in0.0 mm 0.00 in0.0 mm
04:07 AM 33.1°F0.6°C 31.8°F-0.1°C 95% 11.5 mph NNW18.5 kmh NNW 14.0 mph22.5 kmh 29.31 in992.6 mb 0.00 in0.0 mm 0.00 in0.0 mm 0.00 in0.0 mm
04:08 AM 33.1°F0.6°C 31.8°F-0.1°C 95% 12.4 mph NW20.0 kmh NW 13.0 mph20.9 kmh 29.31 in992.6 mb 0.00 in0.0 mm 0.00 in0.0 mm 0.00 in0.0 mm
04:09 AM 33.1°F0.6°C 31.8°F-0.1°C 95% 12.2 mph NNW19.6 kmh NNW 13.0 mph20.9 kmh 29.31 in992.6 mb 0.00 in0.0 mm 0.00 in0.0 mm 0.00 in0.0 mm
04:10 AM 33.0°F0.6°C 31.7°F-0.2°C 95% 12.5 mph NNW20.1 kmh NNW 13.0 mph20.9 kmh 29.31 in992.6 mb 0.00 in0.0 mm 0.00 in0.0 mm 0.00 in0.0 mm
04:11 AM 33.0°F0.6°C 31.7°F-0.2°C 95% 12.5 mph NNW20.1 kmh NNW 14.0 mph22.5 kmh 29.31 in992.6 mb 0.00 in0.0 mm 0.00 in0.0 mm 0.00 in0.0 mm
04:12 AM 33.0°F0.6°C 31.7°F-0.2°C 95% 12.4 mph NNW20.0 kmh NNW 14.0 mph22.5 kmh 29.31 in992.6 mb 0.00 in0.0 mm 0.00 in0.0 mm 0.00 in0.0 mm
04:13 AM 33.0°F0.6°C 31.7°F-0.2°C 95% 12.0 mph NW19.3 kmh NW 13.0 mph20.9 kmh 29.31 in992.6 mb 0.00 in0.0 mm 0.00 in0.0 mm 0.00 in0.0 mm
04:14 AM 33.0°F0.6°C 31.7°F-0.2°C 95% 12.0 mph NW19.3 kmh NW 13.0 mph20.9 kmh 29.31 in992.6 mb 0.00 in0.0 mm 0.00 in0.0 mm 0.00 in0.0 mm
04:15 AM 33.0°F0.6°C 31.7°F-0.2°C 95% 12.6 mph NW20.3 kmh NW 14.0 mph22.5 kmh 29.31 in992.6 mb 0.00 in0.0 mm 0.00 in0.0 mm 0.00 in0.0 mm
04:16 AM 33.0°F0.6°C 31.7°F-0.2°C 95% 12.4 mph NW20.0 kmh NW 14.0 mph22.5 kmh 29.31 in992.6 mb 0.00 in0.0 mm 0.00 in0.0 mm 0.00 in0.0 mm
04:17 AM 33.0°F0.6°C 31.7°F-0.2°C 95% 12.4 mph NNW20.0 kmh NNW 14.0 mph22.5 kmh 29.31 in992.6 mb 0.00 in0.0 mm 0.00 in0.0 mm 0.00 in0.0 mm
04:18 AM 33.0°F0.6°C 31.7°F-0.2°C 95% 12.8 mph NNW20.6 kmh NNW 14.0 mph22.5 kmh 29.31 in992.6 mb 0.00 in0.0 mm 0.00 in0.0 mm 0.00 in0.0 mm
04:19 AM 33.0°F0.6°C 31.7°F-0.2°C 95% 12.5 mph NNW20.1 kmh NNW 14.0 mph22.5 kmh 29.31 in992.6 mb 0.00 in0.0 mm 0.00 in0.0 mm 0.00 in0.0 mm
04:20 AM 33.0°F0.6°C 31.7°F-0.2°C 95% 11.8 mph NNW19.0 kmh NNW 14.0 mph22.5 kmh 29.31 in992.6 mb 0.00 in0.0 mm 0.00 in0.0 mm 0.00 in0.0 mm
04:21 AM 33.0°F0.6°C 31.7°F-0.2°C 95% 14.2 mph NNW22.9 kmh NNW 16.0 mph25.7 kmh 29.31 in992.6 mb 0.00 in0.0 mm 0.00 in0.0 mm 0.00 in0.0 mm
04:22 AM 33.0°F0.6°C 31.7°F-0.2°C 95% 14.3 mph NNW23.0 kmh NNW 16.0 mph25.7 kmh 29.31 in992.6 mb 0.00 in0.0 mm 0.00 in0.0 mm 0.00 in0.0 mm
04:23 AM 33.0°F0.6°C 31.7°F-0.2°C 95% 13.5 mph NNW21.7 kmh NNW 15.0 mph24.1 kmh 29.31 in992.6 mb 0.00 in0.0 mm 0.00 in0.0 mm 0.00 in0.0 mm
04:24 AM 33.0°F0.6°C 31.7°F-0.2°C 95% 13.5 mph NNW21.7 kmh NNW 15.0 mph24.1 kmh 29.31 in992.6 mb 0.00 in0.0 mm 0.00 in0.0 mm 0.00 in0.0 mm
04:25 AM 33.0°F0.6°C 31.7°F-0.2°C 95% 13.4 mph NNW21.6 kmh NNW 15.0 mph24.1 kmh 29.31 in992.6 mb 0.00 in0.0 mm 0.00 in0.0 mm 0.00 in0.0 mm
04:26 AM 33.0°F0.6°C 31.7°F-0.2°C 95% 12.9 mph NNW20.8 kmh NNW 15.0 mph24.1 kmh 29.31 in992.6 mb 0.00 in0.0 mm 0.00 in0.0 mm 0.00 in0.0 mm
04:27 AM 33.0°F0.6°C 31.7°F-0.2°C 95% 13.2 mph NNW21.2 kmh NNW 14.0 mph22.5 kmh 29.31 in992.6 mb 0.00 in0.0 mm 0.00 in0.0 mm 0.00 in0.0 mm
04:28 AM 33.1°F0.6°C 31.8°F-0.1°C 95% 13.3 mph NNW21.4 kmh NNW 15.0 mph24.1 kmh 29.31 in992.6 mb 0.00 in0.0 mm 0.00 in0.0 mm 0.00 in0.0 mm
04:29 AM 33.1°F0.6°C 31.8°F-0.1°C 95% 13.6 mph NNW21.9 kmh NNW 15.0 mph24.1 kmh 29.31 in992.6 mb 0.00 in0.0 mm 0.00 in0.0 mm 0.00 in0.0 mm
04:30 AM 33.0°F0.6°C 31.7°F-0.2°C 95% 13.3 mph NNW21.4 kmh NNW 15.0 mph24.1 kmh 29.31 in992.6 mb 0.00 in0.0 mm 0.00 in0.0 mm 0.00 in0.0 mm
04:31 AM 33.1°F0.6°C 31.8°F-0.1°C 95% 14.0 mph NNW22.5 kmh NNW 16.0 mph25.7 kmh 29.31 in992.6 mb 0.00 in0.0 mm 0.00 in0.0 mm 0.00 in0.0 mm
04:32 AM 33.0°F0.6°C 31.7°F-0.2°C 95% 13.8 mph NNW22.2 kmh NNW 16.0 mph25.7 kmh 29.31 in992.6 mb 0.00 in0.0 mm 0.00 in0.0 mm 0.00 in0.0 mm
04:33 AM 33.0°F0.6°C 31.7°F-0.2°C 95% 14.2 mph NNW22.9 kmh NNW 16.0 mph25.7 kmh 29.31 in992.6 mb 0.00 in0.0 mm 0.00 in0.0 mm 0.00 in0.0 mm
04:34 AM 33.0°F0.6°C 31.7°F-0.2°C 95% 14.3 mph NNW23.0 kmh NNW 16.0 mph25.7 kmh 29.31 in992.6 mb 0.00 in0.0 mm 0.00 in0.0 mm 0.00 in0.0 mm
04:35 AM 33.0°F0.6°C 31.7°F-0.2°C 95% 13.4 mph NNW21.6 kmh NNW 16.0 mph25.7 kmh 29.31 in992.6 mb 0.00 in0.0 mm 0.00 in0.0 mm 0.00 in0.0 mm
04:36 AM 33.0°F0.6°C 31.7°F-0.2°C 95% 13.9 mph NW22.4 kmh NW 15.0 mph24.1 kmh 29.31 in992.6 mb 0.00 in0.0 mm 0.00 in0.0 mm 0.00 in0.0 mm
04:37 AM 33.0°F0.6°C 31.7°F-0.2°C 95% 13.7 mph NW22.0 kmh NW 15.0 mph24.1 kmh 29.31 in992.6 mb 0.00 in0.0 mm 0.00 in0.0 mm 0.00 in0.0 mm
04:38 AM 33.0°F0.6°C 31.7°F-0.2°C 95% 13.8 mph NW22.2 kmh NW 15.0 mph24.1 kmh 29.31 in992.6 mb 0.00 in0.0 mm 0.00 in0.0 mm 0.00 in0.0 mm
04:39 AM 33.0°F0.6°C 31.7°F-0.2°C 95% 14.2 mph NW22.9 kmh NW 15.0 mph24.1 kmh 29.31 in992.6 mb 0.00 in0.0 mm 0.00 in0.0 mm 0.00 in0.0 mm
04:40 AM 33.0°F0.6°C 31.7°F-0.2°C 95% 13.9 mph NNW22.4 kmh NNW 15.0 mph24.1 kmh 29.31 in992.6 mb 0.00 in0.0 mm 0.00 in0.0 mm 0.00 in0.0 mm
04:41 AM 33.0°F0.6°C 31.7°F-0.2°C 95% 13.5 mph NW21.7 kmh NW 15.0 mph24.1 kmh 29.31 in992.6 mb 0.00 in0.0 mm 0.00 in0.0 mm 0.00 in0.0 mm
04:42 AM 33.0°F0.6°C 31.7°F-0.2°C 95% 13.6 mph NNW21.9 kmh NNW 16.0 mph25.7 kmh 29.31 in992.6 mb 0.00 in0.0 mm 0.00 in0.0 mm 0.00 in0.0 mm
04:43 AM 32.9°F0.5°C 31.6°F-0.2°C 95% 13.5 mph NNW21.7 kmh NNW 16.0 mph25.7 kmh 29.31 in992.6 mb 0.00 in0.0 mm 0.00 in0.0 mm 0.00 in0.0 mm
04:44 AM 33.0°F0.6°C 31.7°F-0.2°C 95% 12.7 mph NW20.4 kmh NW 15.0 mph24.1 kmh 29.31 in992.6 mb 0.00 in0.0 mm 0.00 in0.0 mm 0.00 in0.0 mm
04:45 AM 33.0°F0.6°C 31.7°F-0.2°C 95% 13.1 mph NW21.1 kmh NW 15.0 mph24.1 kmh 29.31 in992.6 mb 0.00 in0.0 mm 0.00 in0.0 mm 0.00 in0.0 mm
04:46 AM 32.9°F0.5°C 31.6°F-0.2°C 95% 13.1 mph NW21.1 kmh NW 15.0 mph24.1 kmh 29.31 in992.6 mb 0.00 in0.0 mm 0.00 in0.0 mm 0.00 in0.0 mm
04:47 AM 32.9°F0.5°C 31.6°F-0.2°C 95% 13.6 mph NNW21.9 kmh NNW 15.0 mph24.1 kmh 29.31 in992.6 mb 0.00 in0.0 mm 0.00 in0.0 mm 0.00 in0.0 mm
04:48 AM 32.9°F0.5°C 31.6°F-0.2°C 95% 13.2 mph NW21.2 kmh NW 15.0 mph24.1 kmh 29.31 in992.6 mb 0.00 in0.0 mm 0.00 in0.0 mm 0.00 in0.0 mm
04:49 AM 32.9°F0.5°C 31.6°F-0.2°C 95% 13.3 mph NW21.4 kmh NW 16.0 mph25.7 kmh 29.31 in992.6 mb 0.00 in0.0 mm 0.00 in0.0 mm 0.00 in0.0 mm
04:50 AM 32.9°F0.5°C 31.6°F-0.2°C 95% 13.1 mph NW21.1 kmh NW 16.0 mph25.7 kmh 29.31 in992.6 mb 0.00 in0.0 mm 0.00 in0.0 mm 0.00 in0.0 mm
04:51 AM 32.9°F0.5°C 31.6°F-0.2°C 95% 13.2 mph NW21.2 kmh NW 14.0 mph22.5 kmh 29.31 in992.6 mb 0.00 in0.0 mm 0.00 in0.0 mm 0.00 in0.0 mm
04:52 AM 32.9°F0.5°C 31.6°F-0.2°C 95% 13.6 mph NNW21.9 kmh NNW 15.0 mph24.1 kmh 29.31 in992.6 mb 0.00 in0.0 mm 0.00 in0.0 mm 0.00 in0.0 mm
04:53 AM 32.9°F0.5°C 31.6°F-0.2°C 95% 12.6 mph NNW20.3 kmh NNW 15.0 mph24.1 kmh 29.31 in992.6 mb 0.00 in0.0 mm 0.00 in0.0 mm 0.00 in0.0 mm
04:54 AM 32.9°F0.5°C 31.6°F-0.2°C 95% 12.9 mph NNW20.8 kmh NNW 15.0 mph24.1 kmh 29.31 in992.6 mb 0.00 in0.0 mm 0.00 in0.0 mm 0.00 in0.0 mm
04:55 AM 32.9°F0.5°C 31.6°F-0.2°C 95% 13.3 mph NW21.4 kmh NW 15.0 mph24.1 kmh 29.31 in992.6 mb 0.00 in0.0 mm 0.00 in0.0 mm 0.00 in0.0 mm
04:56 AM 32.9°F0.5°C 31.6°F-0.2°C 95% 13.3 mph NNW21.4 kmh NNW 14.0 mph22.5 kmh 29.31 in992.6 mb 0.00 in0.0 mm 0.00 in0.0 mm 0.00 in0.0 mm
04:57 AM 32.9°F0.5°C 31.6°F-0.2°C 95% 13.3 mph NNW21.4 kmh NNW 15.0 mph24.1 kmh 29.31 in992.6 mb 0.00 in0.0 mm 0.00 in0.0 mm 0.00 in0.0 mm
04:58 AM 32.9°F0.5°C 31.6°F-0.2°C 95% 13.6 mph NNW21.9 kmh NNW 15.0 mph24.1 kmh 29.31 in992.6 mb 0.00 in0.0 mm 0.00 in0.0 mm 0.00 in0.0 mm
04:59 AM 32.9°F0.5°C 31.6°F-0.2°C 95% 13.2 mph NNW21.2 kmh NNW 15.0 mph24.1 kmh 29.31 in992.6 mb 0.00 in0.0 mm 0.00 in0.0 mm 0.00 in0.0 mm
05:00 AM 32.8°F0.4°C 31.5°F-0.3°C 95% 13.1 mph NW21.1 kmh NW 15.0 mph24.1 kmh 29.31 in992.6 mb 0.00 in0.0 mm 0.00 in0.0 mm 0.00 in0.0 mm
05:01 AM 32.8°F0.4°C 31.5°F-0.3°C 95% 13.0 mph NNW20.9 kmh NNW 15.0 mph24.1 kmh 29.31 in992.6 mb 0.00 in0.0 mm 0.00 in0.0 mm 0.00 in0.0 mm
05:02 AM 32.9°F0.5°C 31.6°F-0.2°C 95% 12.8 mph NNW20.6 kmh NNW 14.0 mph22.5 kmh 29.31 in992.6 mb 0.00 in0.0 mm 0.00 in0.0 mm 0.00 in0.0 mm
05:03 AM 32.8°F0.4°C 31.5°F-0.3°C 95% 13.7 mph NNW22.0 kmh NNW 15.0 mph24.1 kmh 29.31 in992.6 mb 0.00 in0.0 mm 0.00 in0.0 mm 0.00 in0.0 mm
05:04 AM 32.9°F0.5°C 31.6°F-0.2°C 95% 13.9 mph NW22.4 kmh NW 15.0 mph24.1 kmh 29.31 in992.6 mb 0.00 in0.0 mm 0.00 in0.0 mm 0.00 in0.0 mm
05:05 AM 32.9°F0.5°C 31.6°F-0.2°C 95% 13.3 mph NW21.4 kmh NW 15.0 mph24.1 kmh 29.32 in992.9 mb 0.00 in0.0 mm 0.00 in0.0 mm 0.00 in0.0 mm
05:06 AM 33.0°F0.6°C 31.7°F-0.2°C 95% 12.8 mph NW20.6 kmh NW 14.0 mph22.5 kmh 29.32 in992.9 mb 0.00 in0.0 mm 0.00 in0.0 mm 0.00 in0.0 mm
05:07 AM 32.9°F0.5°C 31.6°F-0.2°C 95% 14.0 mph NW22.5 kmh NW 16.0 mph25.7 kmh 29.31 in992.6 mb 0.00 in0.0 mm 0.00 in0.0 mm 0.00 in0.0 mm
05:08 AM 33.0°F0.6°C 31.7°F-0.2°C 95% 14.1 mph NW22.7 kmh NW 16.0 mph25.7 kmh 29.32 in992.9 mb 0.00 in0.0 mm 0.00 in0.0 mm 0.00 in0.0 mm
05:09 AM 33.0°F0.6°C 31.7°F-0.2°C 95% 14.8 mph NW23.8 kmh NW 16.0 mph25.7 kmh 29.31 in992.6 mb 0.00 in0.0 mm 0.00 in0.0 mm 0.00 in0.0 mm
05:10 AM 33.1°F0.6°C 31.8°F-0.1°C 95% 14.2 mph NW22.9 kmh NW 16.0 mph25.7 kmh 29.32 in992.9 mb 0.00 in0.0 mm 0.00 in0.0 mm 0.00 in0.0 mm
05:11 AM 33.1°F0.6°C 31.8°F-0.1°C 95% 14.4 mph NW23.2 kmh NW 16.0 mph25.7 kmh 29.31 in992.6 mb 0.00 in0.0 mm 0.00 in0.0 mm 0.00 in0.0 mm
05:12 AM 33.0°F0.6°C 31.7°F-0.2°C 95% 13.9 mph NW22.4 kmh NW 16.0 mph25.7 kmh 29.31 in992.6 mb 0.00 in0.0 mm 0.00 in0.0 mm 0.00 in0.0 mm
05:13 AM 33.1°F0.6°C 31.8°F-0.1°C 95% 14.4 mph NW23.2 kmh NW 15.0 mph24.1 kmh 29.32 in992.9 mb 0.00 in0.0 mm 0.00 in0.0 mm 0.00 in0.0 mm
05:14 AM 33.1°F0.6°C 31.8°F-0.1°C 95% 14.0 mph NW22.5 kmh NW 15.0 mph24.1 kmh 29.32 in992.9 mb 0.00 in0.0 mm 0.00 in0.0 mm 0.00 in0.0 mm
05:15 AM 33.1°F0.6°C 31.8°F-0.1°C 95% 13.7 mph NW22.0 kmh NW 15.0 mph24.1 kmh 29.32 in992.9 mb 0.00 in0.0 mm 0.00 in0.0 mm 0.00 in0.0 mm
05:16 AM 33.1°F0.6°C 31.8°F-0.1°C 95% 13.5 mph NW21.7 kmh NW 15.0 mph24.1 kmh 29.32 in992.9 mb 0.00 in0.0 mm 0.00 in0.0 mm 0.00 in0.0 mm
05:17 AM 33.1°F0.6°C 31.8°F-0.1°C 95% 13.6 mph NW21.9 kmh NW 15.0 mph24.1 kmh 29.32 in992.9 mb 0.00 in0.0 mm 0.00 in0.0 mm 0.00 in0.0 mm
05:18 AM 33.1°F0.6°C 31.8°F-0.1°C 95% 14.3 mph NW23.0 kmh NW 16.0 mph25.7 kmh 29.32 in992.9 mb 0.00 in0.0 mm 0.00 in0.0 mm 0.00 in0.0 mm
05:19 AM 33.1°F0.6°C 31.8°F-0.1°C 95% 13.9 mph NW22.4 kmh NW 16.0 mph25.7 kmh 29.32 in992.9 mb 0.00 in0.0 mm 0.00 in0.0 mm 0.00 in0.0 mm
05:20 AM 33.1°F0.6°C 31.8°F-0.1°C 95% 13.4 mph NW21.6 kmh NW 15.0 mph24.1 kmh 29.32 in992.9 mb 0.00 in0.0 mm 0.00 in0.0 mm 0.00 in0.0 mm
05:21 AM 33.0°F0.6°C 31.7°F-0.2°C 95% 12.9 mph NW20.8 kmh NW 14.0 mph22.5 kmh 29.32 in992.9 mb 0.00 in0.0 mm 0.00 in0.0 mm 0.00 in0.0 mm
05:22 AM 33.1°F0.6°C 31.8°F-0.1°C 95% 13.2 mph NW21.2 kmh NW 14.0 mph22.5 kmh 29.32 in992.9 mb 0.00 in0.0 mm 0.00 in0.0 mm 0.00 in0.0 mm
05:23 AM 33.0°F0.6°C 31.7°F-0.2°C 95% 13.3 mph NW21.4 kmh NW 14.0 mph22.5 kmh 29.32 in992.9 mb 0.00 in0.0 mm 0.00 in0.0 mm 0.00 in0.0 mm
05:24 AM 33.1°F0.6°C 31.8°F-0.1°C 95% 13.3 mph NW21.4 kmh NW 14.0 mph22.5 kmh 29.32 in992.9 mb 0.00 in0.0 mm 0.00 in0.0 mm 0.00 in0.0 mm
05:25 AM 33.1°F0.6°C 31.8°F-0.1°C 95% 13.3 mph NW21.4 kmh NW 14.0 mph22.5 kmh 29.32 in992.9 mb 0.00 in0.0 mm 0.00 in0.0 mm 0.00 in0.0 mm
05:26 AM 33.1°F0.6°C 31.8°F-0.1°C 95% 12.6 mph NW20.3 kmh NW 14.0 mph22.5 kmh 29.32 in992.9 mb 0.00 in0.0 mm 0.00 in0.0 mm 0.00 in0.0 mm
05:27 AM 33.0°F0.6°C 31.7°F-0.2°C 95% 13.5 mph NW21.7 kmh NW 15.0 mph24.1 kmh 29.32 in992.9 mb 0.00 in0.0 mm 0.00 in0.0 mm 0.00 in0.0 mm
05:28 AM 33.0°F0.6°C 31.7°F-0.2°C 95% 12.8 mph NW20.6 kmh NW 15.0 mph24.1 kmh 29.32 in992.9 mb 0.00 in0.0 mm 0.00 in0.0 mm 0.00 in0.0 mm
05:29 AM 33.0°F0.6°C 31.7°F-0.2°C 95% 13.1 mph NW21.1 kmh NW 15.0 mph24.1 kmh 29.32 in992.9 mb 0.00 in0.0 mm 0.00 in0.0 mm 0.00 in0.0 mm
05:30 AM 33.0°F0.6°C 31.7°F-0.2°C 95% 13.5 mph NW21.7 kmh NW 15.0 mph24.1 kmh 29.32 in992.9 mb 0.00 in0.0 mm 0.00 in0.0 mm 0.00 in0.0 mm
05:31 AM 33.0°F0.6°C 31.7°F-0.2°C 95% 13.4 mph NW21.6 kmh NW 16.0 mph25.7 kmh 29.32 in992.9 mb 0.00 in0.0 mm 0.00 in0.0 mm 0.00 in0.0 mm
05:32 AM 33.0°F0.6°C 31.7°F-0.2°C 95% 13.5 mph NW21.7 kmh NW 16.0 mph25.7 kmh 29.32 in992.9 mb 0.00 in0.0 mm 0.00 in0.0 mm 0.00 in0.0 mm
05:33 AM 33.0°F0.6°C 31.7°F-0.2°C 95% 13.5 mph NW21.7 kmh NW 15.0 mph24.1 kmh 29.32 in992.9 mb 0.00 in0.0 mm 0.00 in0.0 mm 0.00 in0.0 mm
05:34 AM 33.0°F0.6°C 31.7°F-0.2°C 95% 13.0 mph NW20.9 kmh NW 15.0 mph24.1 kmh 29.32 in992.9 mb 0.00 in0.0 mm 0.00 in0.0 mm 0.00 in0.0 mm
05:35 AM 33.0°F0.6°C 31.7°F-0.2°C 95% 13.3 mph NW21.4 kmh NW 14.0 mph22.5 kmh 29.32 in992.9 mb 0.00 in0.0 mm 0.00 in0.0 mm 0.00 in0.0 mm
05:36 AM 33.0°F0.6°C 31.7°F-0.2°C 95% 13.2 mph NW21.2 kmh NW 15.0 mph24.1 kmh 29.32 in992.9 mb 0.00 in0.0 mm 0.00 in0.0 mm 0.00 in0.0 mm
05:37 AM 33.0°F0.6°C 31.7°F-0.2°C 95% 13.0 mph NW20.9 kmh NW 15.0 mph24.1 kmh 29.32 in992.9 mb 0.00 in0.0 mm 0.00 in0.0 mm 0.00 in0.0 mm
05:38 AM 33.0°F0.6°C 31.7°F-0.2°C 95% 13.3 mph NW21.4 kmh NW 14.0 mph22.5 kmh 29.32 in992.9 mb 0.00 in0.0 mm 0.00 in0.0 mm 0.00 in0.0 mm
05:39 AM 33.0°F0.6°C 31.7°F-0.2°C 95% 13.4 mph NW21.6 kmh NW 14.0 mph22.5 kmh 29.32 in992.9 mb 0.00 in0.0 mm 0.00 in0.0 mm 0.00 in0.0 mm
05:40 AM 33.0°F0.6°C 31.7°F-0.2°C 95% 13.1 mph NW21.1 kmh NW 14.0 mph22.5 kmh 29.32 in992.9 mb 0.00 in0.0 mm 0.00 in0.0 mm 0.00 in0.0 mm
05:41 AM 33.0°F0.6°C 31.7°F-0.2°C 95% 13.1 mph NW21.1 kmh NW 14.0 mph22.5 kmh 29.32 in992.9 mb 0.00 in0.0 mm 0.00 in0.0 mm 0.00 in0.0 mm
05:42 AM 33.0°F0.6°C 31.7°F-0.2°C 95% 13.1 mph NW21.1 kmh NW 14.0 mph22.5 kmh 29.32 in992.9 mb 0.00 in0.0 mm 0.00 in0.0 mm 0.00 in0.0 mm
05:43 AM 33.0°F0.6°C 31.7°F-0.2°C 95% 13.0 mph NW20.9 kmh NW 15.0 mph24.1 kmh 29.32 in992.9 mb 0.00 in0.0 mm 0.00 in0.0 mm 0.00 in0.0 mm
05:44 AM 33.0°F0.6°C 31.7°F-0.2°C 95% 12.6 mph NW20.3 kmh NW 15.0 mph24.1 kmh 29.32 in992.9 mb 0.00 in0.0 mm 0.00 in0.0 mm 0.00 in0.0 mm
05:45 AM 33.0°F0.6°C 31.7°F-0.2°C 95% 12.6 mph NW20.3 kmh NW 14.0 mph22.5 kmh 29.32 in992.9 mb 0.00 in0.0 mm 0.00 in0.0 mm 0.00 in0.0 mm
05:46 AM 33.0°F0.6°C 31.7°F-0.2°C 95% 13.1 mph NW21.1 kmh NW 14.0 mph22.5 kmh 29.32 in992.9 mb 0.00 in0.0 mm 0.00 in0.0 mm 0.00 in0.0 mm
05:47 AM 33.0°F0.6°C 31.7°F-0.2°C 95% 12.8 mph NW20.6 kmh NW 14.0 mph22.5 kmh 29.32 in992.9 mb 0.00 in0.0 mm 0.00 in0.0 mm 0.00 in0.0 mm
05:48 AM 32.9°F0.5°C 31.6°F-0.2°C 95% 12.6 mph NW20.3 kmh NW 14.0 mph22.5 kmh 29.32 in992.9 mb 0.00 in0.0 mm 0.00 in0.0 mm 0.00 in0.0 mm
05:49 AM 33.0°F0.6°C 31.7°F-0.2°C 95% 12.6 mph NW20.3 kmh NW 14.0 mph22.5 kmh 29.32 in992.9 mb 0.00 in0.0 mm 0.00 in0.0 mm 0.00 in0.0 mm
05:50 AM 33.0°F0.6°C 31.7°F-0.2°C 95% 13.2 mph NW21.2 kmh NW 15.0 mph24.1 kmh 29.32 in992.9 mb 0.00 in0.0 mm 0.00 in0.0 mm 0.00 in0.0 mm
05:51 AM 33.0°F0.6°C 31.7°F-0.2°C 95% 13.1 mph NW21.1 kmh NW 15.0 mph24.1 kmh 29.32 in992.9 mb 0.00 in0.0 mm 0.00 in0.0 mm 0.00 in0.0 mm
05:52 AM 33.0°F0.6°C 31.7°F-0.2°C 95% 12.9 mph NW20.8 kmh NW 14.0 mph22.5 kmh 29.32 in992.9 mb 0.00 in0.0 mm 0.00 in0.0 mm 0.00 in0.0 mm
05:53 AM 33.0°F0.6°C 31.7°F-0.2°C 95% 12.8 mph NW20.6 kmh NW 14.0 mph22.5 kmh 29.32 in992.9 mb 0.00 in0.0 mm 0.00 in0.0 mm 0.00 in0.0 mm
05:54 AM 33.0°F0.6°C 31.7°F-0.2°C 95% 12.1 mph NW19.5 kmh NW 14.0 mph22.5 kmh 29.32 in992.9 mb 0.00 in0.0 mm 0.00 in0.0 mm 0.00 in0.0 mm
05:55 AM 33.0°F0.6°C 31.7°F-0.2°C 95% 12.9 mph NW20.8 kmh NW 14.0 mph22.5 kmh 29.32 in992.9 mb 0.00 in0.0 mm 0.00 in0.0 mm 0.00 in0.0 mm
05:56 AM 33.0°F0.6°C 31.7°F-0.2°C 95% 12.3 mph NW19.8 kmh NW 14.0 mph22.5 kmh 29.32 in992.9 mb 0.00 in0.0 mm 0.00 in0.0 mm 0.00 in0.0 mm
05:57 AM 33.0°F0.6°C 31.7°F-0.2°C 95% 12.4 mph NW20.0 kmh NW 14.0 mph22.5 kmh 29.32 in992.9 mb 0.00 in0.0 mm 0.00 in0.0 mm 0.00 in0.0 mm
05:58 AM 33.0°F0.6°C 31.7°F-0.2°C 95% 12.3 mph NW19.8 kmh NW 14.0 mph22.5 kmh 29.32 in992.9 mb 0.00 in0.0 mm 0.00 in0.0 mm 0.00 in0.0 mm
05:59 AM 33.0°F0.6°C 31.7°F-0.2°C 95% 12.6 mph NW20.3 kmh NW 14.0 mph22.5 kmh 29.32 in992.9 mb 0.00 in0.0 mm 0.00 in0.0 mm 0.00 in0.0 mm
06:00 AM 33.0°F0.6°C 31.7°F-0.2°C 95% 13.4 mph NW21.6 kmh NW 14.0 mph22.5 kmh 29.32 in992.9 mb 0.00 in0.0 mm 0.00 in0.0 mm 0.00 in0.0 mm
06:01 AM 33.1°F0.6°C 31.8°F-0.1°C 95% 13.1 mph NW21.1 kmh NW 14.0 mph22.5 kmh 29.32 in992.9 mb 0.00 in0.0 mm 0.00 in0.0 mm 0.00 in0.0 mm
06:02 AM 33.1°F0.6°C 31.8°F-0.1°C 95% 12.9 mph NW20.8 kmh NW 14.0 mph22.5 kmh 29.32 in992.9 mb 0.00 in0.0 mm 0.00 in0.0 mm 0.00 in0.0 mm
06:03 AM 33.1°F0.6°C 31.8°F-0.1°C 95% 13.3 mph NW21.4 kmh NW 15.0 mph24.1 kmh 29.32 in992.9 mb 0.00 in0.0 mm 0.00 in0.0 mm 0.00 in0.0 mm
06:04 AM 33.1°F0.6°C 31.8°F-0.1°C 95% 13.2 mph NW21.2 kmh NW 15.0 mph24.1 kmh 29.32 in992.9 mb 0.00 in0.0 mm 0.00 in0.0 mm 0.00 in0.0 mm
06:05 AM 33.1°F0.6°C 31.8°F-0.1°C 95% 12.7 mph NW20.4 kmh NW 14.0 mph22.5 kmh 29.32 in992.9 mb 0.00 in0.0 mm 0.00 in0.0 mm 0.00 in0.0 mm
06:06 AM 33.0°F0.6°C 31.7°F-0.2°C 95% 13.2 mph NW21.2 kmh NW 15.0 mph24.1 kmh 29.32 in992.9 mb 0.00 in0.0 mm 0.00 in0.0 mm 0.00 in0.0 mm
06:07 AM 33.1°F0.6°C 31.8°F-0.1°C 95% 13.0 mph NW20.9 kmh NW 15.0 mph24.1 kmh 29.32 in992.9 mb 0.00 in0.0 mm 0.00 in0.0 mm 0.00 in0.0 mm
06:08 AM 33.0°F0.6°C 31.7°F-0.2°C 95% 13.3 mph NW21.4 kmh NW 15.0 mph24.1 kmh 29.32 in992.9 mb 0.00 in0.0 mm 0.00 in0.0 mm 0.00 in0.0 mm
06:09 AM 33.0°F0.6°C 31.7°F-0.2°C 95% 12.6 mph NW20.3 kmh NW 15.0 mph24.1 kmh 29.32 in992.9 mb 0.00 in0.0 mm 0.00 in0.0 mm 0.00 in0.0 mm
06:10 AM 33.0°F0.6°C 31.7°F-0.2°C 95% 13.5 mph NW21.7 kmh NW 15.0 mph24.1 kmh 29.32 in992.9 mb 0.00 in0.0 mm 0.00 in0.0 mm 0.00 in0.0 mm
06:11 AM 33.1°F0.6°C 31.8°F-0.1°C 95% 13.2 mph NW21.2 kmh NW 15.0 mph24.1 kmh 29.32 in992.9 mb 0.00 in0.0 mm 0.00 in0.0 mm 0.00 in0.0 mm
06:12 AM 33.1°F0.6°C 31.8°F-0.1°C 95% 13.0 mph NW20.9 kmh NW 15.0 mph24.1 kmh 29.32 in992.9 mb 0.00 in0.0 mm 0.00 in0.0 mm 0.00 in0.0 mm
06:13 AM 33.1°F0.6°C 31.8°F-0.1°C 95% 12.7 mph NW20.4 kmh NW 15.0 mph24.1 kmh 29.32 in992.9 mb 0.00 in0.0 mm 0.00 in0.0 mm 0.00 in0.0 mm
06:14 AM 33.1°F0.6°C 31.8°F-0.1°C 95% 13.6 mph NW21.9 kmh NW 15.0 mph24.1 kmh 29.33 in993.2 mb 0.00 in0.0 mm 0.00 in0.0 mm 0.00 in0.0 mm
06:15 AM 33.1°F0.6°C 31.8°F-0.1°C 95% 13.9 mph NW22.4 kmh NW 15.0 mph24.1 kmh 29.33 in993.2 mb 0.00 in0.0 mm 0.00 in0.0 mm 0.00 in0.0 mm
06:16 AM 33.1°F0.6°C 31.8°F-0.1°C 95% 13.2 mph NW21.2 kmh NW 15.0 mph24.1 kmh 29.32 in992.9 mb 0.00 in0.0 mm 0.00 in0.0 mm 0.00 in0.0 mm
06:17 AM 33.1°F0.6°C 31.8°F-0.1°C 95% 13.6 mph NW21.9 kmh NW 14.0 mph22.5 kmh 29.33 in993.2 mb 0.00 in0.0 mm 0.00 in0.0 mm 0.00 in0.0 mm
06:18 AM 33.1°F0.6°C 31.8°F-0.1°C 95% 13.3 mph NW21.4 kmh NW 15.0 mph24.1 kmh 29.33 in993.2 mb 0.00 in0.0 mm 0.00 in0.0 mm 0.00 in0.0 mm
06:19 AM 33.1°F0.6°C 31.8°F-0.1°C 95% 13.3 mph NW21.4 kmh NW 15.0 mph24.1 kmh 29.33 in993.2 mb 0.00 in0.0 mm 0.00 in0.0 mm 0.00 in0.0 mm
06:20 AM 33.1°F0.6°C 31.8°F-0.1°C 95% 13.6 mph NW21.9 kmh NW 16.0 mph25.7 kmh 29.33 in993.2 mb 0.00 in0.0 mm 0.00 in0.0 mm 0.00 in0.0 mm
06:21 AM 33.1°F0.6°C 31.8°F-0.1°C 95% 13.4 mph NW21.6 kmh NW 16.0 mph25.7 kmh 29.33 in993.2 mb 0.00 in0.0 mm 0.00 in0.0 mm 0.00 in0.0 mm
06:22 AM 33.1°F0.6°C 31.8°F-0.1°C 95% 13.8 mph NW22.2 kmh NW 15.0 mph24.1 kmh 29.33 in993.2 mb 0.00 in0.0 mm 0.00 in0.0 mm 0.00 in0.0 mm
06:23 AM 33.1°F0.6°C 31.8°F-0.1°C 95% 13.4 mph NW21.6 kmh NW 15.0 mph24.1 kmh 29.33 in993.2 mb 0.00 in0.0 mm 0.00 in0.0 mm 0.00 in0.0 mm
06:24 AM 33.1°F0.6°C 31.8°F-0.1°C 95% 13.5 mph NW21.7 kmh NW 16.0 mph25.7 kmh 29.33 in993.2 mb 0.00 in0.0 mm 0.00 in0.0 mm 0.00 in0.0 mm
06:25 AM 33.1°F0.6°C 31.8°F-0.1°C 95% 13.6 mph NW21.9 kmh NW 16.0 mph25.7 kmh 29.33 in993.2 mb 0.00 in0.0 mm 0.00 in0.0 mm 0.00 in0.0 mm
06:26 AM 33.2°F0.7°C 31.9°F-0.1°C 95% 14.2 mph NW22.9 kmh NW 16.0 mph25.7 kmh 29.33 in993.2 mb 0.00 in0.0 mm 0.00 in0.0 mm 0.00 in0.0 mm
06:27 AM 33.1°F0.6°C 31.8°F-0.1°C 95% 14.3 mph NW23.0 kmh NW 16.0 mph25.7 kmh 29.33 in993.2 mb 0.00 in0.0 mm 0.00 in0.0 mm 0.00 in0.0 mm
06:28 AM 33.1°F0.6°C 31.8°F-0.1°C 95% 13.8 mph NW22.2 kmh NW 15.0 mph24.1 kmh 29.33 in993.2 mb 0.00 in0.0 mm 0.00 in0.0 mm 0.00 in0.0 mm
06:29 AM 33.2°F0.7°C 31.9°F-0.1°C 95% 14.1 mph NW22.7 kmh NW 16.0 mph25.7 kmh 29.33 in993.2 mb 0.00 in0.0 mm 0.00 in0.0 mm 0.00 in0.0 mm
06:30 AM 33.1°F0.6°C 31.8°F-0.1°C 95% 14.4 mph NW23.2 kmh NW 17.0 mph27.4 kmh 29.33 in993.2 mb 0.00 in0.0 mm 0.00 in0.0 mm 0.00 in0.0 mm
06:31 AM 33.2°F0.7°C 31.9°F-0.1°C 95% 14.2 mph NW22.9 kmh NW 17.0 mph27.4 kmh 29.33 in993.2 mb 0.00 in0.0 mm 0.00 in0.0 mm 0.00 in0.0 mm
06:32 AM 33.2°F0.7°C 31.9°F-0.1°C 95% 13.9 mph NW22.4 kmh NW 16.0 mph25.7 kmh 29.33 in993.2 mb 0.00 in0.0 mm 0.00 in0.0 mm 0.00 in0.0 mm
06:33 AM 33.1°F0.6°C 31.8°F-0.1°C 95% 14.3 mph NW23.0 kmh NW 16.0 mph25.7 kmh 29.33 in993.2 mb 0.00 in0.0 mm 0.00 in0.0 mm 0.00 in0.0 mm
06:34 AM 33.2°F0.7°C 31.9°F-0.1°C 95% 14.5 mph NW23.3 kmh NW 16.0 mph25.7 kmh 29.33 in993.2 mb 0.00 in0.0 mm 0.00 in0.0 mm 0.00 in0.0 mm
06:35 AM 33.2°F0.7°C 31.9°F-0.1°C 95% 14.1 mph NW22.7 kmh NW 16.0 mph25.7 kmh 29.33 in993.2 mb 0.00 in0.0 mm 0.00 in0.0 mm 0.00 in0.0 mm
06:36 AM 33.1°F0.6°C 31.8°F-0.1°C 95% 13.8 mph NW22.2 kmh NW 16.0 mph25.7 kmh 29.33 in993.2 mb 0.00 in0.0 mm 0.00 in0.0 mm 0.00 in0.0 mm
06:37 AM 33.1°F0.6°C 31.8°F-0.1°C 95% 14.1 mph NW22.7 kmh NW 16.0 mph25.7 kmh 29.33 in993.2 mb 0.00 in0.0 mm 0.00 in0.0 mm 0.00 in0.0 mm
06:38 AM 33.2°F0.7°C 31.9°F-0.1°C 95% 13.8 mph NW22.2 kmh NW 15.0 mph24.1 kmh 29.33 in993.2 mb 0.00 in0.0 mm 0.00 in0.0 mm 0.00 in0.0 mm
06:39 AM 33.2°F0.7°C 31.9°F-0.1°C 95% 14.1 mph NW22.7 kmh NW 16.0 mph25.7 kmh 29.33 in993.2 mb 0.00 in0.0 mm 0.00 in0.0 mm 0.00 in0.0 mm
06:40 AM 33.2°F0.7°C 31.9°F-0.1°C 95% 14.2 mph NW22.9 kmh NW 16.0 mph25.7 kmh 29.33 in993.2 mb 0.00 in0.0 mm 0.00 in0.0 mm 0.00 in0.0 mm
06:41 AM 33.1°F0.6°C 31.8°F-0.1°C 95% 14.3 mph NW23.0 kmh NW 16.0 mph25.7 kmh 29.33 in993.2 mb 0.00 in0.0 mm 0.00 in0.0 mm 0.00 in0.0 mm
06:42 AM 33.2°F0.7°C 31.9°F-0.1°C 95% 14.7 mph NW23.7 kmh NW 16.0 mph25.7 kmh 29.33 in993.2 mb 0.00 in0.0 mm 0.00 in0.0 mm 0.00 in0.0 mm
06:43 AM 33.1°F0.6°C 31.8°F-0.1°C 95% 14.4 mph NW23.2 kmh NW 16.0 mph25.7 kmh 29.33 in993.2 mb 0.00 in0.0 mm 0.00 in0.0 mm 0.00 in0.0 mm
06:44 AM 33.1°F0.6°C 31.8°F-0.1°C 95% 15.1 mph NW24.3 kmh NW 17.0 mph27.4 kmh 29.33 in993.2 mb 0.00 in0.0 mm 0.00 in0.0 mm 0.00 in0.0 mm
06:45 AM 33.2°F0.7°C 31.9°F-0.1°C 95% 15.0 mph NW24.1 kmh NW 17.0 mph27.4 kmh 29.33 in993.2 mb 0.00 in0.0 mm 0.00 in0.0 mm 0.00 in0.0 mm
06:46 AM 33.2°F0.7°C 31.9°F-0.1°C 95% 14.6 mph NW23.5 kmh NW 17.0 mph27.4 kmh 29.33 in993.2 mb 0.00 in0.0 mm 0.00 in0.0 mm 0.00 in0.0 mm
06:47 AM 33.2°F0.7°C 31.9°F-0.1°C 95% 14.5 mph NW23.3 kmh NW 16.0 mph25.7 kmh 29.34 in993.6 mb 0.00 in0.0 mm 0.00 in0.0 mm 0.00 in0.0 mm
06:48 AM 33.2°F0.7°C 31.9°F-0.1°C 95% 14.9 mph NW24.0 kmh NW 17.0 mph27.4 kmh 29.34 in993.6 mb 0.00 in0.0 mm 0.00 in0.0 mm 0.00 in0.0 mm
06:49 AM 33.2°F0.7°C 31.9°F-0.1°C 95% 15.0 mph NW24.1 kmh NW 17.0 mph27.4 kmh 29.34 in993.6 mb 0.00 in0.0 mm 0.00 in0.0 mm 0.00 in0.0 mm
06:50 AM 33.2°F0.7°C 31.9°F-0.1°C 95% 14.2 mph NW22.9 kmh NW 16.0 mph25.7 kmh 29.33 in993.2 mb 0.00 in0.0 mm 0.00 in0.0 mm 0.00 in0.0 mm
06:51 AM 33.2°F0.7°C 31.9°F-0.1°C 95% 14.5 mph NW23.3 kmh NW 16.0 mph25.7 kmh 29.33 in993.2 mb 0.00 in0.0 mm 0.00 in0.0 mm 0.00 in0.0 mm
06:52 AM 33.2°F0.7°C 31.9°F-0.1°C 95% 14.3 mph NW23.0 kmh NW 16.0 mph25.7 kmh 29.34 in993.6 mb 0.00 in0.0 mm 0.00 in0.0 mm 0.00 in0.0 mm
06:53 AM 33.2°F0.7°C 31.9°F-0.1°C 95% 14.3 mph NW23.0 kmh NW 16.0 mph25.7 kmh 29.33 in993.2 mb 0.00 in0.0 mm 0.00 in0.0 mm 0.00 in0.0 mm
06:54 AM 33.2°F0.7°C 31.9°F-0.1°C 95% 14.3 mph NW23.0 kmh NW 16.0 mph25.7 kmh 29.34 in993.6 mb 0.00 in0.0 mm 0.00 in0.0 mm 0.00 in0.0 mm
06:55 AM 33.2°F0.7°C 31.9°F-0.1°C 95% 13.9 mph NW22.4 kmh NW 16.0 mph25.7 kmh 29.34 in993.6 mb 0.00 in0.0 mm 0.00 in0.0 mm 0.00 in0.0 mm
06:56 AM 33.1°F0.6°C 31.8°F-0.1°C 95% 14.3 mph NW23.0 kmh NW 15.0 mph24.1 kmh 29.34 in993.6 mb 0.00 in0.0 mm 0.00 in0.0 mm 0.00 in0.0 mm
06:57 AM 33.2°F0.7°C 31.9°F-0.1°C 95% 13.8 mph NW22.2 kmh NW 15.0 mph24.1 kmh 29.34 in993.6 mb 0.00 in0.0 mm 0.00 in0.0 mm 0.00 in0.0 mm
06:58 AM 33.1°F0.6°C 31.8°F-0.1°C 95% 13.9 mph NW22.4 kmh NW 15.0 mph24.1 kmh 29.34 in993.6 mb 0.00 in0.0 mm 0.00 in0.0 mm 0.00 in0.0 mm
06:59 AM 33.1°F0.6°C 31.8°F-0.1°C 95% 14.3 mph NW23.0 kmh NW 16.0 mph25.7 kmh 29.34 in993.6 mb 0.00 in0.0 mm 0.00 in0.0 mm 0.00 in0.0 mm
07:00 AM 33.1°F0.6°C 31.8°F-0.1°C 95% 14.0 mph NW22.5 kmh NW 16.0 mph25.7 kmh 29.34 in993.6 mb 0.00 in0.0 mm 0.00 in0.0 mm 0.00 in0.0 mm
07:01 AM 33.1°F0.6°C 31.8°F-0.1°C 95% 14.1 mph NW22.7 kmh NW 16.0 mph25.7 kmh 29.34 in993.6 mb 0.00 in0.0 mm 0.00 in0.0 mm 0.00 in0.0 mm
07:02 AM 33.1°F0.6°C 31.8°F-0.1°C 95% 13.7 mph NW22.0 kmh NW 16.0 mph25.7 kmh 29.34 in993.6 mb 0.00 in0.0 mm 0.00 in0.0 mm 0.00 in0.0 mm
07:03 AM 33.1°F0.6°C 31.8°F-0.1°C 95% 14.0 mph NW22.5 kmh NW 16.0 mph25.7 kmh 29.34 in993.6 mb 0.00 in0.0 mm 0.00 in0.0 mm 0.00 in0.0 mm
07:04 AM 33.1°F0.6°C 31.8°F-0.1°C 95% 13.1 mph NW21.1 kmh NW 15.0 mph24.1 kmh 29.34 in993.6 mb 0.00 in0.0 mm 0.00 in0.0 mm 0.00 in0.0 mm
07:05 AM 33.2°F0.7°C 31.9°F-0.1°C 95% 13.7 mph NW22.0 kmh NW 15.0 mph24.1 kmh 29.34 in993.6 mb 0.00 in0.0 mm 0.00 in0.0 mm 0.00 in0.0 mm
07:06 AM 33.1°F0.6°C 31.8°F-0.1°C 95% 14.4 mph NW23.2 kmh NW 16.0 mph25.7 kmh 29.34 in993.6 mb 0.00 in0.0 mm 0.00 in0.0 mm 0.00 in0.0 mm
07:07 AM 33.1°F0.6°C 31.8°F-0.1°C 95% 13.5 mph NW21.7 kmh NW 16.0 mph25.7 kmh 29.34 in993.6 mb 0.00 in0.0 mm 0.00 in0.0 mm 0.00 in0.0 mm
07:08 AM 33.1°F0.6°C 31.8°F-0.1°C 95% 13.4 mph NW21.6 kmh NW 15.0 mph24.1 kmh 29.34 in993.6 mb 0.00 in0.0 mm 0.00 in0.0 mm 0.00 in0.0 mm
07:09 AM 33.1°F0.6°C 31.8°F-0.1°C 95% 13.5 mph NW21.7 kmh NW 16.0 mph25.7 kmh 29.34 in993.6 mb 0.00 in0.0 mm 0.00 in0.0 mm 0.00 in0.0 mm
07:10 AM 33.1°F0.6°C 31.8°F-0.1°C 95% 13.5 mph NW21.7 kmh NW 16.0 mph25.7 kmh 29.34 in993.6 mb 0.00 in0.0 mm 0.00 in0.0 mm 0.00 in0.0 mm
07:11 AM 33.1°F0.6°C 31.8°F-0.1°C 95% 13.8 mph NW22.2 kmh NW 16.0 mph25.7 kmh 29.34 in993.6 mb 0.00 in0.0 mm 0.00 in0.0 mm 0.00 in0.0 mm
07:12 AM 33.1°F0.6°C 31.8°F-0.1°C 95% 13.4 mph NW21.6 kmh NW 16.0 mph25.7 kmh 29.34 in993.6 mb 0.00 in0.0 mm 0.00 in0.0 mm 0.00 in0.0 mm
07:13 AM 33.0°F0.6°C 31.7°F-0.2°C 95% 13.5 mph NW21.7 kmh NW 16.0 mph25.7 kmh 29.34 in993.6 mb 0.00 in0.0 mm 0.00 in0.0 mm 0.00 in0.0 mm
07:14 AM 33.0°F0.6°C 31.7°F-0.2°C 95% 13.5 mph NW21.7 kmh NW 16.0 mph25.7 kmh 29.34 in993.6 mb 0.00 in0.0 mm 0.00 in0.0 mm 0.00 in0.0 mm
07:15 AM 33.0°F0.6°C 31.7°F-0.2°C 95% 13.8 mph NW22.2 kmh NW 15.0 mph24.1 kmh 29.34 in993.6 mb 0.00 in0.0 mm 0.00 in0.0 mm 0.00 in0.0 mm
07:16 AM 33.0°F0.6°C 31.7°F-0.2°C 95% 13.4 mph NW21.6 kmh NW 15.0 mph24.1 kmh 29.34 in993.6 mb 0.00 in0.0 mm 0.00 in0.0 mm 0.00 in0.0 mm
07:17 AM 33.0°F0.6°C 31.7°F-0.2°C 95% 13.7 mph NW22.0 kmh NW 15.0 mph24.1 kmh 29.34 in993.6 mb 0.00 in0.0 mm 0.00 in0.0 mm 0.00 in0.0 mm
07:18 AM 33.0°F0.6°C 31.7°F-0.2°C 95% 13.6 mph NW21.9 kmh NW 15.0 mph24.1 kmh 29.34 in993.6 mb 0.00 in0.0 mm 0.00 in0.0 mm 0.00 in0.0 mm
07:19 AM 33.0°F0.6°C 31.7°F-0.2°C 95% 13.5 mph NW21.7 kmh NW 15.0 mph24.1 kmh 29.34 in993.6 mb 0.00 in0.0 mm 0.00 in0.0 mm 0.00 in0.0 mm
07:20 AM 32.9°F0.5°C 31.6°F-0.2°C 95% 14.0 mph NW22.5 kmh NW 15.0 mph24.1 kmh 29.34 in993.6 mb 0.00 in0.0 mm 0.00 in0.0 mm 0.00 in0.0 mm
07:21 AM 32.9°F0.5°C 31.6°F-0.2°C 95% 13.1 mph NW21.1 kmh NW 15.0 mph24.1 kmh 29.34 in993.6 mb 0.00 in0.0 mm 0.00 in0.0 mm 0.00 in0.0 mm
07:22 AM 32.9°F0.5°C 31.6°F-0.2°C 95% 13.5 mph NW21.7 kmh NW 15.0 mph24.1 kmh 29.34 in993.6 mb 0.00 in0.0 mm 0.00 in0.0 mm 0.00 in0.0 mm
07:23 AM 32.9°F0.5°C 31.6°F-0.2°C 95% 13.7 mph NW22.0 kmh NW 15.0 mph24.1 kmh 29.34 in993.6 mb 0.00 in0.0 mm 0.00 in0.0 mm 0.00 in0.0 mm
07:24 AM 32.9°F0.5°C 31.6°F-0.2°C 95% 14.3 mph NW23.0 kmh NW 16.0 mph25.7 kmh 29.34 in993.6 mb 0.00 in0.0 mm 0.00 in0.0 mm 0.00 in0.0 mm
07:25 AM 32.9°F0.5°C 31.6°F-0.2°C 95% 14.5 mph NW23.3 kmh NW 16.0 mph25.7 kmh 29.34 in993.6 mb 0.00 in0.0 mm 0.00 in0.0 mm 0.00 in0.0 mm
07:26 AM 32.9°F0.5°C 31.6°F-0.2°C 95% 13.9 mph NW22.4 kmh NW 16.0 mph25.7 kmh 29.34 in993.6 mb 0.00 in0.0 mm 0.00 in0.0 mm 0.00 in0.0 mm
07:27 AM 32.9°F0.5°C 31.6°F-0.2°C 95% 14.7 mph NW23.7 kmh NW 16.0 mph25.7 kmh 29.34 in993.6 mb 0.00 in0.0 mm 0.00 in0.0 mm 0.00 in0.0 mm
07:28 AM 32.9°F0.5°C 31.6°F-0.2°C 95% 14.7 mph NW23.7 kmh NW 16.0 mph25.7 kmh 29.34 in993.6 mb 0.00 in0.0 mm 0.00 in0.0 mm 0.00 in0.0 mm
07:29 AM 32.9°F0.5°C 31.6°F-0.2°C 95% 15.1 mph NW24.3 kmh NW 17.0 mph27.4 kmh 29.34 in993.6 mb 0.00 in0.0 mm 0.00 in0.0 mm 0.00 in0.0 mm
07:30 AM 32.9°F0.5°C 31.6°F-0.2°C 95% 15.8 mph NW25.4 kmh NW 17.0 mph27.4 kmh 29.34 in993.6 mb 0.00 in0.0 mm 0.00 in0.0 mm 0.00 in0.0 mm
07:31 AM 32.9°F0.5°C 31.6°F-0.2°C 95% 15.0 mph NW24.1 kmh NW 17.0 mph27.4 kmh 29.34 in993.6 mb 0.00 in0.0 mm 0.00 in0.0 mm 0.00 in0.0 mm
07:32 AM 33.0°F0.6°C 31.7°F-0.2°C 95% 15.2 mph NW24.5 kmh NW 17.0 mph27.4 kmh 29.34 in993.6 mb 0.00 in0.0 mm 0.00 in0.0 mm 0.00 in0.0 mm
07:33 AM 33.0°F0.6°C 31.7°F-0.2°C 95% 14.9 mph NW24.0 kmh NW 17.0 mph27.4 kmh 29.34 in993.6 mb 0.00 in0.0 mm 0.00 in0.0 mm 0.00 in0.0 mm
07:34 AM 33.0°F0.6°C 31.7°F-0.2°C 95% 15.1 mph NW24.3 kmh NW 17.0 mph27.4 kmh 29.34 in993.6 mb 0.00 in0.0 mm 0.00 in0.0 mm 0.00 in0.0 mm
07:35 AM 33.0°F0.6°C 31.7°F-0.2°C 95% 14.9 mph NW24.0 kmh NW 17.0 mph27.4 kmh 29.34 in993.6 mb 0.00 in0.0 mm 0.00 in0.0 mm 0.00 in0.0 mm
07:36 AM 33.1°F0.6°C 31.8°F-0.1°C 95% 14.4 mph NW23.2 kmh NW 16.0 mph25.7 kmh 29.35 in993.9 mb 0.00 in0.0 mm 0.00 in0.0 mm 0.00 in0.0 mm
07:37 AM 33.0°F0.6°C 31.7°F-0.2°C 95% 14.3 mph NW23.0 kmh NW 17.0 mph27.4 kmh 29.34 in993.6 mb 0.00 in0.0 mm 0.00 in0.0 mm 0.00 in0.0 mm
07:38 AM 33.1°F0.6°C 31.8°F-0.1°C 95% 15.4 mph NW24.8 kmh NW 17.0 mph27.4 kmh 29.35 in993.9 mb 0.00 in0.0 mm 0.00 in0.0 mm 0.00 in0.0 mm
07:39 AM 33.0°F0.6°C 31.7°F-0.2°C 95% 15.2 mph NW24.5 kmh NW 17.0 mph27.4 kmh 29.35 in993.9 mb 0.00 in0.0 mm 0.00 in0.0 mm 0.00 in0.0 mm
07:40 AM 33.1°F0.6°C 31.8°F-0.1°C 95% 14.9 mph NW24.0 kmh NW 17.0 mph27.4 kmh 29.35 in993.9 mb 0.00 in0.0 mm 0.00 in0.0 mm 0.00 in0.0 mm
07:41 AM 33.1°F0.6°C 31.8°F-0.1°C 95% 14.9 mph NW24.0 kmh NW 17.0 mph27.4 kmh 29.35 in993.9 mb 0.00 in0.0 mm 0.00 in0.0 mm 0.00 in0.0 mm
07:42 AM 33.1°F0.6°C 31.8°F-0.1°C 95% 15.3 mph NW24.6 kmh NW 17.0 mph27.4 kmh 29.35 in993.9 mb 0.00 in0.0 mm 0.00 in0.0 mm 0.00 in0.0 mm
07:43 AM 33.1°F0.6°C 31.8°F-0.1°C 95% 15.7 mph NW25.3 kmh NW 17.0 mph27.4 kmh 29.35 in993.9 mb 0.00 in0.0 mm 0.00 in0.0 mm 0.00 in0.0 mm
07:44 AM 33.1°F0.6°C 31.8°F-0.1°C 95% 15.8 mph NW25.4 kmh NW 17.0 mph27.4 kmh 29.35 in993.9 mb 0.00 in0.0 mm 0.00 in0.0 mm 0.00 in0.0 mm
07:45 AM 33.2°F0.7°C 31.9°F-0.1°C 95% 15.6 mph NW25.1 kmh NW 17.0 mph27.4 kmh 29.35 in993.9 mb 0.00 in0.0 mm 0.00 in0.0 mm 0.00 in0.0 mm
07:46 AM 33.2°F0.7°C 31.9°F-0.1°C 95% 15.1 mph NW24.3 kmh NW 17.0 mph27.4 kmh 29.35 in993.9 mb 0.00 in0.0 mm 0.00 in0.0 mm 0.00 in0.0 mm
07:47 AM 33.2°F0.7°C 31.9°F-0.1°C 95% 15.6 mph NW25.1 kmh NW 17.0 mph27.4 kmh 29.35 in993.9 mb 0.00 in0.0 mm 0.00 in0.0 mm 0.00 in0.0 mm
07:48 AM 33.2°F0.7°C 31.9°F-0.1°C 95% 15.2 mph NW24.5 kmh NW 17.0 mph27.4 kmh 29.35 in993.9 mb 0.00 in0.0 mm 0.00 in0.0 mm 0.00 in0.0 mm
07:49 AM 33.2°F0.7°C 31.9°F-0.1°C 95% 15.2 mph NW24.5 kmh NW 17.0 mph27.4 kmh 29.35 in993.9 mb 0.00 in0.0 mm 0.00 in0.0 mm 0.00 in0.0 mm
07:50 AM 33.2°F0.7°C 31.9°F-0.1°C 95% 15.7 mph NW25.3 kmh NW 18.0 mph29.0 kmh 29.35 in993.9 mb 0.00 in0.0 mm 0.00 in0.0 mm 0.00 in0.0 mm
07:51 AM 33.2°F0.7°C 31.9°F-0.1°C 95% 15.0 mph NW24.1 kmh NW 18.0 mph29.0 kmh 29.35 in993.9 mb 0.00 in0.0 mm 0.00 in0.0 mm 0.00 in0.0 mm
07:52 AM 33.2°F0.7°C 31.9°F-0.1°C 95% 15.9 mph NW25.6 kmh NW 17.0 mph27.4 kmh 29.35 in993.9 mb 0.00 in0.0 mm 0.00 in0.0 mm 0.00 in0.0 mm
07:53 AM 33.3°F0.7°C 32.0°F0.0°C 95% 15.9 mph NW25.6 kmh NW 17.0 mph27.4 kmh 29.35 in993.9 mb 0.00 in0.0 mm 0.00 in0.0 mm 0.00 in0.0 mm
07:54 AM 33.2°F0.7°C 31.9°F-0.1°C 95% 15.3 mph NW24.6 kmh NW 17.0 mph27.4 kmh 29.35 in993.9 mb 0.00 in0.0 mm 0.00 in0.0 mm 0.00 in0.0 mm
07:55 AM 33.2°F0.7°C 31.9°F-0.1°C 95% 15.4 mph NW24.8 kmh NW 17.0 mph27.4 kmh 29.35 in993.9 mb 0.00 in0.0 mm 0.00 in0.0 mm 0.00 in0.0 mm
07:56 AM 33.2°F0.7°C 31.9°F-0.1°C 95% 15.8 mph NW25.4 kmh NW 18.0 mph29.0 kmh 29.35 in993.9 mb 0.00 in0.0 mm 0.00 in0.0 mm 0.00 in0.0 mm
07:57 AM 33.2°F0.7°C 31.9°F-0.1°C 95% 16.0 mph NW25.7 kmh NW 18.0 mph29.0 kmh 29.35 in993.9 mb 0.00 in0.0 mm 0.00 in0.0 mm 0.00 in0.0 mm
07:58 AM 33.2°F0.7°C 31.9°F-0.1°C 95% 15.7 mph NW25.3 kmh NW 17.0 mph27.4 kmh 29.35 in993.9 mb 0.00 in0.0 mm 0.00 in0.0 mm 0.00 in0.0 mm
07:59 AM 33.3°F0.7°C 32.0°F0.0°C 95% 16.2 mph NW26.1 kmh NW 18.0 mph29.0 kmh 29.35 in993.9 mb 0.00 in0.0 mm 0.00 in0.0 mm 0.00 in0.0 mm
08:00 AM 33.3°F0.7°C 32.0°F0.0°C 95% 15.2 mph NW24.5 kmh NW 18.0 mph29.0 kmh 29.35 in993.9 mb 0.00 in0.0 mm 0.00 in0.0 mm 0.00 in0.0 mm
08:01 AM 33.3°F0.7°C 32.0°F0.0°C 95% 15.7 mph NW25.3 kmh NW 18.0 mph29.0 kmh 29.35 in993.9 mb 0.00 in0.0 mm 0.00 in0.0 mm 0.00 in0.0 mm
08:02 AM 33.3°F0.7°C 32.0°F0.0°C 95% 15.6 mph NW25.1 kmh NW 18.0 mph29.0 kmh 29.35 in993.9 mb 0.00 in0.0 mm 0.00 in0.0 mm 0.00 in0.0 mm
08:03 AM 33.3°F0.7°C 32.0°F0.0°C 95% 15.5 mph NW24.9 kmh NW 18.0 mph29.0 kmh 29.35 in993.9 mb 0.00 in0.0 mm 0.00 in0.0 mm 0.00 in0.0 mm
08:04 AM 33.2°F0.7°C 31.9°F-0.1°C 95% 16.2 mph NW26.1 kmh NW 18.0 mph29.0 kmh 29.36 in994.2 mb 0.00 in0.0 mm 0.00 in0.0 mm 0.00 in0.0 mm
08:05 AM 33.3°F0.7°C 32.0°F0.0°C 95% 16.4 mph NW26.4 kmh NW 18.0 mph29.0 kmh 29.36 in994.2 mb 0.00 in0.0 mm 0.00 in0.0 mm 0.00 in0.0 mm
08:06 AM 33.3°F0.7°C 32.0°F0.0°C 95% 16.2 mph NW26.1 kmh NW 18.0 mph29.0 kmh 29.36 in994.2 mb 0.00 in0.0 mm 0.00 in0.0 mm 0.00 in0.0 mm
08:07 AM 33.3°F0.7°C 32.0°F0.0°C 95% 16.0 mph NW25.7 kmh NW 17.0 mph27.4 kmh 29.36 in994.2 mb 0.00 in0.0 mm 0.00 in0.0 mm 0.00 in0.0 mm
08:08 AM 33.3°F0.7°C 32.0°F0.0°C 95% 16.3 mph NW26.2 kmh NW 18.0 mph29.0 kmh 29.36 in994.2 mb 0.00 in0.0 mm 0.00 in0.0 mm 0.00 in0.0 mm
08:09 AM 33.3°F0.7°C 32.0°F0.0°C 95% 16.5 mph NW26.6 kmh NW 18.0 mph29.0 kmh 29.36 in994.2 mb 0.00 in0.0 mm 0.00 in0.0 mm 0.00 in0.0 mm
08:10 AM 33.3°F0.7°C 32.0°F0.0°C 95% 16.1 mph NW25.9 kmh NW 18.0 mph29.0 kmh 29.36 in994.2 mb 0.00 in0.0 mm 0.00 in0.0 mm 0.00 in0.0 mm
08:11 AM 33.3°F0.7°C 32.0°F0.0°C 95% 16.0 mph NW25.7 kmh NW 18.0 mph29.0 kmh 29.36 in994.2 mb 0.00 in0.0 mm 0.00 in0.0 mm 0.00 in0.0 mm
08:12 AM 33.3°F0.7°C 32.0°F0.0°C 95% 16.4 mph NW26.4 kmh NW 19.0 mph30.6 kmh 29.36 in994.2 mb 0.00 in0.0 mm 0.00 in0.0 mm 0.00 in0.0 mm
08:13 AM 33.3°F0.7°C 32.0°F0.0°C 95% 16.5 mph NW26.6 kmh NW 19.0 mph30.6 kmh 29.36 in994.2 mb 0.00 in0.0 mm 0.00 in0.0 mm 0.00 in0.0 mm
08:14 AM 33.3°F0.7°C 32.0°F0.0°C 95% 16.4 mph NW26.4 kmh NW 19.0 mph30.6 kmh 29.36 in994.2 mb 0.00 in0.0 mm 0.00 in0.0 mm 0.00 in0.0 mm
08:15 AM 33.3°F0.7°C 32.0°F0.0°C 95% 16.9 mph NW27.2 kmh NW 19.0 mph30.6 kmh 29.36 in994.2 mb 0.00 in0.0 mm 0.00 in0.0 mm 0.00 in0.0 mm
08:16 AM 33.3°F0.7°C 32.0°F0.0°C 95% 15.5 mph NW24.9 kmh NW 19.0 mph30.6 kmh 29.36 in994.2 mb 0.00 in0.0 mm 0.00 in0.0 mm 0.00 in0.0 mm
08:17 AM 33.3°F0.7°C 32.0°F0.0°C 95% 16.3 mph NW26.2 kmh NW 18.0 mph29.0 kmh 29.36 in994.2 mb 0.00 in0.0 mm 0.00 in0.0 mm 0.00 in0.0 mm
08:18 AM 33.3°F0.7°C 32.0°F0.0°C 95% 16.8 mph NW27.0 kmh NW 18.0 mph29.0 kmh 29.36 in994.2 mb 0.00 in0.0 mm 0.00 in0.0 mm 0.00 in0.0 mm
08:19 AM 33.3°F0.7°C 32.0°F0.0°C 95% 16.4 mph NW26.4 kmh NW 18.0 mph29.0 kmh 29.36 in994.2 mb 0.00 in0.0 mm 0.00 in0.0 mm 0.00 in0.0 mm
08:20 AM 33.3°F0.7°C 32.0°F0.0°C 95% 16.1 mph NW25.9 kmh NW 18.0 mph29.0 kmh 29.36 in994.2 mb 0.00 in0.0 mm 0.00 in0.0 mm 0.00 in0.0 mm
08:21 AM 33.3°F0.7°C 32.0°F0.0°C 95% 16.3 mph NW26.2 kmh NW 18.0 mph29.0 kmh 29.36 in994.2 mb 0.00 in0.0 mm 0.00 in0.0 mm 0.00 in0.0 mm
08:22 AM 33.2°F0.7°C 31.9°F-0.1°C 95% 15.6 mph NW25.1 kmh NW 18.0 mph29.0 kmh 29.36 in994.2 mb 0.00 in0.0 mm 0.00 in0.0 mm 0.00 in0.0 mm
08:23 AM 33.2°F0.7°C 31.9°F-0.1°C 95% 16.6 mph NW26.7 kmh NW 18.0 mph29.0 kmh 29.36 in994.2 mb 0.00 in0.0 mm 0.00 in0.0 mm 0.00 in0.0 mm
08:24 AM 33.2°F0.7°C 31.9°F-0.1°C 95% 15.7 mph NW25.3 kmh NW 18.0 mph29.0 kmh 29.36 in994.2 mb 0.00 in0.0 mm 0.00 in0.0 mm 0.00 in0.0 mm
08:25 AM 33.2°F0.7°C 31.9°F-0.1°C 95% 15.6 mph NW25.1 kmh NW 17.0 mph27.4 kmh 29.36 in994.2 mb 0.00 in0.0 mm 0.00 in0.0 mm 0.00 in0.0 mm
08:26 AM 33.2°F0.7°C 31.9°F-0.1°C 95% 15.9 mph NW25.6 kmh NW 17.0 mph27.4 kmh 29.36 in994.2 mb 0.00 in0.0 mm 0.00 in0.0 mm 0.00 in0.0 mm
08:27 AM 33.2°F0.7°C 31.9°F-0.1°C 95% 15.8 mph NW25.4 kmh NW 18.0 mph29.0 kmh 29.36 in994.2 mb 0.00 in0.0 mm 0.00 in0.0 mm 0.00 in0.0 mm
08:28 AM 33.2°F0.7°C 31.9°F-0.1°C 95% 15.4 mph NW24.8 kmh NW 18.0 mph29.0 kmh 29.36 in994.2 mb 0.00 in0.0 mm 0.00 in0.0 mm 0.00 in0.0 mm
08:29 AM 33.2°F0.7°C 31.9°F-0.1°C 95% 15.7 mph NW25.3 kmh NW 17.0 mph27.4 kmh 29.36 in994.2 mb 0.00 in0.0 mm 0.00 in0.0 mm 0.00 in0.0 mm
08:30 AM 33.2°F0.7°C 31.9°F-0.1°C 95% 16.0 mph NW25.7 kmh NW 17.0 mph27.4 kmh 29.36 in994.2 mb 0.00 in0.0 mm 0.00 in0.0 mm 0.00 in0.0 mm
08:31 AM 33.2°F0.7°C 31.9°F-0.1°C 95% 15.2 mph NW24.5 kmh NW 17.0 mph27.4 kmh 29.36 in994.2 mb 0.00 in0.0 mm 0.00 in0.0 mm 0.00 in0.0 mm
08:32 AM 33.2°F0.7°C 31.9°F-0.1°C 95% 15.6 mph NW25.1 kmh NW 17.0 mph27.4 kmh 29.36 in994.2 mb 0.00 in0.0 mm 0.00 in0.0 mm 0.00 in0.0 mm
08:33 AM 33.1°F0.6°C 31.8°F-0.1°C 95% 14.5 mph NW23.3 kmh NW 17.0 mph27.4 kmh 29.36 in994.2 mb 0.00 in0.0 mm 0.00 in0.0 mm 0.00 in0.0 mm
08:34 AM 33.1°F0.6°C 31.8°F-0.1°C 95% 14.8 mph NW23.8 kmh NW 16.0 mph25.7 kmh 29.36 in994.2 mb 0.00 in0.0 mm 0.00 in0.0 mm 0.00 in0.0 mm
08:35 AM 33.1°F0.6°C 31.8°F-0.1°C 95% 15.2 mph NW24.5 kmh NW 17.0 mph27.4 kmh 29.36 in994.2 mb 0.00 in0.0 mm 0.00 in0.0 mm 0.00 in0.0 mm
08:36 AM 33.0°F0.6°C 31.7°F-0.2°C 95% 14.1 mph NW22.7 kmh NW 17.0 mph27.4 kmh 29.36 in994.2 mb 0.00 in0.0 mm 0.00 in0.0 mm 0.00 in0.0 mm
08:37 AM 33.0°F0.6°C 31.7°F-0.2°C 95% 14.9 mph NW24.0 kmh NW 16.0 mph25.7 kmh 29.37 in994.6 mb 0.00 in0.0 mm 0.00 in0.0 mm 0.00 in0.0 mm
08:38 AM 33.0°F0.6°C 31.7°F-0.2°C 95% 14.5 mph NNW23.3 kmh NNW 16.0 mph25.7 kmh 29.37 in994.6 mb 0.00 in0.0 mm 0.00 in0.0 mm 0.00 in0.0 mm
08:39 AM 33.0°F0.6°C 31.7°F-0.2°C 95% 13.9 mph NW22.4 kmh NW 16.0 mph25.7 kmh 29.37 in994.6 mb 0.00 in0.0 mm 0.00 in0.0 mm 0.00 in0.0 mm
08:40 AM 33.0°F0.6°C 31.7°F-0.2°C 95% 13.8 mph NNW22.2 kmh NNW 16.0 mph25.7 kmh 29.37 in994.6 mb 0.00 in0.0 mm 0.00 in0.0 mm 0.00 in0.0 mm
08:41 AM 33.0°F0.6°C 31.7°F-0.2°C 95% 14.0 mph NNW22.5 kmh NNW 15.0 mph24.1 kmh 29.37 in994.6 mb 0.00 in0.0 mm 0.00 in0.0 mm 0.00 in0.0 mm
08:42 AM 33.0°F0.6°C 31.7°F-0.2°C 95% 13.4 mph NW21.6 kmh NW 15.0 mph24.1 kmh 29.37 in994.6 mb 0.00 in0.0 mm 0.00 in0.0 mm 0.00 in0.0 mm
08:43 AM 33.0°F0.6°C 31.7°F-0.2°C 95% 13.4 mph NNW21.6 kmh NNW 15.0 mph24.1 kmh 29.37 in994.6 mb 0.00 in0.0 mm 0.00 in0.0 mm 0.00 in0.0 mm
08:44 AM 33.0°F0.6°C 31.7°F-0.2°C 95% 13.9 mph NNW22.4 kmh NNW 16.0 mph25.7 kmh 29.37 in994.6 mb 0.00 in0.0 mm 0.00 in0.0 mm 0.00 in0.0 mm
08:45 AM 32.9°F0.5°C 31.6°F-0.2°C 95% 13.7 mph NNW22.0 kmh NNW 16.0 mph25.7 kmh 29.37 in994.6 mb 0.00 in0.0 mm 0.00 in0.0 mm 0.00 in0.0 mm
08:46 AM 33.0°F0.6°C 31.7°F-0.2°C 95% 13.4 mph NNW21.6 kmh NNW 15.0 mph24.1 kmh 29.37 in994.6 mb 0.00 in0.0 mm 0.00 in0.0 mm 0.00 in0.0 mm
08:47 AM 32.9°F0.5°C 31.6°F-0.2°C 95% 13.3 mph NNW21.4 kmh NNW 15.0 mph24.1 kmh 29.37 in994.6 mb 0.00 in0.0 mm 0.00 in0.0 mm 0.00 in0.0 mm
08:48 AM 32.9°F0.5°C 31.6°F-0.2°C 95% 14.1 mph NNW22.7 kmh NNW 16.0 mph25.7 kmh 29.37 in994.6 mb 0.00 in0.0 mm 0.00 in0.0 mm 0.00 in0.0 mm
08:49 AM 33.0°F0.6°C 31.7°F-0.2°C 95% 13.8 mph NNW22.2 kmh NNW 16.0 mph25.7 kmh 29.37 in994.6 mb 0.00 in0.0 mm 0.00 in0.0 mm 0.00 in0.0 mm
08:50 AM 32.9°F0.5°C 31.6°F-0.2°C 95% 13.5 mph NW21.7 kmh NW 15.0 mph24.1 kmh 29.37 in994.6 mb 0.00 in0.0 mm 0.00 in0.0 mm 0.00 in0.0 mm
08:51 AM 32.9°F0.5°C 31.6°F-0.2°C 95% 13.6 mph NW21.9 kmh NW 15.0 mph24.1 kmh 29.37 in994.6 mb 0.00 in0.0 mm 0.00 in0.0 mm 0.00 in0.0 mm
08:52 AM 32.9°F0.5°C 31.6°F-0.2°C 95% 14.3 mph NW23.0 kmh NW 16.0 mph25.7 kmh 29.38 in994.9 mb 0.00 in0.0 mm 0.00 in0.0 mm 0.00 in0.0 mm
08:53 AM 32.9°F0.5°C 31.6°F-0.2°C 95% 14.8 mph NNW23.8 kmh NNW 17.0 mph27.4 kmh 29.37 in994.6 mb 0.00 in0.0 mm 0.00 in0.0 mm 0.00 in0.0 mm
08:54 AM 33.0°F0.6°C 31.7°F-0.2°C 95% 14.2 mph NNW22.9 kmh NNW 17.0 mph27.4 kmh 29.38 in994.9 mb 0.00 in0.0 mm 0.00 in0.0 mm 0.00 in0.0 mm
08:55 AM 33.0°F0.6°C 31.7°F-0.2°C 95% 14.1 mph NNW22.7 kmh NNW 15.0 mph24.1 kmh 29.38 in994.9 mb 0.00 in0.0 mm 0.00 in0.0 mm 0.00 in0.0 mm
08:56 AM 33.0°F0.6°C 31.7°F-0.2°C 95% 14.1 mph NW22.7 kmh NW 16.0 mph25.7 kmh 29.38 in994.9 mb 0.00 in0.0 mm 0.00 in0.0 mm 0.00 in0.0 mm
08:57 AM 33.0°F0.6°C 31.7°F-0.2°C 95% 14.3 mph NW23.0 kmh NW 16.0 mph25.7 kmh 29.38 in994.9 mb 0.00 in0.0 mm 0.00 in0.0 mm 0.00 in0.0 mm
08:58 AM 33.0°F0.6°C 31.7°F-0.2°C 95% 14.4 mph NW23.2 kmh NW 17.0 mph27.4 kmh 29.38 in994.9 mb 0.00 in0.0 mm 0.00 in0.0 mm 0.00 in0.0 mm
08:59 AM 33.0°F0.6°C 31.7°F-0.2°C 95% 14.9 mph NW24.0 kmh NW 17.0 mph27.4 kmh 29.38 in994.9 mb 0.00 in0.0 mm 0.00 in0.0 mm 0.00 in0.0 mm
09:00 AM 33.0°F0.6°C 31.7°F-0.2°C 95% 14.0 mph NW22.5 kmh NW 16.0 mph25.7 kmh 29.38 in994.9 mb 0.00 in0.0 mm 0.00 in0.0 mm 0.00 in0.0 mm
09:01 AM 33.1°F0.6°C 31.8°F-0.1°C 95% 13.7 mph NW22.0 kmh NW 15.0 mph24.1 kmh 29.38 in994.9 mb 0.00 in0.0 mm 0.00 in0.0 mm 0.00 in0.0 mm
09:02 AM 33.0°F0.6°C 31.7°F-0.2°C 95% 13.8 mph NW22.2 kmh NW 15.0 mph24.1 kmh 29.38 in994.9 mb 0.00 in0.0 mm 0.00 in0.0 mm 0.00 in0.0 mm
09:03 AM 33.0°F0.6°C 31.7°F-0.2°C 95% 13.3 mph NNW21.4 kmh NNW 15.0 mph24.1 kmh 29.38 in994.9 mb 0.00 in0.0 mm 0.00 in0.0 mm 0.00 in0.0 mm
09:04 AM 33.0°F0.6°C 31.7°F-0.2°C 95% 13.9 mph NW22.4 kmh NW 16.0 mph25.7 kmh 29.38 in994.9 mb 0.00 in0.0 mm 0.00 in0.0 mm 0.00 in0.0 mm
09:05 AM 33.0°F0.6°C 31.7°F-0.2°C 95% 13.6 mph NNW21.9 kmh NNW 16.0 mph25.7 kmh 29.38 in994.9 mb 0.00 in0.0 mm 0.00 in0.0 mm 0.00 in0.0 mm
09:06 AM 33.0°F0.6°C 31.7°F-0.2°C 95% 13.8 mph NW22.2 kmh NW 15.0 mph24.1 kmh 29.38 in994.9 mb 0.00 in0.0 mm 0.00 in0.0 mm 0.00 in0.0 mm
09:07 AM 33.0°F0.6°C 31.7°F-0.2°C 95% 13.4 mph NW21.6 kmh NW 15.0 mph24.1 kmh 29.38 in994.9 mb 0.00 in0.0 mm 0.00 in0.0 mm 0.00 in0.0 mm
09:08 AM 33.0°F0.6°C 31.7°F-0.2°C 95% 13.2 mph NW21.2 kmh NW 15.0 mph24.1 kmh 29.38 in994.9 mb 0.00 in0.0 mm 0.00 in0.0 mm 0.00 in0.0 mm
09:09 AM 33.0°F0.6°C 31.7°F-0.2°C 95% 13.2 mph NNW21.2 kmh NNW 15.0 mph24.1 kmh 29.38 in994.9 mb 0.00 in0.0 mm 0.00 in0.0 mm 0.00 in0.0 mm
09:10 AM 33.0°F0.6°C 31.7°F-0.2°C 95% 13.5 mph NW21.7 kmh NW 15.0 mph24.1 kmh 29.38 in994.9 mb 0.00 in0.0 mm 0.00 in0.0 mm 0.00 in0.0 mm
09:11 AM 33.0°F0.6°C 31.7°F-0.2°C 95% 13.8 mph NW22.2 kmh NW 15.0 mph24.1 kmh 29.38 in994.9 mb 0.00 in0.0 mm 0.00 in0.0 mm 0.00 in0.0 mm
09:12 AM 33.0°F0.6°C 31.7°F-0.2°C 95% 13.7 mph NW22.0 kmh NW 15.0 mph24.1 kmh 29.38 in994.9 mb 0.00 in0.0 mm 0.00 in0.0 mm 0.00 in0.0 mm
09:13 AM 33.0°F0.6°C 31.7°F-0.2°C 95% 14.0 mph NW22.5 kmh NW 15.0 mph24.1 kmh 29.38 in994.9 mb 0.00 in0.0 mm 0.00 in0.0 mm 0.00 in0.0 mm
09:14 AM 33.0°F0.6°C 31.7°F-0.2°C 95% 13.8 mph NW22.2 kmh NW 16.0 mph25.7 kmh 29.38 in994.9 mb 0.00 in0.0 mm 0.00 in0.0 mm 0.00 in0.0 mm
09:15 AM 33.0°F0.6°C 31.7°F-0.2°C 95% 13.6 mph NW21.9 kmh NW 16.0 mph25.7 kmh 29.38 in994.9 mb 0.00 in0.0 mm 0.00 in0.0 mm 0.00 in0.0 mm
09:16 AM 33.0°F0.6°C 31.7°F-0.2°C 95% 13.3 mph NW21.4 kmh NW 15.0 mph24.1 kmh 29.38 in994.9 mb 0.00 in0.0 mm 0.00 in0.0 mm 0.00 in0.0 mm
09:17 AM 33.1°F0.6°C 31.8°F-0.1°C 95% 13.8 mph NW22.2 kmh NW 15.0 mph24.1 kmh 29.38 in994.9 mb 0.00 in0.0 mm 0.00 in0.0 mm 0.00 in0.0 mm
09:18 AM 33.1°F0.6°C 31.8°F-0.1°C 95% 13.8 mph NW22.2 kmh NW 16.0 mph25.7 kmh 29.38 in994.9 mb 0.00 in0.0 mm 0.00 in0.0 mm 0.00 in0.0 mm
09:19 AM 33.0°F0.6°C 31.7°F-0.2°C 95% 13.4 mph NW21.6 kmh NW 16.0 mph25.7 kmh 29.39 in995.3 mb 0.00 in0.0 mm 0.00 in0.0 mm 0.00 in0.0 mm
09:20 AM 33.0°F0.6°C 31.7°F-0.2°C 95% 13.5 mph NNW21.7 kmh NNW 15.0 mph24.1 kmh 29.39 in995.3 mb 0.00 in0.0 mm 0.00 in0.0 mm 0.00 in0.0 mm
09:21 AM 33.0°F0.6°C 31.7°F-0.2°C 95% 13.7 mph NW22.0 kmh NW 15.0 mph24.1 kmh 29.39 in995.3 mb 0.00 in0.0 mm 0.00 in0.0 mm 0.00 in0.0 mm
09:22 AM 33.0°F0.6°C 31.7°F-0.2°C 95% 13.9 mph NW22.4 kmh NW 15.0 mph24.1 kmh 29.39 in995.3 mb 0.00 in0.0 mm 0.00 in0.0 mm 0.00 in0.0 mm
09:23 AM 33.0°F0.6°C 31.7°F-0.2°C 95% 13.3 mph NW21.4 kmh NW 15.0 mph24.1 kmh 29.39 in995.3 mb 0.00 in0.0 mm 0.00 in0.0 mm 0.00 in0.0 mm
09:24 AM 33.0°F0.6°C 31.7°F-0.2°C 95% 13.3 mph NW21.4 kmh NW 15.0 mph24.1 kmh 29.39 in995.3 mb 0.00 in0.0 mm 0.00 in0.0 mm 0.00 in0.0 mm
09:25 AM 33.0°F0.6°C 31.7°F-0.2°C 95% 13.3 mph NW21.4 kmh NW 15.0 mph24.1 kmh 29.39 in995.3 mb 0.00 in0.0 mm 0.00 in0.0 mm 0.00 in0.0 mm
09:26 AM 33.0°F0.6°C 31.7°F-0.2°C 95% 13.6 mph NW21.9 kmh NW 15.0 mph24.1 kmh 29.39 in995.3 mb 0.00 in0.0 mm 0.00 in0.0 mm 0.00 in0.0 mm
09:27 AM 33.0°F0.6°C 31.7°F-0.2°C 95% 13.6 mph NW21.9 kmh NW 15.0 mph24.1 kmh 29.39 in995.3 mb 0.00 in0.0 mm 0.00 in0.0 mm 0.00 in0.0 mm
09:28 AM 33.0°F0.6°C 31.7°F-0.2°C 95% 13.5 mph NW21.7 kmh NW 15.0 mph24.1 kmh 29.39 in995.3 mb 0.00 in0.0 mm 0.00 in0.0 mm 0.00 in0.0 mm
09:29 AM 32.9°F0.5°C 31.6°F-0.2°C 95% 13.8 mph NW22.2 kmh NW 15.0 mph24.1 kmh 29.39 in995.3 mb 0.00 in0.0 mm 0.00 in0.0 mm 0.00 in0.0 mm
09:30 AM 33.0°F0.6°C 31.7°F-0.2°C 95% 14.0 mph NW22.5 kmh NW 15.0 mph24.1 kmh 29.39 in995.3 mb 0.00 in0.0 mm 0.00 in0.0 mm 0.00 in0.0 mm
09:31 AM 33.0°F0.6°C 31.7°F-0.2°C 95% 13.3 mph NW21.4 kmh NW 15.0 mph24.1 kmh 29.39 in995.3 mb 0.00 in0.0 mm 0.00 in0.0 mm 0.00 in0.0 mm
09:32 AM 33.0°F0.6°C 31.7°F-0.2°C 95% 13.3 mph NW21.4 kmh NW 15.0 mph24.1 kmh 29.39 in995.3 mb 0.00 in0.0 mm 0.00 in0.0 mm 0.00 in0.0 mm
09:33 AM 33.0°F0.6°C 31.7°F-0.2°C 95% 13.3 mph NW21.4 kmh NW 15.0 mph24.1 kmh 29.39 in995.3 mb 0.00 in0.0 mm 0.00 in0.0 mm 0.00 in0.0 mm
09:34 AM 33.0°F0.6°C 31.7°F-0.2°C 95% 13.9 mph NW22.4 kmh NW 15.0 mph24.1 kmh 29.39 in995.3 mb 0.00 in0.0 mm 0.00 in0.0 mm 0.00 in0.0 mm
09:35 AM 33.0°F0.6°C 31.7°F-0.2°C 95% 13.0 mph NW20.9 kmh NW 15.0 mph24.1 kmh 29.39 in995.3 mb 0.00 in0.0 mm 0.00 in0.0 mm 0.00 in0.0 mm
09:36 AM 33.0°F0.6°C 31.7°F-0.2°C 95% 13.8 mph NW22.2 kmh NW 15.0 mph24.1 kmh 29.39 in995.3 mb 0.00 in0.0 mm 0.00 in0.0 mm 0.00 in0.0 mm
09:37 AM 33.0°F0.6°C 31.7°F-0.2°C 95% 13.3 mph NW21.4 kmh NW 15.0 mph24.1 kmh 29.39 in995.3 mb 0.00 in0.0 mm 0.00 in0.0 mm 0.00 in0.0 mm
09:38 AM 33.1°F0.6°C 31.8°F-0.1°C 95% 13.5 mph NW21.7 kmh NW 15.0 mph24.1 kmh 29.39 in995.3 mb 0.00 in0.0 mm 0.00 in0.0 mm 0.00 in0.0 mm
09:39 AM 33.1°F0.6°C 31.8°F-0.1°C 95% 13.1 mph NW21.1 kmh NW 15.0 mph24.1 kmh 29.39 in995.3 mb 0.00 in0.0 mm 0.00 in0.0 mm 0.00 in0.0 mm
09:40 AM 33.0°F0.6°C 31.7°F-0.2°C 95% 13.2 mph NW21.2 kmh NW 15.0 mph24.1 kmh 29.39 in995.3 mb 0.00 in0.0 mm 0.00 in0.0 mm 0.00 in0.0 mm
09:41 AM 33.1°F0.6°C 31.8°F-0.1°C 95% 13.7 mph NW22.0 kmh NW 15.0 mph24.1 kmh 29.39 in995.3 mb 0.00 in0.0 mm 0.00 in0.0 mm 0.00 in0.0 mm
09:42 AM 33.1°F0.6°C 31.8°F-0.1°C 95% 13.4 mph NW21.6 kmh NW 15.0 mph24.1 kmh 29.39 in995.3 mb 0.00 in0.0 mm 0.00 in0.0 mm 0.00 in0.0 mm
09:43 AM 33.1°F0.6°C 31.8°F-0.1°C 95% 13.6 mph NW21.9 kmh NW 15.0 mph24.1 kmh 29.39 in995.3 mb 0.00 in0.0 mm 0.00 in0.0 mm 0.00 in0.0 mm
09:44 AM 33.0°F0.6°C 31.7°F-0.2°C 95% 12.8 mph NW20.6 kmh NW 15.0 mph24.1 kmh 29.39 in995.3 mb 0.00 in0.0 mm 0.00 in0.0 mm 0.00 in0.0 mm
09:45 AM 33.0°F0.6°C 31.7°F-0.2°C 95% 12.3 mph NW19.8 kmh NW 14.0 mph22.5 kmh 29.39 in995.3 mb 0.00 in0.0 mm 0.00 in0.0 mm 0.00 in0.0 mm
09:46 AM 33.1°F0.6°C 31.8°F-0.1°C 95% 12.4 mph NW20.0 kmh NW 14.0 mph22.5 kmh 29.39 in995.3 mb 0.00 in0.0 mm 0.00 in0.0 mm 0.00 in0.0 mm
09:47 AM 33.0°F0.6°C 31.7°F-0.2°C 95% 12.8 mph NW20.6 kmh NW 14.0 mph22.5 kmh 29.39 in995.3 mb 0.00 in0.0 mm 0.00 in0.0 mm 0.00 in0.0 mm
09:48 AM 33.0°F0.6°C 31.7°F-0.2°C 95% 12.3 mph NNW19.8 kmh NNW 14.0 mph22.5 kmh 29.39 in995.3 mb 0.00 in0.0 mm 0.00 in0.0 mm 0.00 in0.0 mm
09:49 AM 33.0°F0.6°C 31.7°F-0.2°C 95% 12.8 mph NNW20.6 kmh NNW 14.0 mph22.5 kmh 29.39 in995.3 mb 0.00 in0.0 mm 0.00 in0.0 mm 0.00 in0.0 mm
09:50 AM 33.0°F0.6°C 31.7°F-0.2°C 95% 12.5 mph NW20.1 kmh NW 14.0 mph22.5 kmh 29.39 in995.3 mb 0.00 in0.0 mm 0.00 in0.0 mm 0.00 in0.0 mm
09:51 AM 33.0°F0.6°C 31.7°F-0.2°C 95% 12.7 mph NW20.4 kmh NW 15.0 mph24.1 kmh 29.39 in995.3 mb 0.00 in0.0 mm 0.00 in0.0 mm 0.00 in0.0 mm
09:52 AM 33.0°F0.6°C 31.7°F-0.2°C 95% 12.3 mph NNW19.8 kmh NNW 15.0 mph24.1 kmh 29.39 in995.3 mb 0.00 in0.0 mm 0.00 in0.0 mm 0.00 in0.0 mm
09:53 AM 33.0°F0.6°C 31.7°F-0.2°C 95% 12.0 mph NW19.3 kmh NW 14.0 mph22.5 kmh 29.40 in995.6 mb 0.00 in0.0 mm 0.00 in0.0 mm 0.00 in0.0 mm
09:54 AM 33.0°F0.6°C 31.7°F-0.2°C 95% 12.9 mph NW20.8 kmh NW 15.0 mph24.1 kmh 29.40 in995.6 mb 0.00 in0.0 mm 0.00 in0.0 mm 0.00 in0.0 mm
09:55 AM 33.0°F0.6°C 31.7°F-0.2°C 95% 12.9 mph NW20.8 kmh NW 15.0 mph24.1 kmh 29.40 in995.6 mb 0.00 in0.0 mm 0.00 in0.0 mm 0.00 in0.0 mm
09:56 AM 33.0°F0.6°C 31.7°F-0.2°C 95% 13.0 mph NW20.9 kmh NW 14.0 mph22.5 kmh 29.40 in995.6 mb 0.00 in0.0 mm 0.00 in0.0 mm 0.00 in0.0 mm
09:57 AM 33.0°F0.6°C 31.7°F-0.2°C 95% 13.0 mph NW20.9 kmh NW 15.0 mph24.1 kmh 29.40 in995.6 mb 0.00 in0.0 mm 0.00 in0.0 mm 0.00 in0.0 mm
09:58 AM 33.0°F0.6°C 31.7°F-0.2°C 95% 13.5 mph NW21.7 kmh NW 15.0 mph24.1 kmh 29.40 in995.6 mb 0.00 in0.0 mm 0.00 in0.0 mm 0.00 in0.0 mm
09:59 AM 32.9°F0.5°C 31.6°F-0.2°C 95% 13.6 mph NW21.9 kmh NW 15.0 mph24.1 kmh 29.40 in995.6 mb 0.00 in0.0 mm 0.00 in0.0 mm 0.00 in0.0 mm
10:00 AM 33.0°F0.6°C 31.7°F-0.2°C 95% 13.9 mph NW22.4 kmh NW 15.0 mph24.1 kmh 29.40 in995.6 mb 0.00 in0.0 mm 0.00 in0.0 mm 0.00 in0.0 mm
10:01 AM 33.0°F0.6°C 31.7°F-0.2°C 95% 14.0 mph NW22.5 kmh NW 15.0 mph24.1 kmh 29.40 in995.6 mb 0.00 in0.0 mm 0.00 in0.0 mm 0.00 in0.0 mm
10:02 AM 32.9°F0.5°C 31.6°F-0.2°C 95% 13.2 mph NW21.2 kmh NW 15.0 mph24.1 kmh 29.40 in995.6 mb 0.00 in0.0 mm 0.00 in0.0 mm 0.00 in0.0 mm
10:03 AM 32.9°F0.5°C 31.6°F-0.2°C 95% 13.8 mph NW22.2 kmh NW 16.0 mph25.7 kmh 29.40 in995.6 mb 0.00 in0.0 mm 0.00 in0.0 mm 0.00 in0.0 mm
10:04 AM 32.9°F0.5°C 31.6°F-0.2°C 95% 13.6 mph NW21.9 kmh NW 16.0 mph25.7 kmh 29.40 in995.6 mb 0.00 in0.0 mm 0.00 in0.0 mm 0.00 in0.0 mm
10:05 AM 33.0°F0.6°C 31.7°F-0.2°C 95% 14.1 mph NW22.7 kmh NW 15.0 mph24.1 kmh 29.40 in995.6 mb 0.00 in0.0 mm 0.00 in0.0 mm 0.00 in0.0 mm
10:06 AM 33.0°F0.6°C 31.7°F-0.2°C 95% 14.4 mph NW23.2 kmh NW 16.0 mph25.7 kmh 29.40 in995.6 mb 0.00 in0.0 mm 0.00 in0.0 mm 0.00 in0.0 mm
10:07 AM 33.0°F0.6°C 31.7°F-0.2°C 95% 14.5 mph NW23.3 kmh NW 16.0 mph25.7 kmh 29.40 in995.6 mb 0.00 in0.0 mm 0.00 in0.0 mm 0.00 in0.0 mm
10:08 AM 33.1°F0.6°C 31.8°F-0.1°C 95% 14.2 mph NW22.9 kmh NW 16.0 mph25.7 kmh 29.40 in995.6 mb 0.00 in0.0 mm 0.00 in0.0 mm 0.00 in0.0 mm
10:09 AM 33.0°F0.6°C 31.7°F-0.2°C 95% 14.0 mph NW22.5 kmh NW 16.0 mph25.7 kmh 29.40 in995.6 mb 0.00 in0.0 mm 0.00 in0.0 mm 0.00 in0.0 mm
10:10 AM 33.1°F0.6°C 31.8°F-0.1°C 95% 14.1 mph NW22.7 kmh NW 16.0 mph25.7 kmh 29.40 in995.6 mb 0.00 in0.0 mm 0.00 in0.0 mm 0.00 in0.0 mm
10:11 AM 33.1°F0.6°C 31.8°F-0.1°C 95% 14.7 mph NW23.7 kmh NW 16.0 mph25.7 kmh 29.40 in995.6 mb 0.00 in0.0 mm 0.00 in0.0 mm 0.00 in0.0 mm
10:12 AM 33.1°F0.6°C 31.8°F-0.1°C 95% 13.8 mph NW22.2 kmh NW 16.0 mph25.7 kmh 29.40 in995.6 mb 0.00 in0.0 mm 0.00 in0.0 mm 0.00 in0.0 mm
10:13 AM 33.1°F0.6°C 31.8°F-0.1°C 95% 13.8 mph NW22.2 kmh NW 15.0 mph24.1 kmh 29.40 in995.6 mb 0.00 in0.0 mm 0.00 in0.0 mm 0.00 in0.0 mm
10:14 AM 33.1°F0.6°C 31.8°F-0.1°C 95% 14.0 mph NW22.5 kmh NW 16.0 mph25.7 kmh 29.40 in995.6 mb 0.00 in0.0 mm 0.00 in0.0 mm 0.00 in0.0 mm
10:15 AM 33.1°F0.6°C 31.8°F-0.1°C 95% 13.8 mph NW22.2 kmh NW 16.0 mph25.7 kmh 29.40 in995.6 mb 0.00 in0.0 mm 0.00 in0.0 mm 0.00 in0.0 mm
10:16 AM 33.1°F0.6°C 31.8°F-0.1°C 95% 13.4 mph NW21.6 kmh NW 15.0 mph24.1 kmh 29.40 in995.6 mb 0.00 in0.0 mm 0.00 in0.0 mm 0.00 in0.0 mm
10:17 AM 33.1°F0.6°C 31.8°F-0.1°C 95% 14.0 mph NW22.5 kmh NW 16.0 mph25.7 kmh 29.40 in995.6 mb 0.00 in0.0 mm 0.00 in0.0 mm 0.00 in0.0 mm
10:18 AM 33.1°F0.6°C 31.8°F-0.1°C 95% 14.5 mph NW23.3 kmh NW 16.0 mph25.7 kmh 29.40 in995.6 mb 0.00 in0.0 mm 0.00 in0.0 mm 0.00 in0.0 mm
10:19 AM 33.1°F0.6°C 31.8°F-0.1°C 95% 14.2 mph NW22.9 kmh NW 16.0 mph25.7 kmh 29.40 in995.6 mb 0.00 in0.0 mm 0.00 in0.0 mm 0.00 in0.0 mm
10:20 AM 33.1°F0.6°C 31.8°F-0.1°C 95% 14.5 mph NW23.3 kmh NW 16.0 mph25.7 kmh 29.40 in995.6 mb 0.00 in0.0 mm 0.00 in0.0 mm 0.00 in0.0 mm
10:21 AM 33.1°F0.6°C 31.8°F-0.1°C 95% 14.4 mph NW23.2 kmh NW 16.0 mph25.7 kmh 29.40 in995.6 mb 0.00 in0.0 mm 0.00 in0.0 mm 0.00 in0.0 mm
10:22 AM 33.1°F0.6°C 31.8°F-0.1°C 95% 13.9 mph NW22.4 kmh NW 16.0 mph25.7 kmh 29.40 in995.6 mb 0.00 in0.0 mm 0.00 in0.0 mm 0.00 in0.0 mm
10:23 AM 33.1°F0.6°C 31.8°F-0.1°C 95% 14.3 mph NW23.0 kmh NW 16.0 mph25.7 kmh 29.41 in995.9 mb 0.00 in0.0 mm 0.00 in0.0 mm 0.00 in0.0 mm
10:24 AM 33.1°F0.6°C 31.8°F-0.1°C 95% 14.7 mph NW23.7 kmh NW 16.0 mph25.7 kmh 29.41 in995.9 mb 0.00 in0.0 mm 0.00 in0.0 mm 0.00 in0.0 mm
10:25 AM 33.1°F0.6°C 31.8°F-0.1°C 95% 14.9 mph NW24.0 kmh NW 16.0 mph25.7 kmh 29.41 in995.9 mb 0.00 in0.0 mm 0.00 in0.0 mm 0.00 in0.0 mm
10:26 AM 33.1°F0.6°C 31.8°F-0.1°C 95% 14.5 mph NW23.3 kmh NW 16.0 mph25.7 kmh 29.41 in995.9 mb 0.00 in0.0 mm 0.00 in0.0 mm 0.00 in0.0 mm
10:27 AM 33.1°F0.6°C 31.8°F-0.1°C 95% 14.6 mph NW23.5 kmh NW 16.0 mph25.7 kmh 29.41 in995.9 mb 0.00 in0.0 mm 0.00 in0.0 mm 0.00 in0.0 mm
10:28 AM 33.1°F0.6°C 31.8°F-0.1°C 95% 14.5 mph NW23.3 kmh NW 17.0 mph27.4 kmh 29.41 in995.9 mb 0.00 in0.0 mm 0.00 in0.0 mm 0.00 in0.0 mm
10:29 AM 33.1°F0.6°C 31.8°F-0.1°C 95% 14.5 mph NW23.3 kmh NW 17.0 mph27.4 kmh 29.41 in995.9 mb 0.00 in0.0 mm 0.00 in0.0 mm 0.00 in0.0 mm
10:30 AM 33.1°F0.6°C 31.8°F-0.1°C 95% 15.5 mph NW24.9 kmh NW 17.0 mph27.4 kmh 29.41 in995.9 mb 0.00 in0.0 mm 0.00 in0.0 mm 0.00 in0.0 mm
10:31 AM 33.2°F0.7°C 31.9°F-0.1°C 95% 15.3 mph NW24.6 kmh NW 17.0 mph27.4 kmh 29.41 in995.9 mb 0.00 in0.0 mm 0.00 in0.0 mm 0.00 in0.0 mm
10:32 AM 33.1°F0.6°C 31.8°F-0.1°C 95% 14.4 mph NW23.2 kmh NW 16.0 mph25.7 kmh 29.41 in995.9 mb 0.00 in0.0 mm 0.00 in0.0 mm 0.00 in0.0 mm
10:33 AM 33.1°F0.6°C 31.8°F-0.1°C 95% 15.2 mph NW24.5 kmh NW 17.0 mph27.4 kmh 29.41 in995.9 mb 0.00 in0.0 mm 0.00 in0.0 mm 0.00 in0.0 mm
10:34 AM 33.2°F0.7°C 31.9°F-0.1°C 95% 14.9 mph NW24.0 kmh NW 17.0 mph27.4 kmh 29.41 in995.9 mb 0.00 in0.0 mm 0.00 in0.0 mm 0.00 in0.0 mm
10:35 AM 33.1°F0.6°C 31.8°F-0.1°C 95% 15.2 mph NW24.5 kmh NW 16.0 mph25.7 kmh 29.41 in995.9 mb 0.00 in0.0 mm 0.00 in0.0 mm 0.00 in0.0 mm
10:36 AM 33.1°F0.6°C 31.8°F-0.1°C 95% 15.2 mph NW24.5 kmh NW 17.0 mph27.4 kmh 29.41 in995.9 mb 0.00 in0.0 mm 0.00 in0.0 mm 0.00 in0.0 mm
10:37 AM 33.2°F0.7°C 31.9°F-0.1°C 95% 15.2 mph NW24.5 kmh NW 17.0 mph27.4 kmh 29.41 in995.9 mb 0.00 in0.0 mm 0.00 in0.0 mm 0.00 in0.0 mm
10:38 AM 33.1°F0.6°C 31.8°F-0.1°C 95% 15.3 mph NW24.6 kmh NW 17.0 mph27.4 kmh 29.41 in995.9 mb 0.00 in0.0 mm 0.00 in0.0 mm 0.00 in0.0 mm
10:39 AM 33.2°F0.7°C 31.9°F-0.1°C 95% 15.3 mph NW24.6 kmh NW 17.0 mph27.4 kmh 29.41 in995.9 mb 0.00 in0.0 mm 0.00 in0.0 mm 0.00 in0.0 mm
10:40 AM 33.2°F0.7°C 31.9°F-0.1°C 95% 15.2 mph NW24.5 kmh NW 17.0 mph27.4 kmh 29.41 in995.9 mb 0.00 in0.0 mm 0.00 in0.0 mm 0.00 in0.0 mm
10:41 AM 33.1°F0.6°C 31.8°F-0.1°C 95% 14.6 mph NW23.5 kmh NW 17.0 mph27.4 kmh 29.41 in995.9 mb 0.00 in0.0 mm 0.00 in0.0 mm 0.00 in0.0 mm
10:42 AM 33.1°F0.6°C 31.8°F-0.1°C 95% 15.3 mph NW24.6 kmh NW 17.0 mph27.4 kmh 29.41 in995.9 mb 0.00 in0.0 mm 0.00 in0.0 mm 0.00 in0.0 mm
10:43 AM 33.1°F0.6°C 31.8°F-0.1°C 95% 15.2 mph NW24.5 kmh NW 17.0 mph27.4 kmh 29.41 in995.9 mb 0.00 in0.0 mm 0.00 in0.0 mm 0.00 in0.0 mm
10:44 AM 33.1°F0.6°C 31.8°F-0.1°C 95% 14.3 mph NW23.0 kmh NW 16.0 mph25.7 kmh 29.41 in995.9 mb 0.00 in0.0 mm 0.00 in0.0 mm 0.00 in0.0 mm
10:45 AM 33.1°F0.6°C 31.8°F-0.1°C 95% 14.7 mph NW23.7 kmh NW 16.0 mph25.7 kmh 29.41 in995.9 mb 0.00 in0.0 mm 0.00 in0.0 mm 0.00 in0.0 mm
10:46 AM 33.1°F0.6°C 31.8°F-0.1°C 95% 15.0 mph NW24.1 kmh NW 16.0 mph25.7 kmh 29.41 in995.9 mb 0.00 in0.0 mm 0.00 in0.0 mm 0.00 in0.0 mm
10:47 AM 33.2°F0.7°C 31.9°F-0.1°C 95% 15.0 mph NNW24.1 kmh NNW 17.0 mph27.4 kmh 29.41 in995.9 mb 0.00 in0.0 mm 0.00 in0.0 mm 0.00 in0.0 mm
10:48 AM 33.1°F0.6°C 31.8°F-0.1°C 95% 14.8 mph NW23.8 kmh NW 17.0 mph27.4 kmh 29.41 in995.9 mb 0.00 in0.0 mm 0.00 in0.0 mm 0.00 in0.0 mm
10:49 AM 33.1°F0.6°C 31.8°F-0.1°C 95% 15.4 mph NW24.8 kmh NW 17.0 mph27.4 kmh 29.41 in995.9 mb 0.00 in0.0 mm 0.00 in0.0 mm 0.00 in0.0 mm
10:50 AM 33.1°F0.6°C 31.8°F-0.1°C 95% 14.5 mph NW23.3 kmh NW 17.0 mph27.4 kmh 29.41 in995.9 mb 0.00 in0.0 mm 0.00 in0.0 mm 0.00 in0.0 mm
10:51 AM 33.1°F0.6°C 31.8°F-0.1°C 95% 14.7 mph NW23.7 kmh NW 16.0 mph25.7 kmh 29.41 in995.9 mb 0.00 in0.0 mm 0.00 in0.0 mm 0.00 in0.0 mm
10:52 AM 33.1°F0.6°C 31.8°F-0.1°C 95% 14.4 mph NW23.2 kmh NW 16.0 mph25.7 kmh 29.41 in995.9 mb 0.00 in0.0 mm 0.00 in0.0 mm 0.00 in0.0 mm
10:53 AM 33.1°F0.6°C 31.8°F-0.1°C 95% 15.0 mph NW24.1 kmh NW 16.0 mph25.7 kmh 29.41 in995.9 mb 0.00 in0.0 mm 0.00 in0.0 mm 0.00 in0.0 mm
10:54 AM 33.1°F0.6°C 31.8°F-0.1°C 95% 14.7 mph NW23.7 kmh NW 16.0 mph25.7 kmh 29.41 in995.9 mb 0.00 in0.0 mm 0.00 in0.0 mm 0.00 in0.0 mm
10:55 AM 33.1°F0.6°C 31.8°F-0.1°C 95% 14.7 mph NW23.7 kmh NW 16.0 mph25.7 kmh 29.41 in995.9 mb 0.00 in0.0 mm 0.00 in0.0 mm 0.00 in0.0 mm
10:56 AM 33.1°F0.6°C 31.8°F-0.1°C 95% 14.6 mph NW23.5 kmh NW 16.0 mph25.7 kmh 29.42 in996.3 mb 0.00 in0.0 mm 0.00 in0.0 mm 0.00 in0.0 mm
10:57 AM 33.1°F0.6°C 31.8°F-0.1°C 95% 14.6 mph NW23.5 kmh NW 16.0 mph25.7 kmh 29.41 in995.9 mb 0.00 in0.0 mm 0.00 in0.0 mm 0.00 in0.0 mm
10:58 AM 33.1°F0.6°C 31.8°F-0.1°C 95% 13.9 mph NW22.4 kmh NW 16.0 mph25.7 kmh 29.42 in996.3 mb 0.00 in0.0 mm 0.00 in0.0 mm 0.00 in0.0 mm
10:59 AM 33.1°F0.6°C 31.8°F-0.1°C 95% 14.5 mph NW23.3 kmh NW 16.0 mph25.7 kmh 29.42 in996.3 mb 0.00 in0.0 mm 0.00 in0.0 mm 0.00 in0.0 mm
11:00 AM 33.0°F0.6°C 31.7°F-0.2°C 95% 14.5 mph NW23.3 kmh NW 16.0 mph25.7 kmh 29.42 in996.3 mb 0.00 in0.0 mm 0.00 in0.0 mm 0.00 in0.0 mm
11:01 AM 33.0°F0.6°C 31.7°F-0.2°C 95% 14.5 mph NW23.3 kmh NW 16.0 mph25.7 kmh 29.42 in996.3 mb 0.00 in0.0 mm 0.00 in0.0 mm 0.00 in0.0 mm
11:02 AM 33.1°F0.6°C 31.8°F-0.1°C 95% 14.2 mph NW22.9 kmh NW 16.0 mph25.7 kmh 29.42 in996.3 mb 0.00 in0.0 mm 0.00 in0.0 mm 0.00 in0.0 mm
11:03 AM 33.1°F0.6°C 31.8°F-0.1°C 95% 13.9 mph NW22.4 kmh NW 16.0 mph25.7 kmh 29.42 in996.3 mb 0.00 in0.0 mm 0.00 in0.0 mm 0.00 in0.0 mm
11:04 AM 33.1°F0.6°C 31.8°F-0.1°C 95% 14.3 mph NW23.0 kmh NW 16.0 mph25.7 kmh 29.42 in996.3 mb 0.00 in0.0 mm 0.00 in0.0 mm 0.00 in0.0 mm
11:05 AM 33.1°F0.6°C 31.8°F-0.1°C 95% 14.6 mph NW23.5 kmh NW 16.0 mph25.7 kmh 29.42 in996.3 mb 0.00 in0.0 mm 0.00 in0.0 mm 0.00 in0.0 mm
11:06 AM 33.1°F0.6°C 31.8°F-0.1°C 95% 14.6 mph NW23.5 kmh NW 16.0 mph25.7 kmh 29.42 in996.3 mb 0.00 in0.0 mm 0.00 in0.0 mm 0.00 in0.0 mm
11:07 AM 33.1°F0.6°C 31.8°F-0.1°C 95% 14.1 mph NW22.7 kmh NW 16.0 mph25.7 kmh 29.42 in996.3 mb 0.00 in0.0 mm 0.00 in0.0 mm 0.00 in0.0 mm
11:08 AM 33.1°F0.6°C 31.8°F-0.1°C 95% 14.1 mph NW22.7 kmh NW 15.0 mph24.1 kmh 29.42 in996.3 mb 0.00 in0.0 mm 0.00 in0.0 mm 0.00 in0.0 mm
11:09 AM 33.0°F0.6°C 31.7°F-0.2°C 95% 14.4 mph NW23.2 kmh NW 16.0 mph25.7 kmh 29.42 in996.3 mb 0.00 in0.0 mm 0.00 in0.0 mm 0.00 in0.0 mm
11:10 AM 33.0°F0.6°C 31.7°F-0.2°C 95% 14.4 mph NW23.2 kmh NW 16.0 mph25.7 kmh 29.42 in996.3 mb 0.00 in0.0 mm 0.00 in0.0 mm 0.00 in0.0 mm
11:11 AM 33.0°F0.6°C 31.7°F-0.2°C 95% 13.7 mph NW22.0 kmh NW 16.0 mph25.7 kmh 29.42 in996.3 mb 0.00 in0.0 mm 0.00 in0.0 mm 0.00 in0.0 mm
11:12 AM 33.0°F0.6°C 31.5°F-0.3°C 94% 14.0 mph NW22.5 kmh NW 16.0 mph25.7 kmh 29.42 in996.3 mb 0.00 in0.0 mm 0.00 in0.0 mm 0.00 in0.0 mm
11:13 AM 33.0°F0.6°C 31.5°F-0.3°C 94% 14.1 mph NW22.7 kmh NW 16.0 mph25.7 kmh 29.42 in996.3 mb 0.00 in0.0 mm 0.00 in0.0 mm 0.00 in0.0 mm
11:14 AM 33.0°F0.6°C 31.5°F-0.3°C 94% 13.5 mph NNW21.7 kmh NNW 16.0 mph25.7 kmh 29.42 in996.3 mb 0.00 in0.0 mm 0.00 in0.0 mm 0.00 in0.0 mm
11:15 AM 33.0°F0.6°C 31.5°F-0.3°C 94% 13.5 mph NNW21.7 kmh NNW 15.0 mph24.1 kmh 29.42 in996.3 mb 0.00 in0.0 mm 0.00 in0.0 mm 0.00 in0.0 mm
11:16 AM 33.1°F0.6°C 31.8°F-0.1°C 95% 12.9 mph NNW20.8 kmh NNW 15.0 mph24.1 kmh 29.42 in996.3 mb 0.00 in0.0 mm 0.00 in0.0 mm 0.00 in0.0 mm
11:17 AM 33.0°F0.6°C 31.5°F-0.3°C 94% 13.0 mph NNW20.9 kmh NNW 15.0 mph24.1 kmh 29.42 in996.3 mb 0.00 in0.0 mm 0.00 in0.0 mm 0.00 in0.0 mm
11:18 AM 33.1°F0.6°C 31.6°F-0.2°C 94% 14.0 mph NNW22.5 kmh NNW 16.0 mph25.7 kmh 29.42 in996.3 mb 0.00 in0.0 mm 0.00 in0.0 mm 0.00 in0.0 mm
11:19 AM 33.1°F0.6°C 31.8°F-0.1°C 95% 13.8 mph NNW22.2 kmh NNW 16.0 mph25.7 kmh 29.42 in996.3 mb 0.00 in0.0 mm 0.00 in0.0 mm 0.00 in0.0 mm
11:20 AM 33.1°F0.6°C 31.8°F-0.1°C 95% 13.6 mph NNW21.9 kmh NNW 16.0 mph25.7 kmh 29.42 in996.3 mb 0.00 in0.0 mm 0.00 in0.0 mm 0.00 in0.0 mm
11:21 AM 33.1°F0.6°C 31.8°F-0.1°C 95% 14.2 mph NNW22.9 kmh NNW 15.0 mph24.1 kmh 29.42 in996.3 mb 0.00 in0.0 mm 0.00 in0.0 mm 0.00 in0.0 mm
11:22 AM 33.1°F0.6°C 31.8°F-0.1°C 95% 13.9 mph NNW22.4 kmh NNW 15.0 mph24.1 kmh 29.42 in996.3 mb 0.00 in0.0 mm 0.00 in0.0 mm 0.00 in0.0 mm
11:23 AM 33.1°F0.6°C 31.8°F-0.1°C 95% 13.6 mph NNW21.9 kmh NNW 15.0 mph24.1 kmh 29.42 in996.3 mb 0.00 in0.0 mm 0.00 in0.0 mm 0.00 in0.0 mm
11:24 AM 33.1°F0.6°C 31.8°F-0.1°C 95% 13.0 mph NNW20.9 kmh NNW 15.0 mph24.1 kmh 29.42 in996.3 mb 0.00 in0.0 mm 0.00 in0.0 mm 0.00 in0.0 mm
11:25 AM 33.1°F0.6°C 31.8°F-0.1°C 95% 13.5 mph NNW21.7 kmh NNW 14.0 mph22.5 kmh 29.43 in996.6 mb 0.00 in0.0 mm 0.00 in0.0 mm 0.00 in0.0 mm
11:26 AM 33.1°F0.6°C 31.8°F-0.1°C 95% 13.3 mph NNW21.4 kmh NNW 15.0 mph24.1 kmh 29.42 in996.3 mb 0.00 in0.0 mm 0.00 in0.0 mm 0.00 in0.0 mm
11:27 AM 33.1°F0.6°C 31.8°F-0.1°C 95% 13.3 mph NNW21.4 kmh NNW 15.0 mph24.1 kmh 29.43 in996.6 mb 0.00 in0.0 mm 0.00 in0.0 mm 0.00 in0.0 mm
11:28 AM 33.1°F0.6°C 31.8°F-0.1°C 95% 13.6 mph NNW21.9 kmh NNW 15.0 mph24.1 kmh 29.43 in996.6 mb 0.00 in0.0 mm 0.00 in0.0 mm 0.00 in0.0 mm
11:29 AM 33.1°F0.6°C 31.8°F-0.1°C 95% 13.4 mph NNW21.6 kmh NNW 15.0 mph24.1 kmh 29.43 in996.6 mb 0.00 in0.0 mm 0.00 in0.0 mm 0.00 in0.0 mm
11:30 AM 33.1°F0.6°C 31.8°F-0.1°C 95% 13.4 mph NNW21.6 kmh NNW 15.0 mph24.1 kmh 29.43 in996.6 mb 0.00 in0.0 mm 0.00 in0.0 mm 0.00 in0.0 mm
11:31 AM 33.1°F0.6°C 31.8°F-0.1°C 95% 13.6 mph NNW21.9 kmh NNW 15.0 mph24.1 kmh 29.43 in996.6 mb 0.00 in0.0 mm 0.00 in0.0 mm 0.00 in0.0 mm
11:32 AM 33.1°F0.6°C 31.8°F-0.1°C 95% 14.1 mph NNW22.7 kmh NNW 15.0 mph24.1 kmh 29.43 in996.6 mb 0.00 in0.0 mm 0.00 in0.0 mm 0.00 in0.0 mm
11:33 AM 33.1°F0.6°C 31.8°F-0.1°C 95% 14.3 mph NNW23.0 kmh NNW 15.0 mph24.1 kmh 29.43 in996.6 mb 0.00 in0.0 mm 0.00 in0.0 mm 0.00 in0.0 mm
11:34 AM 33.2°F0.7°C 31.9°F-0.1°C 95% 13.2 mph NNW21.2 kmh NNW 15.0 mph24.1 kmh 29.43 in996.6 mb 0.00 in0.0 mm 0.00 in0.0 mm 0.00 in0.0 mm
11:35 AM 33.2°F0.7°C 31.9°F-0.1°C 95% 14.5 mph NNW23.3 kmh NNW 16.0 mph25.7 kmh 29.43 in996.6 mb 0.00 in0.0 mm 0.00 in0.0 mm 0.00 in0.0 mm
11:36 AM 33.2°F0.7°C 31.9°F-0.1°C 95% 13.9 mph NNW22.4 kmh NNW 16.0 mph25.7 kmh 29.43 in996.6 mb 0.00 in0.0 mm 0.00 in0.0 mm 0.00 in0.0 mm
11:37 AM 33.2°F0.7°C 31.9°F-0.1°C 95% 13.8 mph NNW22.2 kmh NNW 15.0 mph24.1 kmh 29.43 in996.6 mb 0.00 in0.0 mm 0.00 in0.0 mm 0.00 in0.0 mm
11:38 AM 33.2°F0.7°C 31.9°F-0.1°C 95% 13.5 mph NNW21.7 kmh NNW 15.0 mph24.1 kmh 29.43 in996.6 mb 0.00 in0.0 mm 0.00 in0.0 mm 0.00 in0.0 mm
11:39 AM 33.2°F0.7°C 31.9°F-0.1°C 95% 13.6 mph NNW21.9 kmh NNW 15.0 mph24.1 kmh 29.43 in996.6 mb 0.00 in0.0 mm 0.00 in0.0 mm 0.00 in0.0 mm
11:40 AM 33.2°F0.7°C 31.9°F-0.1°C 95% 13.5 mph NNW21.7 kmh NNW 15.0 mph24.1 kmh 29.43 in996.6 mb 0.00 in0.0 mm 0.00 in0.0 mm 0.00 in0.0 mm
11:41 AM 33.3°F0.7°C 32.0°F0.0°C 95% 14.4 mph NNW23.2 kmh NNW 15.0 mph24.1 kmh 29.43 in996.6 mb 0.00 in0.0 mm 0.00 in0.0 mm 0.00 in0.0 mm
11:42 AM 33.3°F0.7°C 32.0°F0.0°C 95% 13.9 mph NNW22.4 kmh NNW 15.0 mph24.1 kmh 29.43 in996.6 mb 0.00 in0.0 mm 0.00 in0.0 mm 0.00 in0.0 mm
11:43 AM 33.3°F0.7°C 32.0°F0.0°C 95% 13.7 mph NNW22.0 kmh NNW 15.0 mph24.1 kmh 29.43 in996.6 mb 0.00 in0.0 mm 0.00 in0.0 mm 0.00 in0.0 mm
11:44 AM 33.3°F0.7°C 32.0°F0.0°C 95% 14.3 mph NNW23.0 kmh NNW 15.0 mph24.1 kmh 29.43 in996.6 mb 0.00 in0.0 mm 0.00 in0.0 mm 0.00 in0.0 mm
11:45 AM 33.3°F0.7°C 32.0°F0.0°C 95% 13.4 mph NNW21.6 kmh NNW 15.0 mph24.1 kmh 29.43 in996.6 mb 0.00 in0.0 mm 0.00 in0.0 mm 0.00 in0.0 mm
11:46 AM 33.3°F0.7°C 32.0°F0.0°C 95% 13.2 mph NNW21.2 kmh NNW 15.0 mph24.1 kmh 29.43 in996.6 mb 0.00 in0.0 mm 0.00 in0.0 mm 0.00 in0.0 mm
11:47 AM 33.3°F0.7°C 32.0°F0.0°C 95% 13.4 mph NNW21.6 kmh NNW 14.0 mph22.5 kmh 29.43 in996.6 mb 0.00 in0.0 mm 0.00 in0.0 mm 0.00 in0.0 mm
11:48 AM 33.3°F0.7°C 31.8°F-0.1°C 94% 13.4 mph NNW21.6 kmh NNW 15.0 mph24.1 kmh 29.43 in996.6 mb 0.00 in0.0 mm 0.00 in0.0 mm 0.00 in0.0 mm
11:49 AM 33.3°F0.7°C 31.8°F-0.1°C 94% 13.1 mph NNW21.1 kmh NNW 15.0 mph24.1 kmh 29.43 in996.6 mb 0.00 in0.0 mm 0.00 in0.0 mm 0.00 in0.0 mm
11:50 AM 33.2°F0.7°C 31.7°F-0.2°C 94% 13.4 mph NNW21.6 kmh NNW 15.0 mph24.1 kmh 29.43 in996.6 mb 0.00 in0.0 mm 0.00 in0.0 mm 0.00 in0.0 mm
11:51 AM 33.2°F0.7°C 31.7°F-0.2°C 94% 13.0 mph NNW20.9 kmh NNW 15.0 mph24.1 kmh 29.43 in996.6 mb 0.00 in0.0 mm 0.00 in0.0 mm 0.00 in0.0 mm
11:52 AM 33.3°F0.7°C 31.8°F-0.1°C 94% 13.3 mph NNW21.4 kmh NNW 14.0 mph22.5 kmh 29.44 in997.0 mb 0.00 in0.0 mm 0.00 in0.0 mm 0.00 in0.0 mm
11:53 AM 33.3°F0.7°C 31.8°F-0.1°C 94% 13.4 mph NNW21.6 kmh NNW 15.0 mph24.1 kmh 29.43 in996.6 mb 0.00 in0.0 mm 0.00 in0.0 mm 0.00 in0.0 mm
11:54 AM 33.3°F0.7°C 31.8°F-0.1°C 94% 14.2 mph NNW22.9 kmh NNW 15.0 mph24.1 kmh 29.44 in997.0 mb 0.00 in0.0 mm 0.00 in0.0 mm 0.00 in0.0 mm
11:55 AM 33.3°F0.7°C 31.8°F-0.1°C 94% 13.8 mph NNW22.2 kmh NNW 15.0 mph24.1 kmh 29.44 in997.0 mb 0.00 in0.0 mm 0.00 in0.0 mm 0.00 in0.0 mm
11:56 AM 33.3°F0.7°C 31.8°F-0.1°C 94% 13.0 mph NNW20.9 kmh NNW 15.0 mph24.1 kmh 29.44 in997.0 mb 0.00 in0.0 mm 0.00 in0.0 mm 0.00 in0.0 mm
11:57 AM 33.3°F0.7°C 31.8°F-0.1°C 94% 12.8 mph NNW20.6 kmh NNW 14.0 mph22.5 kmh 29.44 in997.0 mb 0.00 in0.0 mm 0.00 in0.0 mm 0.00 in0.0 mm
11:58 AM 33.2°F0.7°C 31.7°F-0.2°C 94% 13.5 mph NNW21.7 kmh NNW 15.0 mph24.1 kmh 29.44 in997.0 mb 0.00 in0.0 mm 0.00 in0.0 mm 0.00 in0.0 mm
11:59 AM 33.3°F0.7°C 31.8°F-0.1°C 94% 13.3 mph NNW21.4 kmh NNW 15.0 mph24.1 kmh 29.44 in997.0 mb 0.00 in0.0 mm 0.00 in0.0 mm 0.00 in0.0 mm
12:00 PM 33.2°F0.7°C 31.7°F-0.2°C 94% 13.5 mph NNW21.7 kmh NNW 15.0 mph24.1 kmh 29.44 in997.0 mb 0.00 in0.0 mm 0.00 in0.0 mm 0.00 in0.0 mm
12:01 PM 33.2°F0.7°C 31.7°F-0.2°C 94% 13.3 mph NNW21.4 kmh NNW 15.0 mph24.1 kmh 29.44 in997.0 mb 0.00 in0.0 mm 0.00 in0.0 mm 0.00 in0.0 mm
12:02 PM 33.2°F0.7°C 31.7°F-0.2°C 94% 13.5 mph NNW21.7 kmh NNW 15.0 mph24.1 kmh 29.44 in997.0 mb 0.00 in0.0 mm 0.00 in0.0 mm 0.00 in0.0 mm
12:03 PM 33.2°F0.7°C 31.7°F-0.2°C 94% 13.7 mph NNW22.0 kmh NNW 15.0 mph24.1 kmh 29.44 in997.0 mb 0.00 in0.0 mm 0.00 in0.0 mm 0.00 in0.0 mm
12:04 PM 33.2°F0.7°C 31.7°F-0.2°C 94% 14.0 mph NNW22.5 kmh NNW 15.0 mph24.1 kmh 29.44 in997.0 mb 0.00 in0.0 mm 0.00 in0.0 mm 0.00 in0.0 mm
12:05 PM 33.1°F0.6°C 31.6°F-0.2°C 94% 14.0 mph NNW22.5 kmh NNW 16.0 mph25.7 kmh 29.44 in997.0 mb 0.00 in0.0 mm 0.00 in0.0 mm 0.00 in0.0 mm
12:06 PM 33.1°F0.6°C 31.6°F-0.2°C 94% 14.3 mph NNW23.0 kmh NNW 16.0 mph25.7 kmh 29.44 in997.0 mb 0.00 in0.0 mm 0.00 in0.0 mm 0.00 in0.0 mm
12:07 PM 33.1°F0.6°C 31.6°F-0.2°C 94% 13.3 mph NNW21.4 kmh NNW 15.0 mph24.1 kmh 29.44 in997.0 mb 0.00 in0.0 mm 0.00 in0.0 mm 0.00 in0.0 mm
12:08 PM 33.2°F0.7°C 31.7°F-0.2°C 94% 13.5 mph NNW21.7 kmh NNW 15.0 mph24.1 kmh 29.44 in997.0 mb 0.00 in0.0 mm 0.00 in0.0 mm 0.00 in0.0 mm
12:09 PM 33.2°F0.7°C 31.7°F-0.2°C 94% 14.1 mph NNW22.7 kmh NNW 16.0 mph25.7 kmh 29.44 in997.0 mb 0.00 in0.0 mm 0.00 in0.0 mm 0.00 in0.0 mm
12:10 PM 33.2°F0.7°C 31.7°F-0.2°C 94% 14.5 mph NNW23.3 kmh NNW 16.0 mph25.7 kmh 29.44 in997.0 mb 0.00 in0.0 mm 0.00 in0.0 mm 0.00 in0.0 mm
12:11 PM 33.2°F0.7°C 31.7°F-0.2°C 94% 13.9 mph NNW22.4 kmh NNW 16.0 mph25.7 kmh 29.44 in997.0 mb 0.00 in0.0 mm 0.00 in0.0 mm 0.00 in0.0 mm
12:12 PM 33.2°F0.7°C 31.7°F-0.2°C 94% 13.4 mph NNW21.6 kmh NNW 16.0 mph25.7 kmh 29.44 in997.0 mb 0.00 in0.0 mm 0.00 in0.0 mm 0.00 in0.0 mm
12:13 PM 33.1°F0.6°C 31.6°F-0.2°C 94% 13.0 mph NNW20.9 kmh NNW 15.0 mph24.1 kmh 29.44 in997.0 mb 0.00 in0.0 mm 0.00 in0.0 mm 0.00 in0.0 mm
12:14 PM 33.2°F0.7°C 31.7°F-0.2°C 94% 12.8 mph NNW20.6 kmh NNW 14.0 mph22.5 kmh 29.44 in997.0 mb 0.00 in0.0 mm 0.00 in0.0 mm 0.00 in0.0 mm
12:15 PM 33.2°F0.7°C 31.7°F-0.2°C 94% 11.9 mph NNW19.2 kmh NNW 14.0 mph22.5 kmh 29.44 in997.0 mb 0.00 in0.0 mm 0.00 in0.0 mm 0.00 in0.0 mm
12:16 PM 33.1°F0.6°C 31.6°F-0.2°C 94% 12.7 mph NNW20.4 kmh NNW 14.0 mph22.5 kmh 29.44 in997.0 mb 0.00 in0.0 mm 0.00 in0.0 mm 0.00 in0.0 mm
12:17 PM 33.2°F0.7°C 31.7°F-0.2°C 94% 13.1 mph NNW21.1 kmh NNW 15.0 mph24.1 kmh 29.45 in997.3 mb 0.00 in0.0 mm 0.00 in0.0 mm 0.00 in0.0 mm
12:18 PM 33.1°F0.6°C 31.6°F-0.2°C 94% 13.0 mph NNW20.9 kmh NNW 15.0 mph24.1 kmh 29.45 in997.3 mb 0.00 in0.0 mm 0.00 in0.0 mm 0.00 in0.0 mm
12:19 PM 33.1°F0.6°C 31.6°F-0.2°C 94% 13.1 mph NNW21.1 kmh NNW 14.0 mph22.5 kmh 29.45 in997.3 mb 0.00 in0.0 mm 0.00 in0.0 mm 0.00 in0.0 mm
12:20 PM 33.1°F0.6°C 31.6°F-0.2°C 94% 13.1 mph NNW21.1 kmh NNW 15.0 mph24.1 kmh 29.45 in997.3 mb 0.00 in0.0 mm 0.00 in0.0 mm 0.00 in0.0 mm
12:21 PM 33.1°F0.6°C 31.6°F-0.2°C 94% 14.0 mph NNW22.5 kmh NNW 15.0 mph24.1 kmh 29.45 in997.3 mb 0.00 in0.0 mm 0.00 in0.0 mm 0.00 in0.0 mm
12:22 PM 33.1°F0.6°C 31.6°F-0.2°C 94% 12.9 mph NNW20.8 kmh NNW 15.0 mph24.1 kmh 29.45 in997.3 mb 0.00 in0.0 mm 0.00 in0.0 mm 0.00 in0.0 mm
12:23 PM 33.1°F0.6°C 31.6°F-0.2°C 94% 13.4 mph NNW21.6 kmh NNW 14.0 mph22.5 kmh 29.45 in997.3 mb 0.00 in0.0 mm 0.00 in0.0 mm 0.00 in0.0 mm
12:24 PM 33.2°F0.7°C 31.7°F-0.2°C 94% 13.9 mph NNW22.4 kmh NNW 16.0 mph25.7 kmh 29.45 in997.3 mb 0.00 in0.0 mm 0.00 in0.0 mm 0.00 in0.0 mm
12:25 PM 33.2°F0.7°C 31.7°F-0.2°C 94% 13.8 mph NNW22.2 kmh NNW 16.0 mph25.7 kmh 29.45 in997.3 mb 0.00 in0.0 mm 0.00 in0.0 mm 0.00 in0.0 mm
12:26 PM 33.2°F0.7°C 31.7°F-0.2°C 94% 13.9 mph NNW22.4 kmh NNW 15.0 mph24.1 kmh 29.45 in997.3 mb 0.00 in0.0 mm 0.00 in0.0 mm 0.00 in0.0 mm
12:27 PM 33.2°F0.7°C 31.7°F-0.2°C 94% 13.1 mph NNW21.1 kmh NNW 15.0 mph24.1 kmh 29.45 in997.3 mb 0.00 in0.0 mm 0.00 in0.0 mm 0.00 in0.0 mm
12:28 PM 33.2°F0.7°C 31.7°F-0.2°C 94% 12.9 mph NNW20.8 kmh NNW 15.0 mph24.1 kmh 29.45 in997.3 mb 0.00 in0.0 mm 0.00 in0.0 mm 0.00 in0.0 mm
12:29 PM 33.2°F0.7°C 31.7°F-0.2°C 94% 13.1 mph NNW21.1 kmh NNW 15.0 mph24.1 kmh 29.45 in997.3 mb 0.00 in0.0 mm 0.00 in0.0 mm 0.00 in0.0 mm
12:30 PM 33.2°F0.7°C 31.7°F-0.2°C 94% 13.4 mph NW21.6 kmh NW 15.0 mph24.1 kmh 29.45 in997.3 mb 0.00 in0.0 mm 0.00 in0.0 mm 0.00 in0.0 mm
12:31 PM 33.2°F0.7°C 31.7°F-0.2°C 94% 13.4 mph NNW21.6 kmh NNW 15.0 mph24.1 kmh 29.45 in997.3 mb 0.00 in0.0 mm 0.00 in0.0 mm 0.00 in0.0 mm
12:32 PM 33.2°F0.7°C 31.7°F-0.2°C 94% 13.6 mph NNW21.9 kmh NNW 15.0 mph24.1 kmh 29.45 in997.3 mb 0.00 in0.0 mm 0.00 in0.0 mm 0.00 in0.0 mm
12:33 PM 33.2°F0.7°C 31.7°F-0.2°C 94% 13.8 mph NNW22.2 kmh NNW 16.0 mph25.7 kmh 29.45 in997.3 mb 0.00 in0.0 mm 0.00 in0.0 mm 0.00 in0.0 mm
12:34 PM 33.2°F0.7°C 31.7°F-0.2°C 94% 13.3 mph NNW21.4 kmh NNW 16.0 mph25.7 kmh 29.45 in997.3 mb 0.00 in0.0 mm 0.00 in0.0 mm 0.00 in0.0 mm
12:35 PM 33.3°F0.7°C 31.8°F-0.1°C 94% 14.2 mph NNW22.9 kmh NNW 15.0 mph24.1 kmh 29.45 in997.3 mb 0.00 in0.0 mm 0.00 in0.0 mm 0.00 in0.0 mm
12:36 PM 33.2°F0.7°C 31.7°F-0.2°C 94% 14.2 mph NNW22.9 kmh NNW 15.0 mph24.1 kmh 29.45 in997.3 mb 0.00 in0.0 mm 0.00 in0.0 mm 0.00 in0.0 mm
12:37 PM 33.2°F0.7°C 31.7°F-0.2°C 94% 14.1 mph NNW22.7 kmh NNW 15.0 mph24.1 kmh 29.45 in997.3 mb 0.00 in0.0 mm 0.00 in0.0 mm 0.00 in0.0 mm
12:38 PM 33.2°F0.7°C 31.7°F-0.2°C 94% 13.2 mph NNW21.2 kmh NNW 15.0 mph24.1 kmh 29.45 in997.3 mb 0.00 in0.0 mm 0.00 in0.0 mm 0.00 in0.0 mm
12:39 PM 33.2°F0.7°C 31.7°F-0.2°C 94% 13.4 mph NNW21.6 kmh NNW 15.0 mph24.1 kmh 29.45 in997.3 mb 0.00 in0.0 mm 0.00 in0.0 mm 0.00 in0.0 mm
12:40 PM 33.2°F0.7°C 31.7°F-0.2°C 94% 13.3 mph NNW21.4 kmh NNW 15.0 mph24.1 kmh 29.45 in997.3 mb 0.00 in0.0 mm 0.00 in0.0 mm 0.00 in0.0 mm
12:41 PM 33.2°F0.7°C 31.7°F-0.2°C 94% 13.0 mph NNW20.9 kmh NNW 15.0 mph24.1 kmh 29.45 in997.3 mb 0.00 in0.0 mm 0.00 in0.0 mm 0.00 in0.0 mm
12:42 PM 33.2°F0.7°C 31.7°F-0.2°C 94% 13.5 mph NNW21.7 kmh NNW 15.0 mph24.1 kmh 29.45 in997.3 mb 0.00 in0.0 mm 0.00 in0.0 mm 0.00 in0.0 mm
12:43 PM 33.3°F0.7°C 31.8°F-0.1°C 94% 13.9 mph NNW22.4 kmh NNW 15.0 mph24.1 kmh 29.45 in997.3 mb 0.00 in0.0 mm 0.00 in0.0 mm 0.00 in0.0 mm
12:44 PM 33.2°F0.7°C 31.7°F-0.2°C 94% 13.2 mph NNW21.2 kmh NNW 15.0 mph24.1 kmh 29.45 in997.3 mb 0.00 in0.0 mm 0.00 in0.0 mm 0.00 in0.0 mm
12:45 PM 33.2°F0.7°C 31.7°F-0.2°C 94% 13.7 mph NNW22.0 kmh NNW 15.0 mph24.1 kmh 29.45 in997.3 mb 0.00 in0.0 mm 0.00 in0.0 mm 0.00 in0.0 mm
12:46 PM 33.3°F0.7°C 31.8°F-0.1°C 94% 13.8 mph NNW22.2 kmh NNW 15.0 mph24.1 kmh 29.45 in997.3 mb 0.00 in0.0 mm 0.00 in0.0 mm 0.00 in0.0 mm
12:47 PM 33.3°F0.7°C 31.8°F-0.1°C 94% 14.4 mph NNW23.2 kmh NNW 16.0 mph25.7 kmh 29.45 in997.3 mb 0.00 in0.0 mm 0.00 in0.0 mm 0.00 in0.0 mm
12:48 PM 33.3°F0.7°C 31.8°F-0.1°C 94% 14.0 mph NNW22.5 kmh NNW 16.0 mph25.7 kmh 29.45 in997.3 mb 0.00 in0.0 mm 0.00 in0.0 mm 0.00 in0.0 mm
12:49 PM 33.3°F0.7°C 31.8°F-0.1°C 94% 13.1 mph NNW21.1 kmh NNW 15.0 mph24.1 kmh 29.45 in997.3 mb 0.00 in0.0 mm 0.00 in0.0 mm 0.00 in0.0 mm
12:50 PM 33.3°F0.7°C 31.8°F-0.1°C 94% 13.4 mph NNW21.6 kmh NNW 15.0 mph24.1 kmh 29.45 in997.3 mb 0.00 in0.0 mm 0.00 in0.0 mm 0.00 in0.0 mm
12:51 PM 33.4°F0.8°C 31.9°F-0.1°C 94% 13.5 mph NNW21.7 kmh NNW 15.0 mph24.1 kmh 29.45 in997.3 mb 0.00 in0.0 mm 0.00 in0.0 mm 0.00 in0.0 mm
12:52 PM 33.3°F0.7°C 31.8°F-0.1°C 94% 13.8 mph NNW22.2 kmh NNW 16.0 mph25.7 kmh 29.45 in997.3 mb 0.00 in0.0 mm 0.00 in0.0 mm 0.00 in0.0 mm
12:53 PM 33.3°F0.7°C 31.8°F-0.1°C 94% 12.4 mph NNW20.0 kmh NNW 16.0 mph25.7 kmh 29.45 in997.3 mb 0.00 in0.0 mm 0.00 in0.0 mm 0.00 in0.0 mm
12:54 PM 33.4°F0.8°C 31.9°F-0.1°C 94% 13.2 mph NNW21.2 kmh NNW 15.0 mph24.1 kmh 29.45 in997.3 mb 0.00 in0.0 mm 0.00 in0.0 mm 0.00 in0.0 mm
12:55 PM 33.3°F0.7°C 31.8°F-0.1°C 94% 12.9 mph NNW20.8 kmh NNW 15.0 mph24.1 kmh 29.45 in997.3 mb 0.00 in0.0 mm 0.00 in0.0 mm 0.00 in0.0 mm
12:56 PM 33.3°F0.7°C 31.8°F-0.1°C 94% 14.7 mph NNW23.7 kmh NNW 16.0 mph25.7 kmh 29.45 in997.3 mb 0.00 in0.0 mm 0.00 in0.0 mm 0.00 in0.0 mm
12:57 PM 33.3°F0.7°C 31.5°F-0.3°C 93% 13.6 mph NNW21.9 kmh NNW 16.0 mph25.7 kmh 29.45 in997.3 mb 0.00 in0.0 mm 0.00 in0.0 mm 0.00 in0.0 mm
12:58 PM 33.3°F0.7°C 31.5°F-0.3°C 93% 14.1 mph NNW22.7 kmh NNW 15.0 mph24.1 kmh 29.45 in997.3 mb 0.00 in0.0 mm 0.00 in0.0 mm 0.00 in0.0 mm
12:59 PM 33.4°F0.8°C 31.6°F-0.2°C 93% 13.6 mph NNW21.9 kmh NNW 15.0 mph24.1 kmh 29.45 in997.3 mb 0.00 in0.0 mm 0.00 in0.0 mm 0.00 in0.0 mm
01:00 PM 33.4°F0.8°C 31.6°F-0.2°C 93% 13.1 mph NNW21.1 kmh NNW 15.0 mph24.1 kmh 29.46 in997.6 mb 0.00 in0.0 mm 0.00 in0.0 mm 0.00 in0.0 mm
01:01 PM 33.4°F0.8°C 31.6°F-0.2°C 93% 14.0 mph NNW22.5 kmh NNW 15.0 mph24.1 kmh 29.45 in997.3 mb 0.00 in0.0 mm 0.00 in0.0 mm 0.00 in0.0 mm
01:02 PM 33.4°F0.8°C 31.6°F-0.2°C 93% 12.6 mph NNW20.3 kmh NNW 15.0 mph24.1 kmh 29.46 in997.6 mb 0.00 in0.0 mm 0.00 in0.0 mm 0.00 in0.0 mm
01:03 PM 33.4°F0.8°C 31.6°F-0.2°C 93% 12.1 mph NNW19.5 kmh NNW 14.0 mph22.5 kmh 29.46 in997.6 mb 0.00 in0.0 mm 0.00 in0.0 mm 0.00 in0.0 mm
01:04 PM 33.4°F0.8°C 31.6°F-0.2°C 93% 12.5 mph NNW20.1 kmh NNW 14.0 mph22.5 kmh 29.46 in997.6 mb 0.00 in0.0 mm 0.00 in0.0 mm 0.00 in0.0 mm
01:05 PM 33.4°F0.8°C 31.6°F-0.2°C 93% 13.5 mph NNW21.7 kmh NNW 15.0 mph24.1 kmh 29.46 in997.6 mb 0.00 in0.0 mm 0.00 in0.0 mm 0.00 in0.0 mm
01:06 PM 33.4°F0.8°C 31.6°F-0.2°C 93% 13.5 mph NNW21.7 kmh NNW 15.0 mph24.1 kmh 29.46 in997.6 mb 0.00 in0.0 mm 0.00 in0.0 mm 0.00 in0.0 mm
01:07 PM 33.4°F0.8°C 31.6°F-0.2°C 93% 12.9 mph NNW20.8 kmh NNW 14.0 mph22.5 kmh 29.46 in997.6 mb 0.00 in0.0 mm 0.00 in0.0 mm 0.00 in0.0 mm
01:08 PM 33.4°F0.8°C 31.6°F-0.2°C 93% 12.3 mph NNW19.8 kmh NNW 14.0 mph22.5 kmh 29.46 in997.6 mb 0.00 in0.0 mm 0.00 in0.0 mm 0.00 in0.0 mm
01:09 PM 33.4°F0.8°C 31.6°F-0.2°C 93% 12.3 mph NNW19.8 kmh NNW 14.0 mph22.5 kmh 29.46 in997.6 mb 0.00 in0.0 mm 0.00 in0.0 mm 0.00 in0.0 mm
01:10 PM 33.4°F0.8°C 31.6°F-0.2°C 93% 12.4 mph NNW20.0 kmh NNW 14.0 mph22.5 kmh 29.46 in997.6 mb 0.00 in0.0 mm 0.00 in0.0 mm 0.00 in0.0 mm
01:11 PM 33.4°F0.8°C 31.6°F-0.2°C 93% 11.9 mph NNW19.2 kmh NNW 14.0 mph22.5 kmh 29.46 in997.6 mb 0.00 in0.0 mm 0.00 in0.0 mm 0.00 in0.0 mm
01:12 PM 33.4°F0.8°C 31.6°F-0.2°C 93% 11.5 mph NNW18.5 kmh NNW 13.0 mph20.9 kmh 29.46 in997.6 mb 0.00 in0.0 mm 0.00 in0.0 mm 0.00 in0.0 mm
01:13 PM 33.4°F0.8°C 31.6°F-0.2°C 93% 12.4 mph NNW20.0 kmh NNW 13.0 mph20.9 kmh 29.46 in997.6 mb 0.00 in0.0 mm 0.00 in0.0 mm 0.00 in0.0 mm
01:14 PM 33.4°F0.8°C 31.6°F-0.2°C 93% 12.1 mph NNW19.5 kmh NNW 14.0 mph22.5 kmh 29.46 in997.6 mb 0.00 in0.0 mm 0.00 in0.0 mm 0.00 in0.0 mm
01:15 PM 33.4°F0.8°C 31.6°F-0.2°C 93% 13.3 mph NNW21.4 kmh NNW 14.0 mph22.5 kmh 29.46 in997.6 mb 0.00 in0.0 mm 0.00 in0.0 mm 0.00 in0.0 mm
01:16 PM 33.3°F0.7°C 31.5°F-0.3°C 93% 13.0 mph NNW20.9 kmh NNW 14.0 mph22.5 kmh 29.46 in997.6 mb 0.00 in0.0 mm 0.00 in0.0 mm 0.00 in0.0 mm
01:17 PM 33.3°F0.7°C 31.5°F-0.3°C 93% 13.2 mph NNW21.2 kmh NNW 14.0 mph22.5 kmh 29.46 in997.6 mb 0.00 in0.0 mm 0.00 in0.0 mm 0.00 in0.0 mm
01:18 PM 33.4°F0.8°C 31.6°F-0.2°C 93% 12.2 mph NNW19.6 kmh NNW 14.0 mph22.5 kmh 29.46 in997.6 mb 0.00 in0.0 mm 0.00 in0.0 mm 0.00 in0.0 mm
01:19 PM 33.4°F0.8°C 31.6°F-0.2°C 93% 12.3 mph NNW19.8 kmh NNW 14.0 mph22.5 kmh 29.46 in997.6 mb 0.00 in0.0 mm 0.00 in0.0 mm 0.00 in0.0 mm
01:20 PM 33.4°F0.8°C 31.6°F-0.2°C 93% 12.0 mph NNW19.3 kmh NNW 13.0 mph20.9 kmh 29.46 in997.6 mb 0.00 in0.0 mm 0.00 in0.0 mm 0.00 in0.0 mm
01:21 PM 33.3°F0.7°C 31.5°F-0.3°C 93% 12.5 mph NNW20.1 kmh NNW 14.0 mph22.5 kmh 29.46 in997.6 mb 0.00 in0.0 mm 0.00 in0.0 mm 0.00 in0.0 mm
01:22 PM 33.4°F0.8°C 31.6°F-0.2°C 93% 12.5 mph NNW20.1 kmh NNW 14.0 mph22.5 kmh 29.46 in997.6 mb 0.00 in0.0 mm 0.00 in0.0 mm 0.00 in0.0 mm
01:23 PM 33.4°F0.8°C 31.6°F-0.2°C 93% 13.5 mph NNW21.7 kmh NNW 15.0 mph24.1 kmh 29.46 in997.6 mb 0.00 in0.0 mm 0.00 in0.0 mm 0.00 in0.0 mm
01:24 PM 33.4°F0.8°C 31.6°F-0.2°C 93% 13.3 mph NNW21.4 kmh NNW 15.0 mph24.1 kmh 29.46 in997.6 mb 0.00 in0.0 mm 0.00 in0.0 mm 0.00 in0.0 mm
01:25 PM 33.4°F0.8°C 31.6°F-0.2°C 93% 12.5 mph NNW20.1 kmh NNW 15.0 mph24.1 kmh 29.46 in997.6 mb 0.00 in0.0 mm 0.00 in0.0 mm 0.00 in0.0 mm
01:26 PM 33.4°F0.8°C 31.6°F-0.2°C 93% 12.7 mph NNW20.4 kmh NNW 15.0 mph24.1 kmh 29.47 in998.0 mb 0.00 in0.0 mm 0.00 in0.0 mm 0.00 in0.0 mm
01:27 PM 33.4°F0.8°C 31.6°F-0.2°C 93% 11.9 mph NNW19.2 kmh NNW 15.0 mph24.1 kmh 29.47 in998.0 mb 0.00 in0.0 mm 0.00 in0.0 mm 0.00 in0.0 mm
01:28 PM 33.4°F0.8°C 31.6°F-0.2°C 93% 12.5 mph NNW20.1 kmh NNW 13.0 mph20.9 kmh 29.47 in998.0 mb 0.00 in0.0 mm 0.00 in0.0 mm 0.00 in0.0 mm
01:29 PM 33.4°F0.8°C 31.6°F-0.2°C 93% 12.4 mph NNW20.0 kmh NNW 14.0 mph22.5 kmh 29.46 in997.6 mb 0.00 in0.0 mm 0.00 in0.0 mm 0.00 in0.0 mm
01:30 PM 33.4°F0.8°C 31.6°F-0.2°C 93% 12.5 mph NNW20.1 kmh NNW 14.0 mph22.5 kmh 29.47 in998.0 mb 0.00 in0.0 mm 0.00 in0.0 mm 0.00 in0.0 mm
01:31 PM 33.4°F0.8°C 31.6°F-0.2°C 93% 12.5 mph NNW20.1 kmh NNW 14.0 mph22.5 kmh 29.47 in998.0 mb 0.00 in0.0 mm 0.00 in0.0 mm 0.00 in0.0 mm
01:32 PM 33.5°F0.8°C 31.7°F-0.2°C 93% 11.5 mph NNW18.5 kmh NNW 14.0 mph22.5 kmh 29.46 in997.6 mb 0.00 in0.0 mm 0.00 in0.0 mm 0.00 in0.0 mm
01:33 PM 33.5°F0.8°C 31.7°F-0.2°C 93% 11.3 mph NNW18.2 kmh NNW 13.0 mph20.9 kmh 29.47 in998.0 mb 0.00 in0.0 mm 0.00 in0.0 mm 0.00 in0.0 mm
01:34 PM 33.5°F0.8°C 31.7°F-0.2°C 93% 12.2 mph NNW19.6 kmh NNW 13.0 mph20.9 kmh 29.46 in997.6 mb 0.00 in0.0 mm 0.00 in0.0 mm 0.00 in0.0 mm
01:35 PM 33.4°F0.8°C 31.6°F-0.2°C 93% 12.5 mph NNW20.1 kmh NNW 13.0 mph20.9 kmh 29.47 in998.0 mb 0.00 in0.0 mm 0.00 in0.0 mm 0.00 in0.0 mm
01:36 PM 33.5°F0.8°C 31.7°F-0.2°C 93% 12.5 mph NNW20.1 kmh NNW 14.0 mph22.5 kmh 29.47 in998.0 mb 0.00 in0.0 mm 0.00 in0.0 mm 0.00 in0.0 mm
01:37 PM 33.5°F0.8°C 31.7°F-0.2°C 93% 12.8 mph NNW20.6 kmh NNW 14.0 mph22.5 kmh 29.47 in998.0 mb 0.00 in0.0 mm 0.00 in0.0 mm 0.00 in0.0 mm
01:38 PM 33.4°F0.8°C 31.6°F-0.2°C 93% 12.4 mph NNW20.0 kmh NNW 14.0 mph22.5 kmh 29.47 in998.0 mb 0.00 in0.0 mm 0.00 in0.0 mm 0.00 in0.0 mm
01:39 PM 33.4°F0.8°C 31.6°F-0.2°C 93% 12.3 mph NW19.8 kmh NW 13.0 mph20.9 kmh 29.47 in998.0 mb 0.00 in0.0 mm 0.00 in0.0 mm 0.00 in0.0 mm
01:40 PM 33.4°F0.8°C 31.3°F-0.4°C 92% 12.5 mph NNW20.1 kmh NNW 14.0 mph22.5 kmh 29.47 in998.0 mb 0.00 in0.0 mm 0.00 in0.0 mm 0.00 in0.0 mm
01:41 PM 33.3°F0.7°C 31.5°F-0.3°C 93% 12.4 mph NNW20.0 kmh NNW 14.0 mph22.5 kmh 29.47 in998.0 mb 0.00 in0.0 mm 0.00 in0.0 mm 0.00 in0.0 mm
01:42 PM 33.4°F0.8°C 31.6°F-0.2°C 93% 12.7 mph NW20.4 kmh NW 14.0 mph22.5 kmh 29.47 in998.0 mb 0.00 in0.0 mm 0.00 in0.0 mm 0.00 in0.0 mm
01:43 PM 33.4°F0.8°C 31.6°F-0.2°C 93% 13.2 mph NNW21.2 kmh NNW 15.0 mph24.1 kmh 29.47 in998.0 mb 0.00 in0.0 mm 0.00 in0.0 mm 0.00 in0.0 mm
01:44 PM 33.4°F0.8°C 31.6°F-0.2°C 93% 13.7 mph NNW22.0 kmh NNW 15.0 mph24.1 kmh 29.47 in998.0 mb 0.00 in0.0 mm 0.00 in0.0 mm 0.00 in0.0 mm
01:45 PM 33.3°F0.7°C 31.5°F-0.3°C 93% 13.2 mph NNW21.2 kmh NNW 15.0 mph24.1 kmh 29.47 in998.0 mb 0.00 in0.0 mm 0.00 in0.0 mm 0.00 in0.0 mm
01:46 PM 33.4°F0.8°C 31.6°F-0.2°C 93% 12.9 mph NNW20.8 kmh NNW 15.0 mph24.1 kmh 29.47 in998.0 mb 0.00 in0.0 mm 0.00 in0.0 mm 0.00 in0.0 mm
01:47 PM 33.3°F0.7°C 31.5°F-0.3°C 93% 12.4 mph NNW20.0 kmh NNW 14.0 mph22.5 kmh 29.47 in998.0 mb 0.00 in0.0 mm 0.00 in0.0 mm 0.00 in0.0 mm
01:48 PM 33.4°F0.8°C 31.6°F-0.2°C 93% 12.4 mph NNW20.0 kmh NNW 14.0 mph22.5 kmh 29.47 in998.0 mb 0.00 in0.0 mm 0.00 in0.0 mm 0.00 in0.0 mm
01:49 PM 33.4°F0.8°C 31.6°F-0.2°C 93% 13.3 mph NNW21.4 kmh NNW 14.0 mph22.5 kmh 29.47 in998.0 mb 0.00 in0.0 mm 0.00 in0.0 mm 0.00 in0.0 mm
01:50 PM 33.4°F0.8°C 31.6°F-0.2°C 93% 13.2 mph NNW21.2 kmh NNW 15.0 mph24.1 kmh 29.47 in998.0 mb 0.00 in0.0 mm 0.00 in0.0 mm 0.00 in0.0 mm
01:51 PM 33.4°F0.8°C 31.6°F-0.2°C 93% 12.8 mph NNW20.6 kmh NNW 15.0 mph24.1 kmh 29.47 in998.0 mb 0.00 in0.0 mm 0.00 in0.0 mm 0.00 in0.0 mm
01:52 PM 33.4°F0.8°C 31.6°F-0.2°C 93% 12.6 mph NNW20.3 kmh NNW 14.0 mph22.5 kmh 29.48 in998.3 mb 0.00 in0.0 mm 0.00 in0.0 mm 0.00 in0.0 mm
01:53 PM 33.4°F0.8°C 31.3°F-0.4°C 92% 13.9 mph NNW22.4 kmh NNW 15.0 mph24.1 kmh 29.47 in998.0 mb 0.00 in0.0 mm 0.00 in0.0 mm 0.00 in0.0 mm
01:54 PM 33.4°F0.8°C 31.3°F-0.4°C 92% 13.0 mph NNW20.9 kmh NNW 15.0 mph24.1 kmh 29.47 in998.0 mb 0.00 in0.0 mm 0.00 in0.0 mm 0.00 in0.0 mm
01:55 PM 33.4°F0.8°C 31.3°F-0.4°C 92% 12.3 mph NNW19.8 kmh NNW 14.0 mph22.5 kmh 29.47 in998.0 mb 0.00 in0.0 mm 0.00 in0.0 mm 0.00 in0.0 mm
01:56 PM 33.4°F0.8°C 31.3°F-0.4°C 92% 13.1 mph NNW21.1 kmh NNW 15.0 mph24.1 kmh 29.48 in998.3 mb 0.00 in0.0 mm 0.00 in0.0 mm 0.00 in0.0 mm
01:57 PM 33.5°F0.8°C 31.4°F-0.3°C 92% 12.5 mph NNW20.1 kmh NNW 15.0 mph24.1 kmh 29.48 in998.3 mb 0.00 in0.0 mm 0.00 in0.0 mm 0.00 in0.0 mm
01:58 PM 33.4°F0.8°C 31.3°F-0.4°C 92% 12.6 mph NNW20.3 kmh NNW 14.0 mph22.5 kmh 29.48 in998.3 mb 0.00 in0.0 mm 0.00 in0.0 mm 0.00 in0.0 mm
01:59 PM 33.4°F0.8°C 31.3°F-0.4°C 92% 12.7 mph NNW20.4 kmh NNW 14.0 mph22.5 kmh 29.48 in998.3 mb 0.00 in0.0 mm 0.00 in0.0 mm 0.00 in0.0 mm
02:00 PM 33.5°F0.8°C 31.4°F-0.3°C 92% 14.0 mph NNW22.5 kmh NNW 15.0 mph24.1 kmh 29.48 in998.3 mb 0.00 in0.0 mm 0.00 in0.0 mm 0.00 in0.0 mm
02:01 PM 33.4°F0.8°C 31.3°F-0.4°C 92% 12.9 mph NNW20.8 kmh NNW 15.0 mph24.1 kmh 29.48 in998.3 mb 0.00 in0.0 mm 0.00 in0.0 mm 0.00 in0.0 mm
02:02 PM 33.5°F0.8°C 31.4°F-0.3°C 92% 12.6 mph NNW20.3 kmh NNW 15.0 mph24.1 kmh 29.48 in998.3 mb 0.00 in0.0 mm 0.00 in0.0 mm 0.00 in0.0 mm
02:03 PM 33.4°F0.8°C 31.3°F-0.4°C 92% 12.2 mph NNW19.6 kmh NNW 15.0 mph24.1 kmh 29.48 in998.3 mb 0.00 in0.0 mm 0.00 in0.0 mm 0.00 in0.0 mm
02:04 PM 33.5°F0.8°C 31.4°F-0.3°C 92% 13.0 mph NNW20.9 kmh NNW 15.0 mph24.1 kmh 29.48 in998.3 mb 0.00 in0.0 mm 0.00 in0.0 mm 0.00 in0.0 mm
02:05 PM 33.5°F0.8°C 31.4°F-0.3°C 92% 13.3 mph NNW21.4 kmh NNW 15.0 mph24.1 kmh 29.48 in998.3 mb 0.00 in0.0 mm 0.00 in0.0 mm 0.00 in0.0 mm
02:06 PM 33.5°F0.8°C 31.4°F-0.3°C 92% 13.6 mph NNW21.9 kmh NNW 15.0 mph24.1 kmh 29.48 in998.3 mb 0.00 in0.0 mm 0.00 in0.0 mm 0.00 in0.0 mm
02:07 PM 33.5°F0.8°C 31.4°F-0.3°C 92% 13.6 mph NNW21.9 kmh NNW 15.0 mph24.1 kmh 29.48 in998.3 mb 0.00 in0.0 mm 0.00 in0.0 mm 0.00 in0.0 mm
02:08 PM 33.5°F0.8°C 31.4°F-0.3°C 92% 13.1 mph NNW21.1 kmh NNW 14.0 mph22.5 kmh 29.48 in998.3 mb 0.00 in0.0 mm 0.00 in0.0 mm 0.00 in0.0 mm
02:09 PM 33.6°F0.9°C 31.5°F-0.3°C 92% 13.7 mph NNW22.0 kmh NNW 16.0 mph25.7 kmh 29.48 in998.3 mb 0.00 in0.0 mm 0.00 in0.0 mm 0.00 in0.0 mm
02:10 PM 33.6°F0.9°C 31.5°F-0.3°C 92% 12.9 mph NNW20.8 kmh NNW 16.0 mph25.7 kmh 29.48 in998.3 mb 0.00 in0.0 mm 0.00 in0.0 mm 0.00 in0.0 mm
02:11 PM 33.6°F0.9°C 31.5°F-0.3°C 92% 13.4 mph NNW21.6 kmh NNW 15.0 mph24.1 kmh 29.48 in998.3 mb 0.00 in0.0 mm 0.00 in0.0 mm 0.00 in0.0 mm
02:12 PM 33.6°F0.9°C 31.5°F-0.3°C 92% 13.8 mph NNW22.2 kmh NNW 15.0 mph24.1 kmh 29.48 in998.3 mb 0.00 in0.0 mm 0.00 in0.0 mm 0.00 in0.0 mm
02:13 PM 33.6°F0.9°C 31.5°F-0.3°C 92% 13.4 mph NNW21.6 kmh NNW 15.0 mph24.1 kmh 29.48 in998.3 mb 0.00 in0.0 mm 0.00 in0.0 mm 0.00 in0.0 mm
02:14 PM 33.6°F0.9°C 31.5°F-0.3°C 92% 13.3 mph NNW21.4 kmh NNW 15.0 mph24.1 kmh 29.48 in998.3 mb 0.00 in0.0 mm 0.00 in0.0 mm 0.00 in0.0 mm
02:15 PM 33.5°F0.8°C 31.4°F-0.3°C 92% 12.8 mph NNW20.6 kmh NNW 14.0 mph22.5 kmh 29.48 in998.3 mb 0.00 in0.0 mm 0.00 in0.0 mm 0.00 in0.0 mm
02:16 PM 33.5°F0.8°C 31.4°F-0.3°C 92% 12.4 mph NNW20.0 kmh NNW 14.0 mph22.5 kmh 29.48 in998.3 mb 0.00 in0.0 mm 0.00 in0.0 mm 0.00 in0.0 mm
02:17 PM 33.5°F0.8°C 31.4°F-0.3°C 92% 13.2 mph NNW21.2 kmh NNW 14.0 mph22.5 kmh 29.49 in998.6 mb 0.00 in0.0 mm 0.00 in0.0 mm 0.00 in0.0 mm
02:18 PM 33.5°F0.8°C 31.4°F-0.3°C 92% 12.9 mph NNW20.8 kmh NNW 15.0 mph24.1 kmh 29.49 in998.6 mb 0.00 in0.0 mm 0.00 in0.0 mm 0.00 in0.0 mm
02:19 PM 33.5°F0.8°C 31.4°F-0.3°C 92% 13.1 mph NNW21.1 kmh NNW 15.0 mph24.1 kmh 29.49 in998.6 mb 0.00 in0.0 mm 0.00 in0.0 mm 0.00 in0.0 mm
02:20 PM 33.5°F0.8°C 31.4°F-0.3°C 92% 13.3 mph NNW21.4 kmh NNW 15.0 mph24.1 kmh 29.49 in998.6 mb 0.00 in0.0 mm 0.00 in0.0 mm 0.00 in0.0 mm
02:21 PM 33.5°F0.8°C 31.4°F-0.3°C 92% 13.5 mph NNW21.7 kmh NNW 14.0 mph22.5 kmh 29.49 in998.6 mb 0.00 in0.0 mm 0.00 in0.0 mm 0.00 in0.0 mm
02:22 PM 33.5°F0.8°C 31.4°F-0.3°C 92% 12.8 mph NNW20.6 kmh NNW 15.0 mph24.1 kmh 29.49 in998.6 mb 0.00 in0.0 mm 0.00 in0.0 mm 0.00 in0.0 mm
02:23 PM 33.5°F0.8°C 31.4°F-0.3°C 92% 13.9 mph NNW22.4 kmh NNW 15.0 mph24.1 kmh 29.49 in998.6 mb 0.00 in0.0 mm 0.00 in0.0 mm 0.00 in0.0 mm
02:24 PM 33.5°F0.8°C 31.4°F-0.3°C 92% 14.5 mph NNW23.3 kmh NNW 16.0 mph25.7 kmh 29.49 in998.6 mb 0.00 in0.0 mm 0.00 in0.0 mm 0.00 in0.0 mm
02:25 PM 33.5°F0.8°C 31.4°F-0.3°C 92% 13.8 mph NNW22.2 kmh NNW 16.0 mph25.7 kmh 29.49 in998.6 mb 0.00 in0.0 mm 0.00 in0.0 mm 0.00 in0.0 mm
02:26 PM 33.5°F0.8°C 31.4°F-0.3°C 92% 12.3 mph NNW19.8 kmh NNW 15.0 mph24.1 kmh 29.49 in998.6 mb 0.00 in0.0 mm 0.00 in0.0 mm 0.00 in0.0 mm
02:27 PM 33.5°F0.8°C 31.4°F-0.3°C 92% 12.4 mph NNW20.0 kmh NNW 14.0 mph22.5 kmh 29.49 in998.6 mb 0.00 in0.0 mm 0.00 in0.0 mm 0.00 in0.0 mm
02:28 PM 33.5°F0.8°C 31.2°F-0.4°C 91% 13.2 mph NNW21.2 kmh NNW 15.0 mph24.1 kmh 29.49 in998.6 mb 0.00 in0.0 mm 0.00 in0.0 mm 0.00 in0.0 mm
02:29 PM 33.5°F0.8°C 31.2°F-0.4°C 91% 13.0 mph NNW20.9 kmh NNW 15.0 mph24.1 kmh 29.49 in998.6 mb 0.00 in0.0 mm 0.00 in0.0 mm 0.00 in0.0 mm
02:30 PM 33.5°F0.8°C 31.2°F-0.4°C 91% 13.2 mph NNW21.2 kmh NNW 15.0 mph24.1 kmh 29.49 in998.6 mb 0.00 in0.0 mm 0.00 in0.0 mm 0.00 in0.0 mm
02:31 PM 33.5°F0.8°C 31.2°F-0.4°C 91% 12.8 mph NNW20.6 kmh NNW 15.0 mph24.1 kmh 29.49 in998.6 mb 0.00 in0.0 mm 0.00 in0.0 mm 0.00 in0.0 mm
02:32 PM 33.6°F0.9°C 31.3°F-0.4°C 91% 13.3 mph NNW21.4 kmh NNW 15.0 mph24.1 kmh 29.49 in998.6 mb 0.00 in0.0 mm 0.00 in0.0 mm 0.00 in0.0 mm
02:33 PM 33.6°F0.9°C 31.3°F-0.4°C 91% 13.0 mph NNW20.9 kmh NNW 15.0 mph24.1 kmh 29.49 in998.6 mb 0.00 in0.0 mm 0.00 in0.0 mm 0.00 in0.0 mm
02:34 PM 33.6°F0.9°C 31.3°F-0.4°C 91% 13.0 mph NNW20.9 kmh NNW 15.0 mph24.1 kmh 29.49 in998.6 mb 0.00 in0.0 mm 0.00 in0.0 mm 0.00 in0.0 mm
02:35 PM 33.6°F0.9°C 31.3°F-0.4°C 91% 12.9 mph NNW20.8 kmh NNW 15.0 mph24.1 kmh 29.49 in998.6 mb 0.00 in0.0 mm 0.00 in0.0 mm 0.00 in0.0 mm
02:36 PM 33.6°F0.9°C 31.3°F-0.4°C 91% 13.4 mph NNW21.6 kmh NNW 15.0 mph24.1 kmh 29.49 in998.6 mb 0.00 in0.0 mm 0.00 in0.0 mm 0.00 in0.0 mm
02:37 PM 33.6°F0.9°C 31.3°F-0.4°C 91% 12.9 mph NNW20.8 kmh NNW 15.0 mph24.1 kmh 29.49 in998.6 mb 0.00 in0.0 mm 0.00 in0.0 mm 0.00 in0.0 mm
02:38 PM 33.6°F0.9°C 31.5°F-0.3°C 92% 12.9 mph NNW20.8 kmh NNW 15.0 mph24.1 kmh 29.50 in999.0 mb 0.00 in0.0 mm 0.00 in0.0 mm 0.00 in0.0 mm
02:39 PM 33.7°F0.9°C 31.4°F-0.3°C 91% 13.4 mph NNW21.6 kmh NNW 15.0 mph24.1 kmh 29.50 in999.0 mb 0.00 in0.0 mm 0.00 in0.0 mm 0.00 in0.0 mm
02:40 PM 33.7°F0.9°C 31.4°F-0.3°C 91% 13.5 mph NNW21.7 kmh NNW 15.0 mph24.1 kmh 29.50 in999.0 mb 0.00 in0.0 mm 0.00 in0.0 mm 0.00 in0.0 mm
02:41 PM 33.7°F0.9°C 31.4°F-0.3°C 91% 13.5 mph NNW21.7 kmh NNW 15.0 mph24.1 kmh 29.50 in999.0 mb 0.00 in0.0 mm 0.00 in0.0 mm 0.00 in0.0 mm
02:42 PM 33.7°F0.9°C 31.4°F-0.3°C 91% 12.6 mph NNW20.3 kmh NNW 15.0 mph24.1 kmh 29.50 in999.0 mb 0.00 in0.0 mm 0.00 in0.0 mm 0.00 in0.0 mm
02:43 PM 33.7°F0.9°C 31.4°F-0.3°C 91% 12.8 mph NNW20.6 kmh NNW 15.0 mph24.1 kmh 29.50 in999.0 mb 0.00 in0.0 mm 0.00 in0.0 mm 0.00 in0.0 mm
02:44 PM 33.7°F0.9°C 31.4°F-0.3°C 91% 13.5 mph NNW21.7 kmh NNW 15.0 mph24.1 kmh 29.50 in999.0 mb 0.00 in0.0 mm 0.00 in0.0 mm 0.00 in0.0 mm
02:45 PM 33.7°F0.9°C 31.4°F-0.3°C 91% 13.3 mph NNW21.4 kmh NNW 15.0 mph24.1 kmh 29.50 in999.0 mb 0.00 in0.0 mm 0.00 in0.0 mm 0.00 in0.0 mm
02:46 PM 33.6°F0.9°C 31.3°F-0.4°C 91% 14.0 mph NNW22.5 kmh NNW 15.0 mph24.1 kmh 29.50 in999.0 mb 0.00 in0.0 mm 0.00 in0.0 mm 0.00 in0.0 mm
02:47 PM 33.6°F0.9°C 31.3°F-0.4°C 91% 13.7 mph NNW22.0 kmh NNW 15.0 mph24.1 kmh 29.50 in999.0 mb 0.00 in0.0 mm 0.00 in0.0 mm 0.00 in0.0 mm
02:48 PM 33.7°F0.9°C 31.4°F-0.3°C 91% 12.3 mph NNW19.8 kmh NNW 15.0 mph24.1 kmh 29.50 in999.0 mb 0.00 in0.0 mm 0.00 in0.0 mm 0.00 in0.0 mm
02:49 PM 33.6°F0.9°C 31.3°F-0.4°C 91% 12.5 mph NNW20.1 kmh NNW 14.0 mph22.5 kmh 29.50 in999.0 mb 0.00 in0.0 mm 0.00 in0.0 mm 0.00 in0.0 mm
02:50 PM 33.7°F0.9°C 31.4°F-0.3°C 91% 13.4 mph NNW21.6 kmh NNW 14.0 mph22.5 kmh 29.50 in999.0 mb 0.00 in0.0 mm 0.00 in0.0 mm 0.00 in0.0 mm
02:51 PM 33.7°F0.9°C 31.4°F-0.3°C 91% 13.0 mph NNW20.9 kmh NNW 15.0 mph24.1 kmh 29.50 in999.0 mb 0.00 in0.0 mm 0.00 in0.0 mm 0.00 in0.0 mm
02:52 PM 33.7°F0.9°C 31.4°F-0.3°C 91% 13.2 mph NNW21.2 kmh NNW 15.0 mph24.1 kmh 29.50 in999.0 mb 0.00 in0.0 mm 0.00 in0.0 mm 0.00 in0.0 mm
02:53 PM 33.7°F0.9°C 31.4°F-0.3°C 91% 13.9 mph NNW22.4 kmh NNW 16.0 mph25.7 kmh 29.50 in999.0 mb 0.00 in0.0 mm 0.00 in0.0 mm 0.00 in0.0 mm
02:54 PM 33.7°F0.9°C 31.4°F-0.3°C 91% 13.3 mph NNW21.4 kmh NNW 16.0 mph25.7 kmh 29.50 in999.0 mb 0.00 in0.0 mm 0.00 in0.0 mm 0.00 in0.0 mm
02:55 PM 33.7°F0.9°C 31.4°F-0.3°C 91% 13.0 mph NNW20.9 kmh NNW 15.0 mph24.1 kmh 29.50 in999.0 mb 0.00 in0.0 mm 0.00 in0.0 mm 0.00 in0.0 mm
02:56 PM 33.7°F0.9°C 31.4°F-0.3°C 91% 12.8 mph NNW20.6 kmh NNW 14.0 mph22.5 kmh 29.50 in999.0 mb 0.00 in0.0 mm 0.00 in0.0 mm 0.00 in0.0 mm
02:57 PM 33.7°F0.9°C 31.4°F-0.3°C 91% 12.3 mph NNW19.8 kmh NNW 14.0 mph22.5 kmh 29.50 in999.0 mb 0.00 in0.0 mm 0.00 in0.0 mm 0.00 in0.0 mm
02:58 PM 33.7°F0.9°C 31.4°F-0.3°C 91% 12.8 mph NNW20.6 kmh NNW 15.0 mph24.1 kmh 29.50 in999.0 mb 0.00 in0.0 mm 0.00 in0.0 mm 0.00 in0.0 mm
02:59 PM 33.7°F0.9°C 31.4°F-0.3°C 91% 13.1 mph NNW21.1 kmh NNW 15.0 mph24.1 kmh 29.50 in999.0 mb 0.00 in0.0 mm 0.00 in0.0 mm 0.00 in0.0 mm
03:00 PM 33.7°F0.9°C 31.4°F-0.3°C 91% 12.4 mph NNW20.0 kmh NNW 14.0 mph22.5 kmh 29.50 in999.0 mb 0.00 in0.0 mm 0.00 in0.0 mm 0.00 in0.0 mm
03:01 PM 33.7°F0.9°C 31.4°F-0.3°C 91% 12.6 mph NNW20.3 kmh NNW 14.0 mph22.5 kmh 29.50 in999.0 mb 0.00 in0.0 mm 0.00 in0.0 mm 0.00 in0.0 mm
03:02 PM 33.7°F0.9°C 31.4°F-0.3°C 91% 12.6 mph NNW20.3 kmh NNW 14.0 mph22.5 kmh 29.50 in999.0 mb 0.00 in0.0 mm 0.00 in0.0 mm 0.00 in0.0 mm
03:03 PM 33.7°F0.9°C 31.1°F-0.5°C 90% 12.7 mph NNW20.4 kmh NNW 14.0 mph22.5 kmh 29.50 in999.0 mb 0.00 in0.0 mm 0.00 in0.0 mm 0.00 in0.0 mm
03:04 PM 33.7°F0.9°C 31.1°F-0.5°C 90% 12.7 mph NNW20.4 kmh NNW 14.0 mph22.5 kmh 29.51 in999.3 mb 0.00 in0.0 mm 0.00 in0.0 mm 0.00 in0.0 mm
03:05 PM 33.7°F0.9°C 31.4°F-0.3°C 91% 12.9 mph NNW20.8 kmh NNW 14.0 mph22.5 kmh 29.51 in999.3 mb 0.00 in0.0 mm 0.00 in0.0 mm 0.00 in0.0 mm
03:06 PM 33.7°F0.9°C 31.1°F-0.5°C 90% 12.5 mph NNW20.1 kmh NNW 14.0 mph22.5 kmh 29.51 in999.3 mb 0.00 in0.0 mm 0.00 in0.0 mm 0.00 in0.0 mm
03:07 PM 33.7°F0.9°C 31.1°F-0.5°C 90% 12.5 mph NNW20.1 kmh NNW 14.0 mph22.5 kmh 29.51 in999.3 mb 0.00 in0.0 mm 0.00 in0.0 mm 0.00 in0.0 mm
03:08 PM 33.7°F0.9°C 31.1°F-0.5°C 90% 12.9 mph NNW20.8 kmh NNW 15.0 mph24.1 kmh 29.51 in999.3 mb 0.00 in0.0 mm 0.00 in0.0 mm 0.00 in0.0 mm
03:09 PM 33.7°F0.9°C 31.1°F-0.5°C 90% 12.3 mph NNW19.8 kmh NNW 15.0 mph24.1 kmh 29.51 in999.3 mb 0.00 in0.0 mm 0.00 in0.0 mm 0.00 in0.0 mm
03:10 PM 33.7°F0.9°C 31.4°F-0.3°C 91% 12.0 mph NNW19.3 kmh NNW 14.0 mph22.5 kmh 29.51 in999.3 mb 0.00 in0.0 mm 0.00 in0.0 mm 0.00 in0.0 mm
03:11 PM 33.7°F0.9°C 31.1°F-0.5°C 90% 12.5 mph NNW20.1 kmh NNW 14.0 mph22.5 kmh 29.51 in999.3 mb 0.00 in0.0 mm 0.00 in0.0 mm 0.00 in0.0 mm
03:12 PM 33.7°F0.9°C 31.1°F-0.5°C 90% 13.1 mph NNW21.1 kmh NNW 14.0 mph22.5 kmh 29.51 in999.3 mb 0.00 in0.0 mm 0.00 in0.0 mm 0.00 in0.0 mm
03:13 PM 33.7°F0.9°C 31.1°F-0.5°C 90% 12.8 mph NNW20.6 kmh NNW 14.0 mph22.5 kmh 29.51 in999.3 mb 0.00 in0.0 mm 0.00 in0.0 mm 0.00 in0.0 mm
03:14 PM 33.7°F0.9°C 31.1°F-0.5°C 90% 12.4 mph NNW20.0 kmh NNW 14.0 mph22.5 kmh 29.51 in999.3 mb 0.00 in0.0 mm 0.00 in0.0 mm 0.00 in0.0 mm
03:15 PM 33.7°F0.9°C 31.1°F-0.5°C 90% 12.5 mph NNW20.1 kmh NNW 14.0 mph22.5 kmh 29.51 in999.3 mb 0.00 in0.0 mm 0.00 in0.0 mm 0.00 in0.0 mm
03:16 PM 33.7°F0.9°C 31.1°F-0.5°C 90% 13.5 mph NNW21.7 kmh NNW 15.0 mph24.1 kmh 29.51 in999.3 mb 0.00 in0.0 mm 0.00 in0.0 mm 0.00 in0.0 mm
03:17 PM 33.7°F0.9°C 31.1°F-0.5°C 90% 13.1 mph NNW21.1 kmh NNW 15.0 mph24.1 kmh 29.51 in999.3 mb 0.00 in0.0 mm 0.00 in0.0 mm 0.00 in0.0 mm
03:18 PM 33.7°F0.9°C 31.1°F-0.5°C 90% 13.6 mph NNW21.9 kmh NNW 15.0 mph24.1 kmh 29.51 in999.3 mb 0.00 in0.0 mm 0.00 in0.0 mm 0.00 in0.0 mm
03:19 PM 33.7°F0.9°C 31.1°F-0.5°C 90% 13.9 mph NNW22.4 kmh NNW 16.0 mph25.7 kmh 29.51 in999.3 mb 0.00 in0.0 mm 0.00 in0.0 mm 0.00 in0.0 mm
03:20 PM 33.8°F1.0°C 31.2°F-0.4°C 90% 13.4 mph NNW21.6 kmh NNW 16.0 mph25.7 kmh 29.51 in999.3 mb 0.00 in0.0 mm 0.00 in0.0 mm 0.00 in0.0 mm
03:21 PM 33.7°F0.9°C 31.1°F-0.5°C 90% 14.3 mph NNW23.0 kmh NNW 16.0 mph25.7 kmh 29.51 in999.3 mb 0.00 in0.0 mm 0.00 in0.0 mm 0.00 in0.0 mm
03:22 PM 33.8°F1.0°C 31.2°F-0.4°C 90% 13.4 mph NNW21.6 kmh NNW 15.0 mph24.1 kmh 29.51 in999.3 mb 0.00 in0.0 mm 0.00 in0.0 mm 0.00 in0.0 mm
03:23 PM 33.8°F1.0°C 31.2°F-0.4°C 90% 13.3 mph NNW21.4 kmh NNW 14.0 mph22.5 kmh 29.51 in999.3 mb 0.00 in0.0 mm 0.00 in0.0 mm 0.00 in0.0 mm
03:24 PM 33.8°F1.0°C 31.2°F-0.4°C 90% 12.8 mph NNW20.6 kmh NNW 14.0 mph22.5 kmh 29.52 in999.7 mb 0.00 in0.0 mm 0.00 in0.0 mm 0.00 in0.0 mm
03:25 PM 33.7°F0.9°C 31.1°F-0.5°C 90% 12.7 mph NNW20.4 kmh NNW 14.0 mph22.5 kmh 29.51 in999.3 mb 0.00 in0.0 mm 0.00 in0.0 mm 0.00 in0.0 mm
03:26 PM 33.7°F0.9°C 31.1°F-0.5°C 90% 12.5 mph NNW20.1 kmh NNW 14.0 mph22.5 kmh 29.51 in999.3 mb 0.00 in0.0 mm 0.00 in0.0 mm 0.00 in0.0 mm
03:27 PM 33.7°F0.9°C 31.1°F-0.5°C 90% 13.0 mph NNW20.9 kmh NNW 14.0 mph22.5 kmh 29.52 in999.7 mb 0.00 in0.0 mm 0.00 in0.0 mm 0.00 in0.0 mm
03:28 PM 33.7°F0.9°C 31.1°F-0.5°C 90% 12.3 mph NNW19.8 kmh NNW 14.0 mph22.5 kmh 29.52 in999.7 mb 0.00 in0.0 mm 0.00 in0.0 mm 0.00 in0.0 mm
03:29 PM 33.7°F0.9°C 31.1°F-0.5°C 90% 12.0 mph NNW19.3 kmh NNW 13.0 mph20.9 kmh 29.52 in999.7 mb 0.00 in0.0 mm 0.00 in0.0 mm 0.00 in0.0 mm
03:30 PM 33.7°F0.9°C 31.1°F-0.5°C 90% 12.1 mph NNW19.5 kmh NNW 14.0 mph22.5 kmh 29.52 in999.7 mb 0.00 in0.0 mm 0.00 in0.0 mm 0.00 in0.0 mm
03:31 PM 33.7°F0.9°C 31.1°F-0.5°C 90% 12.6 mph NNW20.3 kmh NNW 14.0 mph22.5 kmh 29.52 in999.7 mb 0.00 in0.0 mm 0.00 in0.0 mm 0.00 in0.0 mm
03:32 PM 33.6°F0.9°C 31.0°F-0.6°C 90% 12.9 mph NNW20.8 kmh NNW 14.0 mph22.5 kmh 29.52 in999.7 mb 0.00 in0.0 mm 0.00 in0.0 mm 0.00 in0.0 mm
03:33 PM 33.6°F0.9°C 31.0°F-0.6°C 90% 12.2 mph NNW19.6 kmh NNW 14.0 mph22.5 kmh 29.52 in999.7 mb 0.00 in0.0 mm 0.00 in0.0 mm 0.00 in0.0 mm
03:34 PM 33.7°F0.9°C 31.1°F-0.5°C 90% 12.6 mph NNW20.3 kmh NNW 14.0 mph22.5 kmh 29.52 in999.7 mb 0.00 in0.0 mm 0.00 in0.0 mm 0.00 in0.0 mm
03:35 PM 33.7°F0.9°C 31.1°F-0.5°C 90% 12.1 mph NNW19.5 kmh NNW 14.0 mph22.5 kmh 29.52 in999.7 mb 0.00 in0.0 mm 0.00 in0.0 mm 0.00 in0.0 mm
03:36 PM 33.7°F0.9°C 31.1°F-0.5°C 90% 12.0 mph NNW19.3 kmh NNW 13.0 mph20.9 kmh 29.52 in999.7 mb 0.00 in0.0 mm 0.00 in0.0 mm 0.00 in0.0 mm
03:37 PM 33.7°F0.9°C 31.1°F-0.5°C 90% 12.5 mph NNW20.1 kmh NNW 14.0 mph22.5 kmh 29.52 in999.7 mb 0.00 in0.0 mm 0.00 in0.0 mm 0.00 in0.0 mm
03:38 PM 33.7°F0.9°C 31.1°F-0.5°C 90% 13.2 mph NNW21.2 kmh NNW 14.0 mph22.5 kmh 29.52 in999.7 mb 0.00 in0.0 mm 0.00 in0.0 mm 0.00 in0.0 mm
03:39 PM 33.7°F0.9°C 31.1°F-0.5°C 90% 13.3 mph NNW21.4 kmh NNW 15.0 mph24.1 kmh 29.52 in999.7 mb 0.00 in0.0 mm 0.00 in0.0 mm 0.00 in0.0 mm
03:40 PM 33.7°F0.9°C 31.1°F-0.5°C 90% 13.4 mph NNW21.6 kmh NNW 15.0 mph24.1 kmh 29.52 in999.7 mb 0.00 in0.0 mm 0.00 in0.0 mm 0.00 in0.0 mm
03:41 PM 33.7°F0.9°C 31.1°F-0.5°C 90% 13.0 mph NNW20.9 kmh NNW 15.0 mph24.1 kmh 29.52 in999.7 mb 0.00 in0.0 mm 0.00 in0.0 mm 0.00 in0.0 mm
03:42 PM 33.7°F0.9°C 31.1°F-0.5°C 90% 13.8 mph NNW22.2 kmh NNW 16.0 mph25.7 kmh 29.52 in999.7 mb 0.00 in0.0 mm 0.00 in0.0 mm 0.00 in0.0 mm
03:43 PM 33.8°F1.0°C 31.2°F-0.4°C 90% 13.6 mph NNW21.9 kmh NNW 16.0 mph25.7 kmh 29.52 in999.7 mb 0.00 in0.0 mm 0.00 in0.0 mm 0.00 in0.0 mm
03:44 PM 33.8°F1.0°C 31.2°F-0.4°C 90% 13.7 mph NNW22.0 kmh NNW 16.0 mph25.7 kmh 29.52 in999.7 mb 0.00 in0.0 mm 0.00 in0.0 mm 0.00 in0.0 mm
03:45 PM 33.8°F1.0°C 30.9°F-0.6°C 89% 13.7 mph NNW22.0 kmh NNW 16.0 mph25.7 kmh 29.52 in999.7 mb 0.00 in0.0 mm 0.00 in0.0 mm 0.00 in0.0 mm
03:46 PM 33.8°F1.0°C 31.2°F-0.4°C 90% 14.0 mph NNW22.5 kmh NNW 16.0 mph25.7 kmh 29.52 in999.7 mb 0.00 in0.0 mm 0.00 in0.0 mm 0.00 in0.0 mm
03:47 PM 33.9°F1.1°C 31.0°F-0.6°C 89% 13.6 mph NNW21.9 kmh NNW 16.0 mph25.7 kmh 29.52 in999.7 mb 0.00 in0.0 mm 0.00 in0.0 mm 0.00 in0.0 mm
03:48 PM 33.8°F1.0°C 30.9°F-0.6°C 89% 13.9 mph NNW22.4 kmh NNW 15.0 mph24.1 kmh 29.52 in999.7 mb 0.00 in0.0 mm 0.00 in0.0 mm 0.00 in0.0 mm
03:49 PM 33.9°F1.1°C 31.0°F-0.6°C 89% 14.0 mph NNW22.5 kmh NNW 15.0 mph24.1 kmh 29.52 in999.7 mb 0.00 in0.0 mm 0.00 in0.0 mm 0.00 in0.0 mm
03:50 PM 33.9°F1.1°C 31.0°F-0.6°C 89% 13.7 mph NNW22.0 kmh NNW 16.0 mph25.7 kmh 29.52 in999.7 mb 0.00 in0.0 mm 0.00 in0.0 mm 0.00 in0.0 mm
03:51 PM 33.8°F1.0°C 30.9°F-0.6°C 89% 14.1 mph NNW22.7 kmh NNW 16.0 mph25.7 kmh 29.52 in999.7 mb 0.00 in0.0 mm 0.00 in0.0 mm 0.00 in0.0 mm
03:52 PM 33.9°F1.1°C 31.0°F-0.6°C 89% 14.2 mph NNW22.9 kmh NNW 16.0 mph25.7 kmh 29.52 in999.7 mb 0.00 in0.0 mm 0.00 in0.0 mm 0.00 in0.0 mm
03:53 PM 33.8°F1.0°C 30.9°F-0.6°C 89% 14.9 mph NNW24.0 kmh NNW 16.0 mph25.7 kmh 29.52 in999.7 mb 0.00 in0.0 mm 0.00 in0.0 mm 0.00 in0.0 mm
03:54 PM 33.9°F1.1°C 31.0°F-0.6°C 89% 14.0 mph NNW22.5 kmh NNW 16.0 mph25.7 kmh 29.52 in999.7 mb 0.00 in0.0 mm 0.00 in0.0 mm 0.00 in0.0 mm
03:55 PM 33.8°F1.0°C 30.9°F-0.6°C 89% 14.3 mph NNW23.0 kmh NNW 15.0 mph24.1 kmh 29.52 in999.7 mb 0.00 in0.0 mm 0.00 in0.0 mm 0.00 in0.0 mm
03:56 PM 33.9°F1.1°C 31.0°F-0.6°C 89% 14.2 mph NNW22.9 kmh NNW 15.0 mph24.1 kmh 29.52 in999.7 mb 0.00 in0.0 mm 0.00 in0.0 mm 0.00 in0.0 mm
03:57 PM 33.9°F1.1°C 31.0°F-0.6°C 89% 13.9 mph NNW22.4 kmh NNW 15.0 mph24.1 kmh 29.53 in1000.0 mb 0.00 in0.0 mm 0.00 in0.0 mm 0.00 in0.0 mm
03:58 PM 33.8°F1.0°C 30.9°F-0.6°C 89% 13.6 mph NNW21.9 kmh NNW 15.0 mph24.1 kmh 29.53 in1000.0 mb 0.00 in0.0 mm 0.00 in0.0 mm 0.00 in0.0 mm
03:59 PM 33.8°F1.0°C 30.9°F-0.6°C 89% 12.9 mph NNW20.8 kmh NNW 15.0 mph24.1 kmh 29.53 in1000.0 mb 0.00 in0.0 mm 0.00 in0.0 mm 0.00 in0.0 mm
04:00 PM 33.8°F1.0°C 30.9°F-0.6°C 89% 12.7 mph NNW20.4 kmh NNW 15.0 mph24.1 kmh 29.53 in1000.0 mb 0.00 in0.0 mm 0.00 in0.0 mm 0.00 in0.0 mm
04:01 PM 33.8°F1.0°C 30.9°F-0.6°C 89% 13.2 mph NNW21.2 kmh NNW 15.0 mph24.1 kmh 29.53 in1000.0 mb 0.00 in0.0 mm 0.00 in0.0 mm 0.00 in0.0 mm
04:02 PM 33.8°F1.0°C 30.9°F-0.6°C 89% 14.4 mph NNW23.2 kmh NNW 16.0 mph25.7 kmh 29.53 in1000.0 mb 0.00 in0.0 mm 0.00 in0.0 mm 0.00 in0.0 mm
04:03 PM 33.8°F1.0°C 30.9°F-0.6°C 89% 14.6 mph NNW23.5 kmh NNW 16.0 mph25.7 kmh 29.53 in1000.0 mb 0.00 in0.0 mm 0.00 in0.0 mm 0.00 in0.0 mm
04:04 PM 33.8°F1.0°C 30.9°F-0.6°C 89% 15.3 mph NNW24.6 kmh NNW 16.0 mph25.7 kmh 29.53 in1000.0 mb 0.00 in0.0 mm 0.00 in0.0 mm 0.00 in0.0 mm
04:05 PM 33.8°F1.0°C 30.9°F-0.6°C 89% 14.8 mph NNW23.8 kmh NNW 16.0 mph25.7 kmh 29.53 in1000.0 mb 0.00 in0.0 mm 0.00 in0.0 mm 0.00 in0.0 mm
04:06 PM 33.8°F1.0°C 30.9°F-0.6°C 89% 15.1 mph NNW24.3 kmh NNW 16.0 mph25.7 kmh 29.53 in1000.0 mb 0.00 in0.0 mm 0.00 in0.0 mm 0.00 in0.0 mm
04:07 PM 33.8°F1.0°C 30.9°F-0.6°C 89% 14.6 mph NNW23.5 kmh NNW 16.0 mph25.7 kmh 29.53 in1000.0 mb 0.00 in0.0 mm 0.00 in0.0 mm 0.00 in0.0 mm
04:08 PM 33.8°F1.0°C 30.9°F-0.6°C 89% 13.9 mph NNW22.4 kmh NNW 16.0 mph25.7 kmh 29.53 in1000.0 mb 0.00 in0.0 mm 0.00 in0.0 mm 0.00 in0.0 mm
04:09 PM 33.7°F0.9°C 30.8°F-0.7°C 89% 13.9 mph NNW22.4 kmh NNW 16.0 mph25.7 kmh 29.53 in1000.0 mb 0.00 in0.0 mm 0.00 in0.0 mm 0.00 in0.0 mm
04:10 PM 33.8°F1.0°C 30.9°F-0.6°C 89% 14.0 mph NNW22.5 kmh NNW 17.0 mph27.4 kmh 29.53 in1000.0 mb 0.00 in0.0 mm 0.00 in0.0 mm 0.00 in0.0 mm
04:11 PM 33.8°F1.0°C 30.9°F-0.6°C 89% 14.4 mph NNW23.2 kmh NNW 17.0 mph27.4 kmh 29.53 in1000.0 mb 0.00 in0.0 mm 0.00 in0.0 mm 0.00 in0.0 mm
04:12 PM 33.8°F1.0°C 30.9°F-0.6°C 89% 15.6 mph NNW25.1 kmh NNW 17.0 mph27.4 kmh 29.53 in1000.0 mb 0.00 in0.0 mm 0.00 in0.0 mm 0.00 in0.0 mm
04:13 PM 33.7°F0.9°C 30.8°F-0.7°C 89% 15.0 mph NNW24.1 kmh NNW 17.0 mph27.4 kmh 29.53 in1000.0 mb 0.00 in0.0 mm 0.00 in0.0 mm 0.00 in0.0 mm
04:14 PM 33.8°F1.0°C 30.9°F-0.6°C 89% 14.5 mph NNW23.3 kmh NNW 17.0 mph27.4 kmh 29.53 in1000.0 mb 0.00 in0.0 mm 0.00 in0.0 mm 0.00 in0.0 mm
04:15 PM 33.8°F1.0°C 30.9°F-0.6°C 89% 14.4 mph NNW23.2 kmh NNW 16.0 mph25.7 kmh 29.53 in1000.0 mb 0.00 in0.0 mm 0.00 in0.0 mm 0.00 in0.0 mm
04:16 PM 33.8°F1.0°C 30.9°F-0.6°C 89% 14.8 mph NNW23.8 kmh NNW 16.0 mph25.7 kmh 29.53 in1000.0 mb 0.00 in0.0 mm 0.00 in0.0 mm 0.00 in0.0 mm
04:17 PM 33.8°F1.0°C 30.9°F-0.6°C 89% 14.7 mph NNW23.7 kmh NNW 17.0 mph27.4 kmh 29.53 in1000.0 mb 0.00 in0.0 mm 0.00 in0.0 mm 0.00 in0.0 mm
04:18 PM 33.7°F0.9°C 30.8°F-0.7°C 89% 15.2 mph NNW24.5 kmh NNW 17.0 mph27.4 kmh 29.53 in1000.0 mb 0.00 in0.0 mm 0.00 in0.0 mm 0.00 in0.0 mm
04:19 PM 33.8°F1.0°C 30.9°F-0.6°C 89% 14.2 mph NNW22.9 kmh NNW 16.0 mph25.7 kmh 29.53 in1000.0 mb 0.00 in0.0 mm 0.00 in0.0 mm 0.00 in0.0 mm
04:20 PM 33.7°F0.9°C 30.5°F-0.8°C 88% 15.0 mph NNW24.1 kmh NNW 17.0 mph27.4 kmh 29.54 in1000.3 mb 0.00 in0.0 mm 0.00 in0.0 mm 0.00 in0.0 mm
04:21 PM 33.8°F1.0°C 30.9°F-0.6°C 89% 15.5 mph NNW24.9 kmh NNW 17.0 mph27.4 kmh 29.54 in1000.3 mb 0.00 in0.0 mm 0.00 in0.0 mm 0.00 in0.0 mm
04:22 PM 33.8°F1.0°C 30.9°F-0.6°C 89% 15.1 mph NNW24.3 kmh NNW 17.0 mph27.4 kmh 29.53 in1000.0 mb 0.00 in0.0 mm 0.00 in0.0 mm 0.00 in0.0 mm
04:23 PM 33.7°F0.9°C 30.8°F-0.7°C 89% 15.9 mph NNW25.6 kmh NNW 17.0 mph27.4 kmh 29.54 in1000.3 mb 0.00 in0.0 mm 0.00 in0.0 mm 0.00 in0.0 mm
04:24 PM 33.7°F0.9°C 30.5°F-0.8°C 88% 15.6 mph NNW25.1 kmh NNW 18.0 mph29.0 kmh 29.54 in1000.3 mb 0.00 in0.0 mm 0.00 in0.0 mm 0.00 in0.0 mm
04:25 PM 33.7°F0.9°C 30.5°F-0.8°C 88% 15.4 mph NNW24.8 kmh NNW 18.0 mph29.0 kmh 29.54 in1000.3 mb 0.00 in0.0 mm 0.00 in0.0 mm 0.00 in0.0 mm
04:26 PM 33.8°F1.0°C 30.6°F-0.8°C 88% 14.4 mph NNW23.2 kmh NNW 17.0 mph27.4 kmh 29.54 in1000.3 mb 0.00 in0.0 mm 0.00 in0.0 mm 0.00 in0.0 mm
04:27 PM 33.7°F0.9°C 30.8°F-0.7°C 89% 14.4 mph NNW23.2 kmh NNW 16.0 mph25.7 kmh 29.54 in1000.3 mb 0.00 in0.0 mm 0.00 in0.0 mm 0.00 in0.0 mm
04:28 PM 33.8°F1.0°C 30.9°F-0.6°C 89% 14.4 mph NNW23.2 kmh NNW 16.0 mph25.7 kmh 29.54 in1000.3 mb 0.00 in0.0 mm 0.00 in0.0 mm 0.00 in0.0 mm
04:29 PM 33.8°F1.0°C 30.9°F-0.6°C 89% 15.0 mph NNW24.1 kmh NNW 17.0 mph27.4 kmh 29.54 in1000.3 mb 0.00 in0.0 mm 0.00 in0.0 mm 0.00 in0.0 mm
04:30 PM 33.8°F1.0°C 30.9°F-0.6°C 89% 15.1 mph NNW24.3 kmh NNW 17.0 mph27.4 kmh 29.54 in1000.3 mb 0.00 in0.0 mm 0.00 in0.0 mm 0.00 in0.0 mm
04:31 PM 33.8°F1.0°C 30.9°F-0.6°C 89% 14.5 mph NNW23.3 kmh NNW 16.0 mph25.7 kmh 29.54 in1000.3 mb 0.00 in0.0 mm 0.00 in0.0 mm 0.00 in0.0 mm
04:32 PM 33.8°F1.0°C 30.6°F-0.8°C 88% 14.7 mph NNW23.7 kmh NNW 16.0 mph25.7 kmh 29.54 in1000.3 mb 0.00 in0.0 mm 0.00 in0.0 mm 0.00 in0.0 mm
04:33 PM 33.8°F1.0°C 30.6°F-0.8°C 88% 14.1 mph NNW22.7 kmh NNW 16.0 mph25.7 kmh 29.54 in1000.3 mb 0.00 in0.0 mm 0.00 in0.0 mm 0.00 in0.0 mm
04:34 PM 33.8°F1.0°C 30.6°F-0.8°C 88% 13.7 mph NNW22.0 kmh NNW 16.0 mph25.7 kmh 29.54 in1000.3 mb 0.00 in0.0 mm 0.00 in0.0 mm 0.00 in0.0 mm
04:35 PM 33.8°F1.0°C 30.6°F-0.8°C 88% 13.1 mph NNW21.1 kmh NNW 15.0 mph24.1 kmh 29.54 in1000.3 mb 0.00 in0.0 mm 0.00 in0.0 mm 0.00 in0.0 mm
04:36 PM 33.8°F1.0°C 30.6°F-0.8°C 88% 13.2 mph NNW21.2 kmh NNW 15.0 mph24.1 kmh 29.54 in1000.3 mb 0.00 in0.0 mm 0.00 in0.0 mm 0.00 in0.0 mm
04:37 PM 33.8°F1.0°C 30.6°F-0.8°C 88% 12.6 mph NNW20.3 kmh NNW 15.0 mph24.1 kmh 29.54 in1000.3 mb 0.00 in0.0 mm 0.00 in0.0 mm 0.00 in0.0 mm
04:38 PM 33.7°F0.9°C 30.5°F-0.8°C 88% 13.3 mph NNW21.4 kmh NNW 15.0 mph24.1 kmh 29.54 in1000.3 mb 0.00 in0.0 mm 0.00 in0.0 mm 0.00 in0.0 mm
04:39 PM 33.8°F1.0°C 30.6°F-0.8°C 88% 14.2 mph NNW22.9 kmh NNW 16.0 mph25.7 kmh 29.54 in1000.3 mb 0.00 in0.0 mm 0.00 in0.0 mm 0.00 in0.0 mm
04:40 PM 33.8°F1.0°C 30.6°F-0.8°C 88% 14.4 mph NNW23.2 kmh NNW 16.0 mph25.7 kmh 29.54 in1000.3 mb 0.00 in0.0 mm 0.00 in0.0 mm 0.00 in0.0 mm
04:41 PM 33.7°F0.9°C 30.5°F-0.8°C 88% 13.8 mph NNW22.2 kmh NNW 16.0 mph25.7 kmh 29.54 in1000.3 mb 0.00 in0.0 mm 0.00 in0.0 mm 0.00 in0.0 mm
04:42 PM 33.7°F0.9°C 30.5°F-0.8°C 88% 15.5 mph NNW24.9 kmh NNW 17.0 mph27.4 kmh 29.54 in1000.3 mb 0.00 in0.0 mm 0.00 in0.0 mm 0.00 in0.0 mm
04:43 PM 33.7°F0.9°C 30.5°F-0.8°C 88% 15.6 mph NNW25.1 kmh NNW 17.0 mph27.4 kmh 29.55 in1000.7 mb 0.00 in0.0 mm 0.00 in0.0 mm 0.00 in0.0 mm
04:44 PM 33.7°F0.9°C 30.5°F-0.8°C 88% 15.4 mph NNW24.8 kmh NNW 17.0 mph27.4 kmh 29.55 in1000.7 mb 0.00 in0.0 mm 0.00 in0.0 mm 0.00 in0.0 mm
04:45 PM 33.7°F0.9°C 30.5°F-0.8°C 88% 14.9 mph NNW24.0 kmh NNW 17.0 mph27.4 kmh 29.55 in1000.7 mb 0.00 in0.0 mm 0.00 in0.0 mm 0.00 in0.0 mm
04:46 PM 33.7°F0.9°C 30.5°F-0.8°C 88% 15.4 mph NNW24.8 kmh NNW 17.0 mph27.4 kmh 29.55 in1000.7 mb 0.00 in0.0 mm 0.00 in0.0 mm 0.00 in0.0 mm
04:47 PM 33.7°F0.9°C 30.5°F-0.8°C 88% 15.6 mph NNW25.1 kmh NNW 17.0 mph27.4 kmh 29.55 in1000.7 mb 0.00 in0.0 mm 0.00 in0.0 mm 0.00 in0.0 mm
04:48 PM 33.7°F0.9°C 30.5°F-0.8°C 88% 15.2 mph NNW24.5 kmh NNW 17.0 mph27.4 kmh 29.55 in1000.7 mb 0.00 in0.0 mm 0.00 in0.0 mm 0.00 in0.0 mm
04:49 PM 33.7°F0.9°C 30.5°F-0.8°C 88% 14.8 mph NNW23.8 kmh NNW 17.0 mph27.4 kmh 29.55 in1000.7 mb 0.00 in0.0 mm 0.00 in0.0 mm 0.00 in0.0 mm
04:50 PM 33.7°F0.9°C 30.5°F-0.8°C 88% 14.2 mph NNW22.9 kmh NNW 16.0 mph25.7 kmh 29.55 in1000.7 mb 0.00 in0.0 mm 0.00 in0.0 mm 0.00 in0.0 mm
04:51 PM 33.7°F0.9°C 30.5°F-0.8°C 88% 14.2 mph NNW22.9 kmh NNW 15.0 mph24.1 kmh 29.55 in1000.7 mb 0.00 in0.0 mm 0.00 in0.0 mm 0.00 in0.0 mm
04:52 PM 33.7°F0.9°C 30.5°F-0.8°C 88% 14.0 mph NNW22.5 kmh NNW 15.0 mph24.1 kmh 29.55 in1000.7 mb 0.00 in0.0 mm 0.00 in0.0 mm 0.00 in0.0 mm
04:53 PM 33.7°F0.9°C 30.5°F-0.8°C 88% 13.8 mph NNW22.2 kmh NNW 15.0 mph24.1 kmh 29.55 in1000.7 mb 0.00 in0.0 mm 0.00 in0.0 mm 0.00 in0.0 mm
04:54 PM 33.7°F0.9°C 30.5°F-0.8°C 88% 13.9 mph NNW22.4 kmh NNW 16.0 mph25.7 kmh 29.55 in1000.7 mb 0.00 in0.0 mm 0.00 in0.0 mm 0.00 in0.0 mm
04:55 PM 33.7°F0.9°C 30.5°F-0.8°C 88% 14.3 mph NNW23.0 kmh NNW 16.0 mph25.7 kmh 29.55 in1000.7 mb 0.00 in0.0 mm 0.00 in0.0 mm 0.00 in0.0 mm
04:56 PM 33.7°F0.9°C 30.5°F-0.8°C 88% 13.5 mph NNW21.7 kmh NNW 16.0 mph25.7 kmh 29.55 in1000.7 mb 0.00 in0.0 mm 0.00 in0.0 mm 0.00 in0.0 mm
04:57 PM 33.7°F0.9°C 30.5°F-0.8°C 88% 14.5 mph NNW23.3 kmh NNW 16.0 mph25.7 kmh 29.55 in1000.7 mb 0.00 in0.0 mm 0.00 in0.0 mm 0.00 in0.0 mm
04:58 PM 33.7°F0.9°C 30.5°F-0.8°C 88% 14.1 mph NNW22.7 kmh NNW 16.0 mph25.7 kmh 29.55 in1000.7 mb 0.00 in0.0 mm 0.00 in0.0 mm 0.00 in0.0 mm
04:59 PM 33.7°F0.9°C 30.5°F-0.8°C 88% 14.2 mph NNW22.9 kmh NNW 16.0 mph25.7 kmh 29.55 in1000.7 mb 0.00 in0.0 mm 0.00 in0.0 mm 0.00 in0.0 mm
05:00 PM 33.7°F0.9°C 30.5°F-0.8°C 88% 14.5 mph NNW23.3 kmh NNW 16.0 mph25.7 kmh 29.55 in1000.7 mb 0.00 in0.0 mm 0.00 in0.0 mm 0.00 in0.0 mm
05:01 PM 33.7°F0.9°C 30.5°F-0.8°C 88% 14.0 mph NNW22.5 kmh NNW 16.0 mph25.7 kmh 29.56 in1001.0 mb 0.00 in0.0 mm 0.00 in0.0 mm 0.00 in0.0 mm
05:02 PM 33.7°F0.9°C 30.5°F-0.8°C 88% 14.0 mph NNW22.5 kmh NNW 16.0 mph25.7 kmh 29.56 in1001.0 mb 0.00 in0.0 mm 0.00 in0.0 mm 0.00 in0.0 mm
05:03 PM 33.7°F0.9°C 30.5°F-0.8°C 88% 13.9 mph NNW22.4 kmh NNW 16.0 mph25.7 kmh 29.56 in1001.0 mb 0.00 in0.0 mm 0.00 in0.0 mm 0.00 in0.0 mm
05:04 PM 33.7°F0.9°C 30.5°F-0.8°C 88% 13.3 mph NNW21.4 kmh NNW 15.0 mph24.1 kmh 29.56 in1001.0 mb 0.00 in0.0 mm 0.00 in0.0 mm 0.00 in0.0 mm
05:05 PM 33.7°F0.9°C 30.5°F-0.8°C 88% 13.9 mph NNW22.4 kmh NNW 15.0 mph24.1 kmh 29.56 in1001.0 mb 0.00 in0.0 mm 0.00 in0.0 mm 0.00 in0.0 mm
05:06 PM 33.7°F0.9°C 30.8°F-0.7°C 89% 13.7 mph NNW22.0 kmh NNW 15.0 mph24.1 kmh 29.56 in1001.0 mb 0.00 in0.0 mm 0.00 in0.0 mm 0.00 in0.0 mm
05:07 PM 33.7°F0.9°C 30.8°F-0.7°C 89% 14.0 mph NNW22.5 kmh NNW 15.0 mph24.1 kmh 29.56 in1001.0 mb 0.00 in0.0 mm 0.00 in0.0 mm 0.00 in0.0 mm
05:08 PM 33.6°F0.9°C 30.4°F-0.9°C 88% 13.7 mph NNW22.0 kmh NNW 15.0 mph24.1 kmh 29.56 in1001.0 mb 0.00 in0.0 mm 0.00 in0.0 mm 0.00 in0.0 mm
05:09 PM 33.6°F0.9°C 30.4°F-0.9°C 88% 13.5 mph NNW21.7 kmh NNW 15.0 mph24.1 kmh 29.56 in1001.0 mb 0.00 in0.0 mm 0.00 in0.0 mm 0.00 in0.0 mm
05:10 PM 33.6°F0.9°C 30.4°F-0.9°C 88% 13.8 mph NNW22.2 kmh NNW 15.0 mph24.1 kmh 29.56 in1001.0 mb 0.00 in0.0 mm 0.00 in0.0 mm 0.00 in0.0 mm
05:11 PM 33.6°F0.9°C 30.4°F-0.9°C 88% 13.4 mph NNW21.6 kmh NNW 15.0 mph24.1 kmh 29.56 in1001.0 mb 0.00 in0.0 mm 0.00 in0.0 mm 0.00 in0.0 mm
05:12 PM 33.6°F0.9°C 30.4°F-0.9°C 88% 13.0 mph NNW20.9 kmh NNW 14.0 mph22.5 kmh 29.56 in1001.0 mb 0.00 in0.0 mm 0.00 in0.0 mm 0.00 in0.0 mm
05:13 PM 33.6°F0.9°C 30.4°F-0.9°C 88% 12.6 mph NNW20.3 kmh NNW 14.0 mph22.5 kmh 29.56 in1001.0 mb 0.00 in0.0 mm 0.00 in0.0 mm 0.00 in0.0 mm
05:14 PM 33.6°F0.9°C 30.4°F-0.9°C 88% 12.9 mph NNW20.8 kmh NNW 14.0 mph22.5 kmh 29.56 in1001.0 mb 0.00 in0.0 mm 0.00 in0.0 mm 0.00 in0.0 mm
05:15 PM 33.6°F0.9°C 30.4°F-0.9°C 88% 12.8 mph NNW20.6 kmh NNW 14.0 mph22.5 kmh 29.57 in1001.4 mb 0.00 in0.0 mm 0.00 in0.0 mm 0.00 in0.0 mm
05:16 PM 33.6°F0.9°C 30.4°F-0.9°C 88% 13.1 mph NNW21.1 kmh NNW 14.0 mph22.5 kmh 29.56 in1001.0 mb 0.00 in0.0 mm 0.00 in0.0 mm 0.00 in0.0 mm
05:17 PM 33.6°F0.9°C 30.4°F-0.9°C 88% 13.1 mph NNW21.1 kmh NNW 14.0 mph22.5 kmh 29.57 in1001.4 mb 0.00 in0.0 mm 0.00 in0.0 mm 0.00 in0.0 mm
05:18 PM 33.6°F0.9°C 30.4°F-0.9°C 88% 12.7 mph NNW20.4 kmh NNW 14.0 mph22.5 kmh 29.57 in1001.4 mb 0.00 in0.0 mm 0.00 in0.0 mm 0.00 in0.0 mm
05:19 PM 33.6°F0.9°C 30.4°F-0.9°C 88% 12.5 mph NNW20.1 kmh NNW 14.0 mph22.5 kmh 29.57 in1001.4 mb 0.00 in0.0 mm 0.00 in0.0 mm 0.00 in0.0 mm
05:20 PM 33.6°F0.9°C 30.4°F-0.9°C 88% 12.5 mph NNW20.1 kmh NNW 15.0 mph24.1 kmh 29.57 in1001.4 mb 0.00 in0.0 mm 0.00 in0.0 mm 0.00 in0.0 mm
05:21 PM 33.6°F0.9°C 30.4°F-0.9°C 88% 12.0 mph NNW19.3 kmh NNW 15.0 mph24.1 kmh 29.57 in1001.4 mb 0.00 in0.0 mm 0.00 in0.0 mm 0.00 in0.0 mm
05:22 PM 33.6°F0.9°C 30.4°F-0.9°C 88% 12.2 mph NNW19.6 kmh NNW 14.0 mph22.5 kmh 29.57 in1001.4 mb 0.00 in0.0 mm 0.00 in0.0 mm 0.00 in0.0 mm
05:23 PM 33.6°F0.9°C 30.4°F-0.9°C 88% 13.1 mph NNW21.1 kmh NNW 16.0 mph25.7 kmh 29.57 in1001.4 mb 0.00 in0.0 mm 0.00 in0.0 mm 0.00 in0.0 mm
05:24 PM 33.6°F0.9°C 30.7°F-0.7°C 89% 12.9 mph NNW20.8 kmh NNW 16.0 mph25.7 kmh 29.57 in1001.4 mb 0.00 in0.0 mm 0.00 in0.0 mm 0.00 in0.0 mm
05:25 PM 33.6°F0.9°C 30.7°F-0.7°C 89% 14.0 mph NNW22.5 kmh NNW 15.0 mph24.1 kmh 29.57 in1001.4 mb 0.00 in0.0 mm 0.00 in0.0 mm 0.00 in0.0 mm
05:26 PM 33.7°F0.9°C 30.8°F-0.7°C 89% 13.4 mph NNW21.6 kmh NNW 15.0 mph24.1 kmh 29.57 in1001.4 mb 0.00 in0.0 mm 0.00 in0.0 mm 0.00 in0.0 mm
05:27 PM 33.8°F1.0°C 30.9°F-0.6°C 89% 13.6 mph NNW21.9 kmh NNW 15.0 mph24.1 kmh 29.57 in1001.4 mb 0.00 in0.0 mm 0.00 in0.0 mm 0.00 in0.0 mm
05:28 PM 33.7°F0.9°C 30.5°F-0.8°C 88% 13.9 mph NNW22.4 kmh NNW 15.0 mph24.1 kmh 29.57 in1001.4 mb 0.00 in0.0 mm 0.00 in0.0 mm 0.00 in0.0 mm
05:29 PM 33.7°F0.9°C 30.5°F-0.8°C 88% 13.3 mph NNW21.4 kmh NNW 15.0 mph24.1 kmh 29.57 in1001.4 mb 0.00 in0.0 mm 0.00 in0.0 mm 0.00 in0.0 mm
05:30 PM 33.7°F0.9°C 30.5°F-0.8°C 88% 13.5 mph NNW21.7 kmh NNW 15.0 mph24.1 kmh 29.57 in1001.4 mb 0.00 in0.0 mm 0.00 in0.0 mm 0.00 in0.0 mm
05:31 PM 33.7°F0.9°C 30.5°F-0.8°C 88% 13.2 mph NNW21.2 kmh NNW 15.0 mph24.1 kmh 29.57 in1001.4 mb 0.00 in0.0 mm 0.00 in0.0 mm 0.00 in0.0 mm
05:32 PM 33.7°F0.9°C 30.5°F-0.8°C 88% 12.1 mph NNW19.5 kmh NNW 14.0 mph22.5 kmh 29.57 in1001.4 mb 0.00 in0.0 mm 0.00 in0.0 mm 0.00 in0.0 mm
05:33 PM 33.7°F0.9°C 30.5°F-0.8°C 88% 12.3 mph NNW19.8 kmh NNW 14.0 mph22.5 kmh 29.57 in1001.4 mb 0.00 in0.0 mm 0.00 in0.0 mm 0.00 in0.0 mm
05:34 PM 33.7°F0.9°C 30.5°F-0.8°C 88% 11.7 mph NNW18.8 kmh NNW 14.0 mph22.5 kmh 29.57 in1001.4 mb 0.00 in0.0 mm 0.00 in0.0 mm 0.00 in0.0 mm
05:35 PM 33.6°F0.9°C 30.4°F-0.9°C 88% 12.3 mph NNW19.8 kmh NNW 14.0 mph22.5 kmh 29.57 in1001.4 mb 0.00 in0.0 mm 0.00 in0.0 mm 0.00 in0.0 mm
05:36 PM 33.6°F0.9°C 30.4°F-0.9°C 88% 12.0 mph N19.3 kmh N 14.0 mph22.5 kmh 29.57 in1001.4 mb 0.00 in0.0 mm 0.00 in0.0 mm 0.00 in0.0 mm
05:37 PM 33.7°F0.9°C 30.5°F-0.8°C 88% 11.4 mph N18.3 kmh N 14.0 mph22.5 kmh 29.57 in1001.4 mb 0.00 in0.0 mm 0.00 in0.0 mm 0.00 in0.0 mm
05:38 PM 33.7°F0.9°C 30.5°F-0.8°C 88% 11.7 mph NNW18.8 kmh NNW 13.0 mph20.9 kmh 29.57 in1001.4 mb 0.00 in0.0 mm 0.00 in0.0 mm 0.00 in0.0 mm
05:39 PM 33.7°F0.9°C 30.5°F-0.8°C 88% 12.7 mph N20.4 kmh N 14.0 mph22.5 kmh 29.58 in1001.7 mb 0.00 in0.0 mm 0.00 in0.0 mm 0.00 in0.0 mm
05:40 PM 33.7°F0.9°C 30.5°F-0.8°C 88% 12.6 mph N20.3 kmh N 15.0 mph24.1 kmh 29.57 in1001.4 mb 0.00 in0.0 mm 0.00 in0.0 mm 0.00 in0.0 mm
05:41 PM 33.7°F0.9°C 30.5°F-0.8°C 88% 13.0 mph N20.9 kmh N 15.0 mph24.1 kmh 29.57 in1001.4 mb 0.00 in0.0 mm 0.00 in0.0 mm 0.00 in0.0 mm
05:42 PM 33.7°F0.9°C 30.5°F-0.8°C 88% 12.4 mph N20.0 kmh N 15.0 mph24.1 kmh 29.58 in1001.7 mb 0.00 in0.0 mm 0.00 in0.0 mm 0.00 in0.0 mm
05:43 PM 33.7°F0.9°C 30.5°F-0.8°C 88% 12.7 mph N20.4 kmh N 14.0 mph22.5 kmh 29.58 in1001.7 mb 0.00 in0.0 mm 0.00 in0.0 mm 0.00 in0.0 mm
05:44 PM 33.8°F1.0°C 30.6°F-0.8°C 88% 13.5 mph N21.7 kmh N 15.0 mph24.1 kmh 29.58 in1001.7 mb 0.00 in0.0 mm 0.00 in0.0 mm 0.00 in0.0 mm
05:45 PM 33.8°F1.0°C 30.6°F-0.8°C 88% 12.9 mph N20.8 kmh N 15.0 mph24.1 kmh 29.58 in1001.7 mb 0.00 in0.0 mm 0.00 in0.0 mm 0.00 in0.0 mm
05:46 PM 33.7°F0.9°C 30.5°F-0.8°C 88% 13.2 mph NNW21.2 kmh NNW 15.0 mph24.1 kmh 29.58 in1001.7 mb 0.00 in0.0 mm 0.00 in0.0 mm 0.00 in0.0 mm
05:47 PM 33.8°F1.0°C 30.6°F-0.8°C 88% 13.2 mph NNW21.2 kmh NNW 14.0 mph22.5 kmh 29.58 in1001.7 mb 0.00 in0.0 mm 0.00 in0.0 mm 0.00 in0.0 mm
05:48 PM 33.7°F0.9°C 30.5°F-0.8°C 88% 11.9 mph N19.2 kmh N 14.0 mph22.5 kmh 29.58 in1001.7 mb 0.00 in0.0 mm 0.00 in0.0 mm 0.00 in0.0 mm
05:49 PM 33.7°F0.9°C 30.5°F-0.8°C 88% 11.5 mph N18.5 kmh N 13.0 mph20.9 kmh 29.58 in1001.7 mb 0.00 in0.0 mm 0.00 in0.0 mm 0.00 in0.0 mm
05:50 PM 33.6°F0.9°C 30.4°F-0.9°C 88% 11.5 mph NNW18.5 kmh NNW 13.0 mph20.9 kmh 29.58 in1001.7 mb 0.00 in0.0 mm 0.00 in0.0 mm 0.00 in0.0 mm
05:51 PM 33.6°F0.9°C 30.4°F-0.9°C 88% 11.5 mph N18.5 kmh N 13.0 mph20.9 kmh 29.58 in1001.7 mb 0.00 in0.0 mm 0.00 in0.0 mm 0.00 in0.0 mm
05:52 PM 33.6°F0.9°C 30.4°F-0.9°C 88% 11.5 mph N18.5 kmh N 13.0 mph20.9 kmh 29.58 in1001.7 mb 0.00 in0.0 mm 0.00 in0.0 mm 0.00 in0.0 mm
05:53 PM 33.5°F0.8°C 30.3°F-0.9°C 88% 10.9 mph NNW17.5 kmh NNW 13.0 mph20.9 kmh 29.58 in1001.7 mb 0.00 in0.0 mm 0.00 in0.0 mm 0.00 in0.0 mm
05:54 PM 33.5°F0.8°C 30.3°F-0.9°C 88% 11.4 mph N18.3 kmh N 13.0 mph20.9 kmh 29.58 in1001.7 mb 0.00 in0.0 mm 0.00 in0.0 mm 0.00 in0.0 mm
05:55 PM 33.5°F0.8°C 30.3°F-0.9°C 88% 11.7 mph N18.8 kmh N 13.0 mph20.9 kmh 29.58 in1001.7 mb 0.00 in0.0 mm 0.00 in0.0 mm 0.00 in0.0 mm
05:56 PM 33.4°F0.8°C 30.2°F-1.0°C 88% 11.7 mph N18.8 kmh N 13.0 mph20.9 kmh 29.58 in1001.7 mb 0.00 in0.0 mm 0.00 in0.0 mm 0.00 in0.0 mm
05:57 PM 33.4°F0.8°C 30.2°F-1.0°C 88% 11.5 mph NNW18.5 kmh NNW 12.0 mph19.3 kmh 29.58 in1001.7 mb 0.00 in0.0 mm 0.00 in0.0 mm 0.00 in0.0 mm
05:58 PM 33.4°F0.8°C 30.2°F-1.0°C 88% 11.4 mph NNW18.3 kmh NNW 13.0 mph20.9 kmh 29.59 in1002.0 mb 0.00 in0.0 mm 0.00 in0.0 mm 0.00 in0.0 mm
05:59 PM 33.4°F0.8°C 30.2°F-1.0°C 88% 10.7 mph N17.2 kmh N 13.0 mph20.9 kmh 29.59 in1002.0 mb 0.00 in0.0 mm 0.00 in0.0 mm 0.00 in0.0 mm
06:00 PM 33.3°F0.7°C 30.1°F-1.1°C 88% 10.7 mph NNW17.2 kmh NNW 12.0 mph19.3 kmh 29.59 in1002.0 mb 0.00 in0.0 mm 0.00 in0.0 mm 0.00 in0.0 mm
06:01 PM 33.3°F0.7°C 30.1°F-1.1°C 88% 9.7 mph NNW15.6 kmh NNW 12.0 mph19.3 kmh 29.59 in1002.0 mb 0.00 in0.0 mm 0.00 in0.0 mm 0.00 in0.0 mm
06:02 PM 33.3°F0.7°C 30.1°F-1.1°C 88% 9.2 mph NNW14.8 kmh NNW 11.0 mph17.7 kmh 29.59 in1002.0 mb 0.00 in0.0 mm 0.00 in0.0 mm 0.00 in0.0 mm
06:03 PM 33.3°F0.7°C 30.1°F-1.1°C 88% 8.6 mph NNW13.8 kmh NNW 10.0 mph16.1 kmh 29.59 in1002.0 mb 0.00 in0.0 mm 0.00 in0.0 mm 0.00 in0.0 mm
06:04 PM 33.3°F0.7°C 30.1°F-1.1°C 88% 8.5 mph NNW13.7 kmh NNW 9.0 mph14.5 kmh 29.59 in1002.0 mb 0.00 in0.0 mm 0.00 in0.0 mm 0.00 in0.0 mm
06:05 PM 33.2°F0.7°C 30.0°F-1.1°C 88% 7.4 mph NNW11.9 kmh NNW 9.0 mph14.5 kmh 29.59 in1002.0 mb 0.00 in0.0 mm 0.00 in0.0 mm 0.00 in0.0 mm
06:06 PM 33.2°F0.7°C 30.0°F-1.1°C 88% 7.9 mph NNW12.7 kmh NNW 9.0 mph14.5 kmh 29.59 in1002.0 mb 0.00 in0.0 mm 0.00 in0.0 mm 0.00 in0.0 mm
06:07 PM 33.1°F0.6°C 29.9°F-1.2°C 88% 7.9 mph NNW12.7 kmh NNW 9.0 mph14.5 kmh 29.59 in1002.0 mb 0.00 in0.0 mm 0.00 in0.0 mm 0.00 in0.0 mm
06:08 PM 33.2°F0.7°C 30.0°F-1.1°C 88% 7.8 mph NNW12.6 kmh NNW 9.0 mph14.5 kmh 29.59 in1002.0 mb 0.00 in0.0 mm 0.00 in0.0 mm 0.00 in0.0 mm
06:09 PM 33.2°F0.7°C 30.0°F-1.1°C 88% 7.9 mph NNW12.7 kmh NNW 9.0 mph14.5 kmh 29.59 in1002.0 mb 0.00 in0.0 mm 0.00 in0.0 mm 0.00 in0.0 mm
06:10 PM 33.1°F0.6°C 29.9°F-1.2°C 88% 6.6 mph NNW10.6 kmh NNW 9.0 mph14.5 kmh 29.59 in1002.0 mb 0.00 in0.0 mm 0.00 in0.0 mm 0.00 in0.0 mm
06:11 PM 33.1°F0.6°C 30.2°F-1.0°C 89% 6.6 mph NNW10.6 kmh NNW 8.0 mph12.9 kmh 29.59 in1002.0 mb 0.00 in0.0 mm 0.00 in0.0 mm 0.00 in0.0 mm
06:12 PM 33.1°F0.6°C 29.9°F-1.2°C 88% 6.8 mph NNW10.9 kmh NNW 9.0 mph14.5 kmh 29.59 in1002.0 mb 0.00 in0.0 mm 0.00 in0.0 mm 0.00 in0.0 mm
06:13 PM 33.0°F0.6°C 29.8°F-1.2°C 88% 6.7 mph N10.8 kmh N 9.0 mph14.5 kmh 29.59 in1002.0 mb 0.00 in0.0 mm 0.00 in0.0 mm 0.00 in0.0 mm
06:14 PM 33.1°F0.6°C 30.2°F-1.0°C 89% 6.9 mph N11.1 kmh N 9.0 mph14.5 kmh 29.59 in1002.0 mb 0.00 in0.0 mm 0.00 in0.0 mm 0.00 in0.0 mm
06:15 PM 33.1°F0.6°C 30.2°F-1.0°C 89% 5.5 mph N8.9 kmh N 9.0 mph14.5 kmh 29.59 in1002.0 mb 0.00 in0.0 mm 0.00 in0.0 mm 0.00 in0.0 mm
06:16 PM 33.0°F0.6°C 30.1°F-1.1°C 89% 5.9 mph N9.5 kmh N 9.0 mph14.5 kmh 29.59 in1002.0 mb 0.00 in0.0 mm 0.00 in0.0 mm 0.00 in0.0 mm
06:17 PM 33.1°F0.6°C 30.2°F-1.0°C 89% 5.5 mph N8.9 kmh N 9.0 mph14.5 kmh 29.59 in1002.0 mb 0.00 in0.0 mm 0.00 in0.0 mm 0.00 in0.0 mm
06:18 PM 33.0°F0.6°C 30.1°F-1.1°C 89% 6.2 mph N10.0 kmh N 9.0 mph14.5 kmh 29.59 in1002.0 mb 0.00 in0.0 mm 0.00 in0.0 mm 0.00 in0.0 mm
06:19 PM 33.1°F0.6°C 30.2°F-1.0°C 89% 7.3 mph N11.7 kmh N 9.0 mph14.5 kmh 29.59 in1002.0 mb 0.00 in0.0 mm 0.00 in0.0 mm 0.00 in0.0 mm
06:20 PM 33.0°F0.6°C 30.1°F-1.1°C 89% 7.0 mph N11.3 kmh N 9.0 mph14.5 kmh 29.59 in1002.0 mb 0.00 in0.0 mm 0.00 in0.0 mm 0.00 in0.0 mm
06:21 PM 33.0°F0.6°C 30.1°F-1.1°C 89% 7.7 mph N12.4 kmh N 10.0 mph16.1 kmh 29.59 in1002.0 mb 0.00 in0.0 mm 0.00 in0.0 mm 0.00 in0.0 mm
06:22 PM 33.1°F0.6°C 30.2°F-1.0°C 89% 7.6 mph N12.2 kmh N 10.0 mph16.1 kmh 29.60 in1002.4 mb 0.00 in0.0 mm 0.00 in0.0 mm 0.00 in0.0 mm
06:23 PM 33.1°F0.6°C 30.2°F-1.0°C 89% 8.2 mph N13.2 kmh N 11.0 mph17.7 kmh 29.60 in1002.4 mb 0.00 in0.0 mm 0.00 in0.0 mm 0.00 in0.0 mm
06:24 PM 33.1°F0.6°C 30.2°F-1.0°C 89% 8.3 mph N13.4 kmh N 11.0 mph17.7 kmh 29.60 in1002.4 mb 0.00 in0.0 mm 0.00 in0.0 mm 0.00 in0.0 mm
06:25 PM 33.1°F0.6°C 30.2°F-1.0°C 89% 7.9 mph N12.7 kmh N 10.0 mph16.1 kmh 29.60 in1002.4 mb 0.00 in0.0 mm 0.00 in0.0 mm 0.00 in0.0 mm
06:26 PM 33.2°F0.7°C 30.3°F-0.9°C 89% 8.7 mph N14.0 kmh N 11.0 mph17.7 kmh 29.60 in1002.4 mb 0.00 in0.0 mm 0.00 in0.0 mm 0.00 in0.0 mm
06:27 PM 33.2°F0.7°C 30.3°F-0.9°C 89% 7.5 mph N12.1 kmh N 11.0 mph17.7 kmh 29.60 in1002.4 mb 0.00 in0.0 mm 0.00 in0.0 mm 0.00 in0.0 mm
06:28 PM 33.2°F0.7°C 30.3°F-0.9°C 89% 9.3 mph N15.0 kmh N 10.0 mph16.1 kmh 29.60 in1002.4 mb 0.00 in0.0 mm 0.00 in0.0 mm 0.00 in0.0 mm
06:29 PM 33.2°F0.7°C 30.3°F-0.9°C 89% 7.5 mph N12.1 kmh N 10.0 mph16.1 kmh 29.60 in1002.4 mb 0.00 in0.0 mm 0.00 in0.0 mm 0.00 in0.0 mm
06:30 PM 33.2°F0.7°C 30.3°F-0.9°C 89% 7.8 mph N12.6 kmh N 10.0 mph16.1 kmh 29.60 in1002.4 mb 0.00 in0.0 mm 0.00 in0.0 mm 0.00 in0.0 mm
06:31 PM 33.3°F0.7°C 30.4°F-0.9°C 89% 7.5 mph N12.1 kmh N 10.0 mph16.1 kmh 29.60 in1002.4 mb 0.00 in0.0 mm 0.00 in0.0 mm 0.00 in0.0 mm
06:32 PM 33.2°F0.7°C 30.3°F-0.9°C 89% 7.4 mph N11.9 kmh N 10.0 mph16.1 kmh 29.60 in1002.4 mb 0.00 in0.0 mm 0.00 in0.0 mm 0.00 in0.0 mm
06:33 PM 33.2°F0.7°C 30.0°F-1.1°C 88% 8.5 mph N13.7 kmh N 10.0 mph16.1 kmh 29.60 in1002.4 mb 0.00 in0.0 mm 0.00 in0.0 mm 0.00 in0.0 mm
06:34 PM 33.2°F0.7°C 30.0°F-1.1°C 88% 8.1 mph N13.0 kmh N 10.0 mph16.1 kmh 29.60 in1002.4 mb 0.00 in0.0 mm 0.00 in0.0 mm 0.00 in0.0 mm
06:35 PM 33.2°F0.7°C 30.0°F-1.1°C 88% 8.8 mph N14.2 kmh N 10.0 mph16.1 kmh 29.60 in1002.4 mb 0.00 in0.0 mm 0.00 in0.0 mm 0.00 in0.0 mm
06:36 PM 33.2°F0.7°C 30.0°F-1.1°C 88% 8.2 mph N13.2 kmh N 10.0 mph16.1 kmh 29.60 in1002.4 mb 0.00 in0.0 mm 0.00 in0.0 mm 0.00 in0.0 mm
06:37 PM 33.2°F0.7°C 30.3°F-0.9°C 89% 7.5 mph N12.1 kmh N 10.0 mph16.1 kmh 29.60 in1002.4 mb 0.00 in0.0 mm 0.00 in0.0 mm 0.00 in0.0 mm
06:38 PM 33.2°F0.7°C 30.3°F-0.9°C 89% 8.0 mph N12.9 kmh N 11.0 mph17.7 kmh 29.60 in1002.4 mb 0.00 in0.0 mm 0.00 in0.0 mm 0.00 in0.0 mm
06:39 PM 33.1°F0.6°C 29.9°F-1.2°C 88% 8.2 mph N13.2 kmh N 11.0 mph17.7 kmh 29.60 in1002.4 mb 0.00 in0.0 mm 0.00 in0.0 mm 0.00 in0.0 mm
06:40 PM 33.2°F0.7°C 30.0°F-1.1°C 88% 8.8 mph N14.2 kmh N 10.0 mph16.1 kmh 29.60 in1002.4 mb 0.00 in0.0 mm 0.00 in0.0 mm 0.00 in0.0 mm
06:41 PM 33.2°F0.7°C 30.0°F-1.1°C 88% 8.6 mph N13.8 kmh N 10.0 mph16.1 kmh 29.60 in1002.4 mb 0.00 in0.0 mm 0.00 in0.0 mm 0.00 in0.0 mm
06:42 PM 33.2°F0.7°C 30.3°F-0.9°C 89% 7.6 mph NNW12.2 kmh NNW 10.0 mph16.1 kmh 29.60 in1002.4 mb 0.00 in0.0 mm 0.00 in0.0 mm 0.00 in0.0 mm
06:43 PM 33.1°F0.6°C 29.9°F-1.2°C 88% 8.7 mph NNW14.0 kmh NNW 10.0 mph16.1 kmh 29.60 in1002.4 mb 0.00 in0.0 mm 0.00 in0.0 mm 0.00 in0.0 mm
06:44 PM 33.2°F0.7°C 30.0°F-1.1°C 88% 9.1 mph NNW14.6 kmh NNW 10.0 mph16.1 kmh 29.60 in1002.4 mb 0.00 in0.0 mm 0.00 in0.0 mm 0.00 in0.0 mm
06:45 PM 33.1°F0.6°C 29.9°F-1.2°C 88% 9.2 mph NNW14.8 kmh NNW 10.0 mph16.1 kmh 29.60 in1002.4 mb 0.00 in0.0 mm 0.00 in0.0 mm 0.00 in0.0 mm
06:46 PM 33.1°F0.6°C 29.9°F-1.2°C 88% 8.7 mph NNW14.0 kmh NNW 10.0 mph16.1 kmh 29.60 in1002.4 mb 0.00 in0.0 mm 0.00 in0.0 mm 0.00 in0.0 mm
06:47 PM 33.1°F0.6°C 29.9°F-1.2°C 88% 8.7 mph NNW14.0 kmh NNW 10.0 mph16.1 kmh 29.60 in1002.4 mb 0.00 in0.0 mm 0.00 in0.0 mm 0.00 in0.0 mm
06:48 PM 33.1°F0.6°C 30.2°F-1.0°C 89% 8.3 mph NNW13.4 kmh NNW 10.0 mph16.1 kmh 29.60 in1002.4 mb 0.00 in0.0 mm 0.00 in0.0 mm 0.00 in0.0 mm
06:49 PM 33.0°F0.6°C 29.8°F-1.2°C 88% 7.7 mph NNW12.4 kmh NNW 9.0 mph14.5 kmh 29.60 in1002.4 mb 0.00 in0.0 mm 0.00 in0.0 mm 0.00 in0.0 mm
06:50 PM 33.0°F0.6°C 30.1°F-1.1°C 89% 7.7 mph NNW12.4 kmh NNW 9.0 mph14.5 kmh 29.60 in1002.4 mb 0.00 in0.0 mm 0.00 in0.0 mm 0.00 in0.0 mm
06:51 PM 33.0°F0.6°C 29.8°F-1.2°C 88% 7.5 mph NNW12.1 kmh NNW 9.0 mph14.5 kmh 29.60 in1002.4 mb 0.00 in0.0 mm 0.00 in0.0 mm 0.00 in0.0 mm
06:52 PM 32.9°F0.5°C 29.7°F-1.3°C 88% 7.0 mph NNW11.3 kmh NNW 9.0 mph14.5 kmh 29.61 in1002.7 mb 0.00 in0.0 mm 0.00 in0.0 mm 0.00 in0.0 mm
06:53 PM 32.9°F0.5°C 29.7°F-1.3°C 88% 6.6 mph NNW10.6 kmh NNW 8.0 mph12.9 kmh 29.61 in1002.7 mb 0.00 in0.0 mm 0.00 in0.0 mm 0.00 in0.0 mm
06:54 PM 32.9°F0.5°C 29.7°F-1.3°C 88% 7.0 mph NNW11.3 kmh NNW 8.0 mph12.9 kmh 29.61 in1002.7 mb 0.00 in0.0 mm 0.00 in0.0 mm 0.00 in0.0 mm
06:55 PM 32.9°F0.5°C 29.7°F-1.3°C 88% 6.5 mph NNW10.5 kmh NNW 8.0 mph12.9 kmh 29.61 in1002.7 mb 0.00 in0.0 mm 0.00 in0.0 mm 0.00 in0.0 mm
06:56 PM 32.9°F0.5°C 29.7°F-1.3°C 88% 6.5 mph NNW10.5 kmh NNW 8.0 mph12.9 kmh 29.61 in1002.7 mb 0.00 in0.0 mm 0.00 in0.0 mm 0.00 in0.0 mm
06:57 PM 32.8°F0.4°C 29.9°F-1.2°C 89% 5.7 mph NNW9.2 kmh NNW 8.0 mph12.9 kmh 29.61 in1002.7 mb 0.00 in0.0 mm 0.00 in0.0 mm 0.00 in0.0 mm
06:58 PM 32.8°F0.4°C 29.9°F-1.2°C 89% 5.3 mph NNW8.5 kmh NNW 6.0 mph9.7 kmh 29.61 in1002.7 mb 0.00 in0.0 mm 0.00 in0.0 mm 0.00 in0.0 mm
06:59 PM 32.8°F0.4°C 29.9°F-1.2°C 89% 5.0 mph NNW8.0 kmh NNW 6.0 mph9.7 kmh 29.61 in1002.7 mb 0.00 in0.0 mm 0.00 in0.0 mm 0.00 in0.0 mm
07:00 PM 32.7°F0.4°C 29.8°F-1.2°C 89% 4.9 mph NNW7.9 kmh NNW 6.0 mph9.7 kmh 29.61 in1002.7 mb 0.00 in0.0 mm 0.00 in0.0 mm 0.00 in0.0 mm
07:01 PM 32.7°F0.4°C 29.8°F-1.2°C 89% 5.4 mph NNW8.7 kmh NNW 6.0 mph9.7 kmh 29.61 in1002.7 mb 0.00 in0.0 mm 0.00 in0.0 mm 0.00 in0.0 mm
07:02 PM 32.7°F0.4°C 29.8°F-1.2°C 89% 5.4 mph NNW8.7 kmh NNW 6.0 mph9.7 kmh 29.61 in1002.7 mb 0.00 in0.0 mm 0.00 in0.0 mm 0.00 in0.0 mm
07:03 PM 32.6°F0.3°C 29.7°F-1.3°C 89% 5.5 mph NNW8.9 kmh NNW 6.0 mph9.7 kmh 29.61 in1002.7 mb 0.00 in0.0 mm 0.00 in0.0 mm 0.00 in0.0 mm
07:04 PM 32.7°F0.4°C 29.8°F-1.2°C 89% 6.0 mph NNW9.7 kmh NNW 8.0 mph12.9 kmh 29.61 in1002.7 mb 0.00 in0.0 mm 0.00 in0.0 mm 0.00 in0.0 mm
07:05 PM 32.6°F0.3°C 29.7°F-1.3°C 89% 6.4 mph N10.3 kmh N 8.0 mph12.9 kmh 29.61 in1002.7 mb 0.00 in0.0 mm 0.00 in0.0 mm 0.00 in0.0 mm
07:06 PM 32.6°F0.3°C 29.7°F-1.3°C 89% 7.2 mph N11.6 kmh N 9.0 mph14.5 kmh 29.61 in1002.7 mb 0.00 in0.0 mm 0.00 in0.0 mm 0.00 in0.0 mm
07:07 PM 32.7°F0.4°C 29.8°F-1.2°C 89% 7.3 mph N11.7 kmh N 9.0 mph14.5 kmh 29.61 in1002.7 mb 0.00 in0.0 mm 0.00 in0.0 mm 0.00 in0.0 mm
07:08 PM 32.6°F0.3°C 29.7°F-1.3°C 89% 7.7 mph N12.4 kmh N 9.0 mph14.5 kmh 29.61 in1002.7 mb 0.00 in0.0 mm 0.00 in0.0 mm 0.00 in0.0 mm
07:09 PM 32.7°F0.4°C 29.8°F-1.2°C 89% 8.4 mph N13.5 kmh N 9.0 mph14.5 kmh 29.61 in1002.7 mb 0.00 in0.0 mm 0.00 in0.0 mm 0.00 in0.0 mm
07:10 PM 32.7°F0.4°C 29.8°F-1.2°C 89% 8.3 mph NNW13.4 kmh NNW 9.0 mph14.5 kmh 29.61 in1002.7 mb 0.00 in0.0 mm 0.00 in0.0 mm 0.00 in0.0 mm
07:11 PM 32.7°F0.4°C 29.8°F-1.2°C 89% 8.5 mph NNW13.7 kmh NNW 10.0 mph16.1 kmh 29.61 in1002.7 mb 0.00 in0.0 mm 0.00 in0.0 mm 0.00 in0.0 mm
07:12 PM 32.8°F0.4°C 29.9°F-1.2°C 89% 9.0 mph NNW14.5 kmh NNW 10.0 mph16.1 kmh 29.61 in1002.7 mb 0.00 in0.0 mm 0.00 in0.0 mm 0.00 in0.0 mm
07:13 PM 32.8°F0.4°C 29.9°F-1.2°C 89% 9.0 mph N14.5 kmh N 11.0 mph17.7 kmh 29.62 in1003.0 mb 0.00 in0.0 mm 0.00 in0.0 mm 0.00 in0.0 mm
07:14 PM 32.8°F0.4°C 29.9°F-1.2°C 89% 8.8 mph N14.2 kmh N 11.0 mph17.7 kmh 29.62 in1003.0 mb 0.00 in0.0 mm 0.00 in0.0 mm 0.00 in0.0 mm
07:15 PM 32.8°F0.4°C 29.9°F-1.2°C 89% 9.0 mph NNW14.5 kmh NNW 10.0 mph16.1 kmh 29.62 in1003.0 mb 0.00 in0.0 mm 0.00 in0.0 mm 0.00 in0.0 mm
07:16 PM 32.9°F0.5°C 30.0°F-1.1°C 89% 9.4 mph NNW15.1 kmh NNW 11.0 mph17.7 kmh 29.62 in1003.0 mb 0.00 in0.0 mm 0.00 in0.0 mm 0.00 in0.0 mm
07:17 PM 32.9°F0.5°C 30.0°F-1.1°C 89% 9.6 mph N15.4 kmh N 11.0 mph17.7 kmh 29.62 in1003.0 mb 0.00 in0.0 mm 0.00 in0.0 mm 0.00 in0.0 mm
07:18 PM 32.9°F0.5°C 30.0°F-1.1°C 89% 9.9 mph N15.9 kmh N 11.0 mph17.7 kmh 29.62 in1003.0 mb 0.00 in0.0 mm 0.00 in0.0 mm 0.00 in0.0 mm
07:19 PM 33.0°F0.6°C 30.1°F-1.1°C 89% 9.7 mph N15.6 kmh N 11.0 mph17.7 kmh 29.62 in1003.0 mb 0.00 in0.0 mm 0.00 in0.0 mm 0.00 in0.0 mm
07:20 PM 33.0°F0.6°C 30.1°F-1.1°C 89% 9.5 mph NNW15.3 kmh NNW 11.0 mph17.7 kmh 29.62 in1003.0 mb 0.00 in0.0 mm 0.00 in0.0 mm 0.00 in0.0 mm
07:21 PM 33.0°F0.6°C 30.1°F-1.1°C 89% 8.8 mph NNW14.2 kmh NNW 11.0 mph17.7 kmh 29.62 in1003.0 mb 0.00 in0.0 mm 0.00 in0.0 mm 0.00 in0.0 mm
07:22 PM 33.0°F0.6°C 30.1°F-1.1°C 89% 9.0 mph NNW14.5 kmh NNW 10.0 mph16.1 kmh 29.62 in1003.0 mb 0.00 in0.0 mm 0.00 in0.0 mm 0.00 in0.0 mm
07:23 PM 32.9°F0.5°C 30.0°F-1.1°C 89% 8.3 mph NNW13.4 kmh NNW 10.0 mph16.1 kmh 29.62 in1003.0 mb 0.00 in0.0 mm 0.00 in0.0 mm 0.00 in0.0 mm
07:24 PM 32.9°F0.5°C 30.0°F-1.1°C 89% 8.5 mph NNW13.7 kmh NNW 9.0 mph14.5 kmh 29.62 in1003.0 mb 0.00 in0.0 mm 0.00 in0.0 mm 0.00 in0.0 mm
07:25 PM 32.9°F0.5°C 30.0°F-1.1°C 89% 8.9 mph NNW14.3 kmh NNW 10.0 mph16.1 kmh 29.62 in1003.0 mb 0.00 in0.0 mm 0.00 in0.0 mm 0.00 in0.0 mm
07:26 PM 32.9°F0.5°C 30.0°F-1.1°C 89% 8.3 mph NNW13.4 kmh NNW 10.0 mph16.1 kmh 29.62 in1003.0 mb 0.00 in0.0 mm 0.00 in0.0 mm 0.00 in0.0 mm
07:27 PM 32.8°F0.4°C 29.9°F-1.2°C 89% 8.5 mph NNW13.7 kmh NNW 9.0 mph14.5 kmh 29.62 in1003.0 mb 0.00 in0.0 mm 0.00 in0.0 mm 0.00 in0.0 mm
07:28 PM 32.8°F0.4°C 29.9°F-1.2°C 89% 8.5 mph NNW13.7 kmh NNW 9.0 mph14.5 kmh 29.62 in1003.0 mb 0.00 in0.0 mm 0.00 in0.0 mm 0.00 in0.0 mm
07:29 PM 32.7°F0.4°C 29.8°F-1.2°C 89% 8.1 mph NNW13.0 kmh NNW 9.0 mph14.5 kmh 29.62 in1003.0 mb 0.00 in0.0 mm 0.00 in0.0 mm 0.00 in0.0 mm
07:30 PM 32.7°F0.4°C 29.8°F-1.2°C 89% 8.5 mph NNW13.7 kmh NNW 9.0 mph14.5 kmh 29.63 in1003.4 mb 0.00 in0.0 mm 0.00 in0.0 mm 0.00 in0.0 mm
07:31 PM 32.7°F0.4°C 29.8°F-1.2°C 89% 8.4 mph NNW13.5 kmh NNW 9.0 mph14.5 kmh 29.63 in1003.4 mb 0.00 in0.0 mm 0.00 in0.0 mm 0.00 in0.0 mm
07:32 PM<